<?xml version="1.0" encoding="UTF-8" standalone="no" ?>
<gpx xmlns="http://www.topografix.com/GPX/1/1" xmlns:xsi="http://www.w3.org/2001/XMLSchema-instance" xsi:schemaLocation="http://www.topografix.com/GPX/1/1 http://www.topografix.com/GPX/1/1/gpx.xsd" version="1.1" creator="VisuGPX - https://www.visugpx.com">
  <metadata>
    <name>VTT confiné du mardi 3 novembre 2020 (R = 1km)</name>
    <desc><![CDATA[Temps gris avec la pluie qui a cessé en fin d'après-midi, 11°, cuissard long, gants courts.
En restant à moins de 1 km, j'ai gravi les trois côtes mythiques (pour moi) et pour la première fois sans poser le pied dans la Gravière. [i]On peut remarquer une légère tricherie : trop éloigné aux km 4 et 5[/i]
PS : j'ai fait 2 fois le boulevard Emman ,vers les Rêpes : il était inondé en partie, ce qui a lavé mes roues ...]]></desc>
  </metadata>
  <wpt lat="47.64453" lon="6.18313">
    <ele>232</ele>
    <name><![CDATA[0000104]]></name>
    <type><![CDATA[Point de départ]]></type>
  </wpt>
  <wpt lat="47.64438" lon="6.18319">
    <ele>230</ele>
    <name><![CDATA[0000105]]></name>
    <type><![CDATA[Point d'arrivée]]></type>
  </wpt>
  <trk>
    <name><![CDATA[2020-11-03 16:18]]></name>
    <desc><![CDATA[<p>Heure de départ: 11/03/2020 16:18<br/>Heure d'arrivée: 11/03/2020 17:26<br/>Distance: 13,2 km (01:07)<br/>Temps déplacement: 01:05<br/>Vitesse moyenne: 11,61 km/h<br/>Vitesse moyenne mouv.: 11,97 km/h<br/>Vitesse Max.: 37,23 km/h<br/>Altitude minimale: 218 m<br/>Altitude maximale: 268 m<br/>Vitesse de montée: 160,7 m/h<br/>Vitesse de descente: -218,8 m/h<br/>Gain d'altitude: 99 m<br/>Perte d'altitude: -95 m<br/>Temps de montée: 00:37<br/>Temps de descente: 00:26<br/></p><hr align="center" width="480" style="height: 2px; width: 517px"/>]]></desc>
    <trkseg>
      <trkpt lat="47.64453" lon="6.18313">
        <ele>232</ele>
        <time>2020-11-03T15:18:28Z</time>
      </trkpt>
      <trkpt lat="47.64457" lon="6.18308">
        <ele>232</ele>
        <time>2020-11-03T15:18:31Z</time>
      </trkpt>
      <trkpt lat="47.64458" lon="6.183">
        <ele>232</ele>
        <time>2020-11-03T15:18:33Z</time>
      </trkpt>
      <trkpt lat="47.64458" lon="6.18307">
        <ele>232</ele>
        <time>2020-11-03T15:18:39Z</time>
      </trkpt>
      <trkpt lat="47.64456" lon="6.183">
        <ele>231</ele>
        <time>2020-11-03T15:18:50Z</time>
      </trkpt>
      <trkpt lat="47.64455" lon="6.18292">
        <ele>231</ele>
        <time>2020-11-03T15:18:53Z</time>
      </trkpt>
      <trkpt lat="47.6445" lon="6.18287">
        <ele>230</ele>
        <time>2020-11-03T15:18:56Z</time>
      </trkpt>
      <trkpt lat="47.64441" lon="6.1828">
        <ele>229</ele>
        <time>2020-11-03T15:18:56Z</time>
      </trkpt>
      <trkpt lat="47.64437" lon="6.18275">
        <ele>229</ele>
        <time>2020-11-03T15:19:03Z</time>
      </trkpt>
      <trkpt lat="47.64433" lon="6.18268">
        <ele>228</ele>
        <time>2020-11-03T15:19:06Z</time>
      </trkpt>
      <trkpt lat="47.64424" lon="6.18264">
        <ele>226</ele>
        <time>2020-11-03T15:19:11Z</time>
      </trkpt>
      <trkpt lat="47.64424" lon="6.18271">
        <ele>227</ele>
        <time>2020-11-03T15:19:14Z</time>
      </trkpt>
      <trkpt lat="47.64428" lon="6.1828">
        <ele>228</ele>
        <time>2020-11-03T15:19:17Z</time>
      </trkpt>
      <trkpt lat="47.64431" lon="6.18286">
        <ele>229</ele>
        <time>2020-11-03T15:19:18Z</time>
      </trkpt>
      <trkpt lat="47.64438" lon="6.18295">
        <ele>230</ele>
        <time>2020-11-03T15:19:21Z</time>
      </trkpt>
      <trkpt lat="47.64449" lon="6.18289">
        <ele>230</ele>
        <time>2020-11-03T15:19:21Z</time>
      </trkpt>
      <trkpt lat="47.64453" lon="6.18283">
        <ele>230</ele>
        <time>2020-11-03T15:19:23Z</time>
      </trkpt>
      <trkpt lat="47.64456" lon="6.18277">
        <ele>230</ele>
        <time>2020-11-03T15:19:25Z</time>
      </trkpt>
      <trkpt lat="47.64461" lon="6.18272">
        <ele>230</ele>
        <time>2020-11-03T15:19:27Z</time>
      </trkpt>
      <trkpt lat="47.64464" lon="6.18267">
        <ele>230</ele>
        <time>2020-11-03T15:19:29Z</time>
      </trkpt>
      <trkpt lat="47.64468" lon="6.18262">
        <ele>230</ele>
        <time>2020-11-03T15:19:31Z</time>
      </trkpt>
      <trkpt lat="47.64472" lon="6.18256">
        <ele>231</ele>
        <time>2020-11-03T15:19:33Z</time>
      </trkpt>
      <trkpt lat="47.64475" lon="6.1825">
        <ele>227</ele>
        <time>2020-11-03T15:19:39Z</time>
      </trkpt>
      <trkpt lat="47.64478" lon="6.18244">
        <ele>227</ele>
        <time>2020-11-03T15:19:41Z</time>
      </trkpt>
      <trkpt lat="47.64482" lon="6.18233">
        <ele>227</ele>
        <time>2020-11-03T15:19:43Z</time>
      </trkpt>
      <trkpt lat="47.6449" lon="6.18216">
        <ele>227</ele>
        <time>2020-11-03T15:19:46Z</time>
      </trkpt>
      <trkpt lat="47.64495" lon="6.18201">
        <ele>226</ele>
        <time>2020-11-03T15:19:48Z</time>
      </trkpt>
      <trkpt lat="47.64498" lon="6.18192">
        <ele>226</ele>
        <time>2020-11-03T15:19:50Z</time>
      </trkpt>
      <trkpt lat="47.64503" lon="6.18176">
        <ele>229</ele>
        <time>2020-11-03T15:19:53Z</time>
      </trkpt>
      <trkpt lat="47.64513" lon="6.18163">
        <ele>228</ele>
        <time>2020-11-03T15:19:57Z</time>
      </trkpt>
      <trkpt lat="47.6452" lon="6.1816">
        <ele>230</ele>
        <time>2020-11-03T15:19:59Z</time>
      </trkpt>
      <trkpt lat="47.64525" lon="6.18157">
        <ele>230</ele>
        <time>2020-11-03T15:20:01Z</time>
      </trkpt>
      <trkpt lat="47.64529" lon="6.18152">
        <ele>231</ele>
        <time>2020-11-03T15:20:05Z</time>
      </trkpt>
      <trkpt lat="47.64531" lon="6.18145">
        <ele>231</ele>
        <time>2020-11-03T15:20:10Z</time>
      </trkpt>
      <trkpt lat="47.6453" lon="6.18138">
        <ele>231</ele>
        <time>2020-11-03T15:20:16Z</time>
      </trkpt>
      <trkpt lat="47.64534" lon="6.18133">
        <ele>232</ele>
        <time>2020-11-03T15:20:16Z</time>
      </trkpt>
      <trkpt lat="47.64535" lon="6.18126">
        <ele>232</ele>
        <time>2020-11-03T15:20:27Z</time>
      </trkpt>
      <trkpt lat="47.64539" lon="6.18113">
        <ele>232</ele>
        <time>2020-11-03T15:20:35Z</time>
      </trkpt>
      <trkpt lat="47.64542" lon="6.18108">
        <ele>232</ele>
        <time>2020-11-03T15:20:41Z</time>
      </trkpt>
      <trkpt lat="47.64546" lon="6.18092">
        <ele>233</ele>
        <time>2020-11-03T15:20:48Z</time>
      </trkpt>
      <trkpt lat="47.64546" lon="6.18083">
        <ele>231</ele>
        <time>2020-11-03T15:20:51Z</time>
      </trkpt>
      <trkpt lat="47.64546" lon="6.18073">
        <ele>231</ele>
        <time>2020-11-03T15:20:53Z</time>
      </trkpt>
      <trkpt lat="47.64543" lon="6.18052">
        <ele>230</ele>
        <time>2020-11-03T15:20:56Z</time>
      </trkpt>
      <trkpt lat="47.64536" lon="6.18026">
        <ele>229</ele>
        <time>2020-11-03T15:21:00Z</time>
      </trkpt>
      <trkpt lat="47.6453" lon="6.18027">
        <ele>229</ele>
        <time>2020-11-03T15:21:02Z</time>
      </trkpt>
      <trkpt lat="47.64515" lon="6.18035">
        <ele>228</ele>
        <time>2020-11-03T15:21:06Z</time>
      </trkpt>
      <trkpt lat="47.64508" lon="6.18035">
        <ele>227</ele>
        <time>2020-11-03T15:21:07Z</time>
      </trkpt>
      <trkpt lat="47.64466" lon="6.1802">
        <ele>223</ele>
        <time>2020-11-03T15:21:07Z</time>
      </trkpt>
      <trkpt lat="47.64461" lon="6.18015">
        <ele>223</ele>
        <time>2020-11-03T15:21:08Z</time>
      </trkpt>
      <trkpt lat="47.64457" lon="6.18009">
        <ele>223</ele>
        <time>2020-11-03T15:21:09Z</time>
      </trkpt>
      <trkpt lat="47.64453" lon="6.18003">
        <ele>223</ele>
        <time>2020-11-03T15:21:10Z</time>
      </trkpt>
      <trkpt lat="47.6445" lon="6.17996">
        <ele>222</ele>
        <time>2020-11-03T15:21:11Z</time>
      </trkpt>
      <trkpt lat="47.64447" lon="6.17989">
        <ele>222</ele>
        <time>2020-11-03T15:21:12Z</time>
      </trkpt>
      <trkpt lat="47.64444" lon="6.17983">
        <ele>222</ele>
        <time>2020-11-03T15:21:13Z</time>
      </trkpt>
      <trkpt lat="47.64441" lon="6.17978">
        <ele>222</ele>
        <time>2020-11-03T15:21:14Z</time>
      </trkpt>
      <trkpt lat="47.64437" lon="6.1797">
        <ele>222</ele>
        <time>2020-11-03T15:21:16Z</time>
      </trkpt>
      <trkpt lat="47.64433" lon="6.17962">
        <ele>222</ele>
        <time>2020-11-03T15:21:18Z</time>
      </trkpt>
      <trkpt lat="47.64428" lon="6.17954">
        <ele>222</ele>
        <time>2020-11-03T15:21:20Z</time>
      </trkpt>
      <trkpt lat="47.64424" lon="6.17962">
        <ele>222</ele>
        <time>2020-11-03T15:21:28Z</time>
      </trkpt>
      <trkpt lat="47.64416" lon="6.17933">
        <ele>221</ele>
        <time>2020-11-03T15:21:32Z</time>
      </trkpt>
      <trkpt lat="47.64414" lon="6.17926">
        <ele>221</ele>
        <time>2020-11-03T15:21:33Z</time>
      </trkpt>
      <trkpt lat="47.6441" lon="6.17916">
        <ele>221</ele>
        <time>2020-11-03T15:21:35Z</time>
      </trkpt>
      <trkpt lat="47.64405" lon="6.17908">
        <ele>221</ele>
        <time>2020-11-03T15:21:37Z</time>
      </trkpt>
      <trkpt lat="47.64401" lon="6.17899">
        <ele>221</ele>
        <time>2020-11-03T15:21:38Z</time>
      </trkpt>
      <trkpt lat="47.64398" lon="6.17893">
        <ele>221</ele>
        <time>2020-11-03T15:21:40Z</time>
      </trkpt>
      <trkpt lat="47.64393" lon="6.17884">
        <ele>220</ele>
        <time>2020-11-03T15:21:42Z</time>
      </trkpt>
      <trkpt lat="47.6439" lon="6.17879">
        <ele>220</ele>
        <time>2020-11-03T15:21:44Z</time>
      </trkpt>
      <trkpt lat="47.6438" lon="6.17864">
        <ele>220</ele>
        <time>2020-11-03T15:21:47Z</time>
      </trkpt>
      <trkpt lat="47.64372" lon="6.17852">
        <ele>220</ele>
        <time>2020-11-03T15:21:50Z</time>
      </trkpt>
      <trkpt lat="47.64368" lon="6.17847">
        <ele>220</ele>
        <time>2020-11-03T15:21:51Z</time>
      </trkpt>
      <trkpt lat="47.64361" lon="6.17839">
        <ele>220</ele>
        <time>2020-11-03T15:21:54Z</time>
      </trkpt>
      <trkpt lat="47.64356" lon="6.17831">
        <ele>220</ele>
        <time>2020-11-03T15:21:56Z</time>
      </trkpt>
      <trkpt lat="47.64354" lon="6.17824">
        <ele>220</ele>
        <time>2020-11-03T15:21:57Z</time>
      </trkpt>
      <trkpt lat="47.64352" lon="6.17816">
        <ele>220</ele>
        <time>2020-11-03T15:21:58Z</time>
      </trkpt>
      <trkpt lat="47.64342" lon="6.17805">
        <ele>220</ele>
        <time>2020-11-03T15:22:01Z</time>
      </trkpt>
      <trkpt lat="47.64337" lon="6.17802">
        <ele>220</ele>
        <time>2020-11-03T15:22:03Z</time>
      </trkpt>
      <trkpt lat="47.64331" lon="6.17798">
        <ele>219</ele>
        <time>2020-11-03T15:22:04Z</time>
      </trkpt>
      <trkpt lat="47.64326" lon="6.17795">
        <ele>219</ele>
        <time>2020-11-03T15:22:05Z</time>
      </trkpt>
      <trkpt lat="47.64313" lon="6.17787">
        <ele>219</ele>
        <time>2020-11-03T15:22:08Z</time>
      </trkpt>
      <trkpt lat="47.64308" lon="6.17784">
        <ele>219</ele>
        <time>2020-11-03T15:22:10Z</time>
      </trkpt>
      <trkpt lat="47.64303" lon="6.17781">
        <ele>219</ele>
        <time>2020-11-03T15:22:11Z</time>
      </trkpt>
      <trkpt lat="47.64282" lon="6.1777">
        <ele>219</ele>
        <time>2020-11-03T15:22:11Z</time>
      </trkpt>
      <trkpt lat="47.64278" lon="6.17768">
        <ele>218</ele>
        <time>2020-11-03T15:22:12Z</time>
      </trkpt>
      <trkpt lat="47.64271" lon="6.17764">
        <ele>218</ele>
        <time>2020-11-03T15:22:19Z</time>
      </trkpt>
      <trkpt lat="47.64251" lon="6.17752">
        <ele>217</ele>
        <time>2020-11-03T15:22:23Z</time>
      </trkpt>
      <trkpt lat="47.64231" lon="6.17735">
        <ele>217</ele>
        <time>2020-11-03T15:22:29Z</time>
      </trkpt>
      <trkpt lat="47.64225" lon="6.17729">
        <ele>217</ele>
        <time>2020-11-03T15:22:31Z</time>
      </trkpt>
      <trkpt lat="47.64216" lon="6.17719">
        <ele>217</ele>
        <time>2020-11-03T15:22:33Z</time>
      </trkpt>
      <trkpt lat="47.64207" lon="6.17707">
        <ele>218</ele>
        <time>2020-11-03T15:22:36Z</time>
      </trkpt>
      <trkpt lat="47.6419" lon="6.17684">
        <ele>218</ele>
        <time>2020-11-03T15:22:37Z</time>
      </trkpt>
      <trkpt lat="47.64184" lon="6.17675">
        <ele>218</ele>
        <time>2020-11-03T15:22:39Z</time>
      </trkpt>
      <trkpt lat="47.64179" lon="6.17668">
        <ele>218</ele>
        <time>2020-11-03T15:22:45Z</time>
      </trkpt>
      <trkpt lat="47.6417" lon="6.17656">
        <ele>219</ele>
        <time>2020-11-03T15:22:48Z</time>
      </trkpt>
      <trkpt lat="47.6416" lon="6.17642">
        <ele>218</ele>
        <time>2020-11-03T15:22:52Z</time>
      </trkpt>
      <trkpt lat="47.64143" lon="6.17618">
        <ele>218</ele>
        <time>2020-11-03T15:22:53Z</time>
      </trkpt>
      <trkpt lat="47.64137" lon="6.1761">
        <ele>218</ele>
        <time>2020-11-03T15:22:55Z</time>
      </trkpt>
      <trkpt lat="47.64131" lon="6.17602">
        <ele>217</ele>
        <time>2020-11-03T15:22:57Z</time>
      </trkpt>
      <trkpt lat="47.64125" lon="6.17595">
        <ele>217</ele>
        <time>2020-11-03T15:23:04Z</time>
      </trkpt>
      <trkpt lat="47.64116" lon="6.17578">
        <ele>217</ele>
        <time>2020-11-03T15:23:07Z</time>
      </trkpt>
      <trkpt lat="47.641" lon="6.17556">
        <ele>217</ele>
        <time>2020-11-03T15:23:12Z</time>
      </trkpt>
      <trkpt lat="47.64084" lon="6.17534">
        <ele>217</ele>
        <time>2020-11-03T15:23:13Z</time>
      </trkpt>
      <trkpt lat="47.64078" lon="6.17525">
        <ele>217</ele>
        <time>2020-11-03T15:23:15Z</time>
      </trkpt>
      <trkpt lat="47.64073" lon="6.17518">
        <ele>217</ele>
        <time>2020-11-03T15:23:22Z</time>
      </trkpt>
      <trkpt lat="47.64058" lon="6.17497">
        <ele>218</ele>
        <time>2020-11-03T15:23:22Z</time>
      </trkpt>
      <trkpt lat="47.64053" lon="6.1749">
        <ele>218</ele>
        <time>2020-11-03T15:23:24Z</time>
      </trkpt>
      <trkpt lat="47.64048" lon="6.17484">
        <ele>218</ele>
        <time>2020-11-03T15:23:26Z</time>
      </trkpt>
      <trkpt lat="47.64044" lon="6.17479">
        <ele>218</ele>
        <time>2020-11-03T15:23:28Z</time>
      </trkpt>
      <trkpt lat="47.6404" lon="6.17474">
        <ele>218</ele>
        <time>2020-11-03T15:23:30Z</time>
      </trkpt>
      <trkpt lat="47.64036" lon="6.17467">
        <ele>218</ele>
        <time>2020-11-03T15:23:32Z</time>
      </trkpt>
      <trkpt lat="47.64032" lon="6.17462">
        <ele>218</ele>
        <time>2020-11-03T15:23:34Z</time>
      </trkpt>
      <trkpt lat="47.64029" lon="6.17457">
        <ele>218</ele>
        <time>2020-11-03T15:23:36Z</time>
      </trkpt>
      <trkpt lat="47.64026" lon="6.17452">
        <ele>218</ele>
        <time>2020-11-03T15:23:39Z</time>
      </trkpt>
      <trkpt lat="47.64022" lon="6.17446">
        <ele>218</ele>
        <time>2020-11-03T15:23:42Z</time>
      </trkpt>
      <trkpt lat="47.64019" lon="6.17441">
        <ele>218</ele>
        <time>2020-11-03T15:23:45Z</time>
      </trkpt>
      <trkpt lat="47.64015" lon="6.17435">
        <ele>218</ele>
        <time>2020-11-03T15:23:48Z</time>
      </trkpt>
      <trkpt lat="47.6401" lon="6.17428">
        <ele>219</ele>
        <time>2020-11-03T15:23:51Z</time>
      </trkpt>
      <trkpt lat="47.64005" lon="6.17425">
        <ele>219</ele>
        <time>2020-11-03T15:23:53Z</time>
      </trkpt>
      <trkpt lat="47.64001" lon="6.17429">
        <ele>219</ele>
        <time>2020-11-03T15:23:55Z</time>
      </trkpt>
      <trkpt lat="47.64006" lon="6.17437">
        <ele>218</ele>
        <time>2020-11-03T15:24:03Z</time>
      </trkpt>
      <trkpt lat="47.64015" lon="6.17454">
        <ele>218</ele>
        <time>2020-11-03T15:24:06Z</time>
      </trkpt>
      <trkpt lat="47.64026" lon="6.1747">
        <ele>218</ele>
        <time>2020-11-03T15:24:10Z</time>
      </trkpt>
      <trkpt lat="47.64036" lon="6.17484">
        <ele>218</ele>
        <time>2020-11-03T15:24:12Z</time>
      </trkpt>
      <trkpt lat="47.64042" lon="6.17493">
        <ele>218</ele>
        <time>2020-11-03T15:24:15Z</time>
      </trkpt>
      <trkpt lat="47.64045" lon="6.17498">
        <ele>218</ele>
        <time>2020-11-03T15:24:16Z</time>
      </trkpt>
      <trkpt lat="47.64051" lon="6.17506">
        <ele>218</ele>
        <time>2020-11-03T15:24:17Z</time>
      </trkpt>
      <trkpt lat="47.64055" lon="6.17511">
        <ele>217</ele>
        <time>2020-11-03T15:24:19Z</time>
      </trkpt>
      <trkpt lat="47.64065" lon="6.17526">
        <ele>217</ele>
        <time>2020-11-03T15:24:22Z</time>
      </trkpt>
      <trkpt lat="47.64069" lon="6.17531">
        <ele>217</ele>
        <time>2020-11-03T15:24:23Z</time>
      </trkpt>
      <trkpt lat="47.64075" lon="6.17538">
        <ele>217</ele>
        <time>2020-11-03T15:24:24Z</time>
      </trkpt>
      <trkpt lat="47.64089" lon="6.1756">
        <ele>217</ele>
        <time>2020-11-03T15:24:29Z</time>
      </trkpt>
      <trkpt lat="47.64093" lon="6.17565">
        <ele>217</ele>
        <time>2020-11-03T15:24:30Z</time>
      </trkpt>
      <trkpt lat="47.641" lon="6.17574">
        <ele>217</ele>
        <time>2020-11-03T15:24:32Z</time>
      </trkpt>
      <trkpt lat="47.64105" lon="6.1758">
        <ele>217</ele>
        <time>2020-11-03T15:24:33Z</time>
      </trkpt>
      <trkpt lat="47.64108" lon="6.17585">
        <ele>217</ele>
        <time>2020-11-03T15:24:35Z</time>
      </trkpt>
      <trkpt lat="47.64112" lon="6.1759">
        <ele>217</ele>
        <time>2020-11-03T15:24:36Z</time>
      </trkpt>
      <trkpt lat="47.64117" lon="6.17597">
        <ele>217</ele>
        <time>2020-11-03T15:24:37Z</time>
      </trkpt>
      <trkpt lat="47.64121" lon="6.17602">
        <ele>217</ele>
        <time>2020-11-03T15:24:38Z</time>
      </trkpt>
      <trkpt lat="47.64135" lon="6.17624">
        <ele>217</ele>
        <time>2020-11-03T15:24:43Z</time>
      </trkpt>
      <trkpt lat="47.64144" lon="6.17638">
        <ele>217</ele>
        <time>2020-11-03T15:24:46Z</time>
      </trkpt>
      <trkpt lat="47.64154" lon="6.17652">
        <ele>218</ele>
        <time>2020-11-03T15:24:50Z</time>
      </trkpt>
      <trkpt lat="47.64161" lon="6.17662">
        <ele>218</ele>
        <time>2020-11-03T15:24:52Z</time>
      </trkpt>
      <trkpt lat="47.64167" lon="6.1767">
        <ele>218</ele>
        <time>2020-11-03T15:24:53Z</time>
      </trkpt>
      <trkpt lat="47.64171" lon="6.17675">
        <ele>218</ele>
        <time>2020-11-03T15:24:55Z</time>
      </trkpt>
      <trkpt lat="47.64176" lon="6.17682">
        <ele>218</ele>
        <time>2020-11-03T15:24:56Z</time>
      </trkpt>
      <trkpt lat="47.64186" lon="6.17696">
        <ele>217</ele>
        <time>2020-11-03T15:25:00Z</time>
      </trkpt>
      <trkpt lat="47.6419" lon="6.17701">
        <ele>217</ele>
        <time>2020-11-03T15:25:01Z</time>
      </trkpt>
      <trkpt lat="47.64196" lon="6.1771">
        <ele>217</ele>
        <time>2020-11-03T15:25:03Z</time>
      </trkpt>
      <trkpt lat="47.64202" lon="6.17717">
        <ele>217</ele>
        <time>2020-11-03T15:25:04Z</time>
      </trkpt>
      <trkpt lat="47.64214" lon="6.17731">
        <ele>217</ele>
        <time>2020-11-03T15:25:08Z</time>
      </trkpt>
      <trkpt lat="47.64217" lon="6.17736">
        <ele>217</ele>
        <time>2020-11-03T15:25:09Z</time>
      </trkpt>
      <trkpt lat="47.64221" lon="6.1774">
        <ele>217</ele>
        <time>2020-11-03T15:25:10Z</time>
      </trkpt>
      <trkpt lat="47.64228" lon="6.17747">
        <ele>217</ele>
        <time>2020-11-03T15:25:12Z</time>
      </trkpt>
      <trkpt lat="47.6424" lon="6.17759">
        <ele>217</ele>
        <time>2020-11-03T15:25:15Z</time>
      </trkpt>
      <trkpt lat="47.64263" lon="6.17776">
        <ele>218</ele>
        <time>2020-11-03T15:25:15Z</time>
      </trkpt>
      <trkpt lat="47.64267" lon="6.17779">
        <ele>218</ele>
        <time>2020-11-03T15:25:16Z</time>
      </trkpt>
      <trkpt lat="47.64272" lon="6.17781">
        <ele>218</ele>
        <time>2020-11-03T15:25:17Z</time>
      </trkpt>
      <trkpt lat="47.64276" lon="6.17784">
        <ele>219</ele>
        <time>2020-11-03T15:25:18Z</time>
      </trkpt>
      <trkpt lat="47.64281" lon="6.17786">
        <ele>219</ele>
        <time>2020-11-03T15:25:19Z</time>
      </trkpt>
      <trkpt lat="47.64285" lon="6.17789">
        <ele>219</ele>
        <time>2020-11-03T15:25:20Z</time>
      </trkpt>
      <trkpt lat="47.6429" lon="6.17791">
        <ele>219</ele>
        <time>2020-11-03T15:25:21Z</time>
      </trkpt>
      <trkpt lat="47.64295" lon="6.17794">
        <ele>219</ele>
        <time>2020-11-03T15:25:22Z</time>
      </trkpt>
      <trkpt lat="47.64299" lon="6.17797">
        <ele>219</ele>
        <time>2020-11-03T15:25:23Z</time>
      </trkpt>
      <trkpt lat="47.64304" lon="6.178">
        <ele>219</ele>
        <time>2020-11-03T15:25:24Z</time>
      </trkpt>
      <trkpt lat="47.64308" lon="6.17803">
        <ele>219</ele>
        <time>2020-11-03T15:25:25Z</time>
      </trkpt>
      <trkpt lat="47.64313" lon="6.17805">
        <ele>219</ele>
        <time>2020-11-03T15:25:26Z</time>
      </trkpt>
      <trkpt lat="47.64317" lon="6.17808">
        <ele>219</ele>
        <time>2020-11-03T15:25:27Z</time>
      </trkpt>
      <trkpt lat="47.64322" lon="6.17811">
        <ele>219</ele>
        <time>2020-11-03T15:25:28Z</time>
      </trkpt>
      <trkpt lat="47.64326" lon="6.17814">
        <ele>219</ele>
        <time>2020-11-03T15:25:29Z</time>
      </trkpt>
      <trkpt lat="47.6433" lon="6.17817">
        <ele>219</ele>
        <time>2020-11-03T15:25:30Z</time>
      </trkpt>
      <trkpt lat="47.64334" lon="6.17819">
        <ele>220</ele>
        <time>2020-11-03T15:25:31Z</time>
      </trkpt>
      <trkpt lat="47.64338" lon="6.17822">
        <ele>220</ele>
        <time>2020-11-03T15:25:32Z</time>
      </trkpt>
      <trkpt lat="47.64342" lon="6.17825">
        <ele>220</ele>
        <time>2020-11-03T15:25:33Z</time>
      </trkpt>
      <trkpt lat="47.64347" lon="6.17828">
        <ele>220</ele>
        <time>2020-11-03T15:25:34Z</time>
      </trkpt>
      <trkpt lat="47.64351" lon="6.17832">
        <ele>220</ele>
        <time>2020-11-03T15:25:35Z</time>
      </trkpt>
      <trkpt lat="47.64355" lon="6.17836">
        <ele>220</ele>
        <time>2020-11-03T15:25:36Z</time>
      </trkpt>
      <trkpt lat="47.64359" lon="6.1784">
        <ele>220</ele>
        <time>2020-11-03T15:25:37Z</time>
      </trkpt>
      <trkpt lat="47.64363" lon="6.17844">
        <ele>220</ele>
        <time>2020-11-03T15:25:38Z</time>
      </trkpt>
      <trkpt lat="47.64367" lon="6.17848">
        <ele>220</ele>
        <time>2020-11-03T15:25:39Z</time>
      </trkpt>
      <trkpt lat="47.6437" lon="6.17853">
        <ele>220</ele>
        <time>2020-11-03T15:25:40Z</time>
      </trkpt>
      <trkpt lat="47.64374" lon="6.17857">
        <ele>220</ele>
        <time>2020-11-03T15:25:41Z</time>
      </trkpt>
      <trkpt lat="47.64378" lon="6.17862">
        <ele>220</ele>
        <time>2020-11-03T15:25:42Z</time>
      </trkpt>
      <trkpt lat="47.64381" lon="6.17867">
        <ele>220</ele>
        <time>2020-11-03T15:25:43Z</time>
      </trkpt>
      <trkpt lat="47.64385" lon="6.17872">
        <ele>220</ele>
        <time>2020-11-03T15:25:44Z</time>
      </trkpt>
      <trkpt lat="47.64388" lon="6.17877">
        <ele>220</ele>
        <time>2020-11-03T15:25:45Z</time>
      </trkpt>
      <trkpt lat="47.64391" lon="6.17882">
        <ele>220</ele>
        <time>2020-11-03T15:25:46Z</time>
      </trkpt>
      <trkpt lat="47.64394" lon="6.17887">
        <ele>220</ele>
        <time>2020-11-03T15:25:47Z</time>
      </trkpt>
      <trkpt lat="47.644" lon="6.17897">
        <ele>221</ele>
        <time>2020-11-03T15:25:49Z</time>
      </trkpt>
      <trkpt lat="47.64402" lon="6.17902">
        <ele>221</ele>
        <time>2020-11-03T15:25:50Z</time>
      </trkpt>
      <trkpt lat="47.64408" lon="6.17913">
        <ele>221</ele>
        <time>2020-11-03T15:25:52Z</time>
      </trkpt>
      <trkpt lat="47.6441" lon="6.17919">
        <ele>221</ele>
        <time>2020-11-03T15:25:53Z</time>
      </trkpt>
      <trkpt lat="47.64413" lon="6.17925">
        <ele>221</ele>
        <time>2020-11-03T15:25:54Z</time>
      </trkpt>
      <trkpt lat="47.64416" lon="6.1793">
        <ele>221</ele>
        <time>2020-11-03T15:25:55Z</time>
      </trkpt>
      <trkpt lat="47.64419" lon="6.17936">
        <ele>222</ele>
        <time>2020-11-03T15:25:56Z</time>
      </trkpt>
      <trkpt lat="47.64422" lon="6.17942">
        <ele>222</ele>
        <time>2020-11-03T15:25:57Z</time>
      </trkpt>
      <trkpt lat="47.64425" lon="6.17947">
        <ele>222</ele>
        <time>2020-11-03T15:25:58Z</time>
      </trkpt>
      <trkpt lat="47.64428" lon="6.17952">
        <ele>222</ele>
        <time>2020-11-03T15:25:59Z</time>
      </trkpt>
      <trkpt lat="47.64434" lon="6.17962">
        <ele>222</ele>
        <time>2020-11-03T15:26:01Z</time>
      </trkpt>
      <trkpt lat="47.6444" lon="6.17971">
        <ele>222</ele>
        <time>2020-11-03T15:26:03Z</time>
      </trkpt>
      <trkpt lat="47.64446" lon="6.17981">
        <ele>222</ele>
        <time>2020-11-03T15:26:05Z</time>
      </trkpt>
      <trkpt lat="47.64448" lon="6.17988">
        <ele>222</ele>
        <time>2020-11-03T15:26:06Z</time>
      </trkpt>
      <trkpt lat="47.64451" lon="6.17994">
        <ele>222</ele>
        <time>2020-11-03T15:26:07Z</time>
      </trkpt>
      <trkpt lat="47.64455" lon="6.18001">
        <ele>223</ele>
        <time>2020-11-03T15:26:08Z</time>
      </trkpt>
      <trkpt lat="47.64458" lon="6.18007">
        <ele>223</ele>
        <time>2020-11-03T15:26:09Z</time>
      </trkpt>
      <trkpt lat="47.64461" lon="6.18013">
        <ele>223</ele>
        <time>2020-11-03T15:26:10Z</time>
      </trkpt>
      <trkpt lat="47.64465" lon="6.18019">
        <ele>223</ele>
        <time>2020-11-03T15:26:11Z</time>
      </trkpt>
      <trkpt lat="47.64469" lon="6.18024">
        <ele>223</ele>
        <time>2020-11-03T15:26:12Z</time>
      </trkpt>
      <trkpt lat="47.64473" lon="6.18029">
        <ele>223</ele>
        <time>2020-11-03T15:26:13Z</time>
      </trkpt>
      <trkpt lat="47.64477" lon="6.18032">
        <ele>223</ele>
        <time>2020-11-03T15:26:14Z</time>
      </trkpt>
      <trkpt lat="47.64482" lon="6.18035">
        <ele>223</ele>
        <time>2020-11-03T15:26:15Z</time>
      </trkpt>
      <trkpt lat="47.64489" lon="6.18041">
        <ele>223</ele>
        <time>2020-11-03T15:26:17Z</time>
      </trkpt>
      <trkpt lat="47.64497" lon="6.18045">
        <ele>223</ele>
        <time>2020-11-03T15:26:19Z</time>
      </trkpt>
      <trkpt lat="47.64504" lon="6.18048">
        <ele>227</ele>
        <time>2020-11-03T15:26:21Z</time>
      </trkpt>
      <trkpt lat="47.6451" lon="6.18049">
        <ele>228</ele>
        <time>2020-11-03T15:26:23Z</time>
      </trkpt>
      <trkpt lat="47.64515" lon="6.18047">
        <ele>228</ele>
        <time>2020-11-03T15:26:25Z</time>
      </trkpt>
      <trkpt lat="47.64521" lon="6.18043">
        <ele>228</ele>
        <time>2020-11-03T15:26:27Z</time>
      </trkpt>
      <trkpt lat="47.64526" lon="6.18047">
        <ele>229</ele>
        <time>2020-11-03T15:26:35Z</time>
      </trkpt>
      <trkpt lat="47.6453" lon="6.18042">
        <ele>229</ele>
        <time>2020-11-03T15:26:36Z</time>
      </trkpt>
      <trkpt lat="47.64537" lon="6.18024">
        <ele>229</ele>
        <time>2020-11-03T15:26:40Z</time>
      </trkpt>
      <trkpt lat="47.64544" lon="6.18">
        <ele>229</ele>
        <time>2020-11-03T15:26:46Z</time>
      </trkpt>
      <trkpt lat="47.6455" lon="6.17984">
        <ele>227</ele>
        <time>2020-11-03T15:26:49Z</time>
      </trkpt>
      <trkpt lat="47.64555" lon="6.17965">
        <ele>226</ele>
        <time>2020-11-03T15:26:52Z</time>
      </trkpt>
      <trkpt lat="47.64558" lon="6.17953">
        <ele>226</ele>
        <time>2020-11-03T15:26:54Z</time>
      </trkpt>
      <trkpt lat="47.64562" lon="6.17944">
        <ele>226</ele>
        <time>2020-11-03T15:26:56Z</time>
      </trkpt>
      <trkpt lat="47.64567" lon="6.17932">
        <ele>225</ele>
        <time>2020-11-03T15:26:57Z</time>
      </trkpt>
      <trkpt lat="47.64571" lon="6.17926">
        <ele>225</ele>
        <time>2020-11-03T15:26:58Z</time>
      </trkpt>
      <trkpt lat="47.64594" lon="6.17898">
        <ele>224</ele>
        <time>2020-11-03T15:26:58Z</time>
      </trkpt>
      <trkpt lat="47.646" lon="6.17894">
        <ele>223</ele>
        <time>2020-11-03T15:26:59Z</time>
      </trkpt>
      <trkpt lat="47.64605" lon="6.17892">
        <ele>223</ele>
        <time>2020-11-03T15:27:00Z</time>
      </trkpt>
      <trkpt lat="47.64611" lon="6.1789">
        <ele>223</ele>
        <time>2020-11-03T15:27:01Z</time>
      </trkpt>
      <trkpt lat="47.64617" lon="6.1789">
        <ele>223</ele>
        <time>2020-11-03T15:27:02Z</time>
      </trkpt>
      <trkpt lat="47.64623" lon="6.17891">
        <ele>223</ele>
        <time>2020-11-03T15:27:03Z</time>
      </trkpt>
      <trkpt lat="47.64628" lon="6.17892">
        <ele>223</ele>
        <time>2020-11-03T15:27:04Z</time>
      </trkpt>
      <trkpt lat="47.64633" lon="6.17893">
        <ele>223</ele>
        <time>2020-11-03T15:27:05Z</time>
      </trkpt>
      <trkpt lat="47.64638" lon="6.17895">
        <ele>223</ele>
        <time>2020-11-03T15:27:06Z</time>
      </trkpt>
      <trkpt lat="47.64642" lon="6.17897">
        <ele>223</ele>
        <time>2020-11-03T15:27:07Z</time>
      </trkpt>
      <trkpt lat="47.6465" lon="6.17901">
        <ele>223</ele>
        <time>2020-11-03T15:27:09Z</time>
      </trkpt>
      <trkpt lat="47.64658" lon="6.17905">
        <ele>222</ele>
        <time>2020-11-03T15:27:11Z</time>
      </trkpt>
      <trkpt lat="47.64667" lon="6.17909">
        <ele>222</ele>
        <time>2020-11-03T15:27:13Z</time>
      </trkpt>
      <trkpt lat="47.64671" lon="6.17911">
        <ele>222</ele>
        <time>2020-11-03T15:27:14Z</time>
      </trkpt>
      <trkpt lat="47.64675" lon="6.17914">
        <ele>222</ele>
        <time>2020-11-03T15:27:15Z</time>
      </trkpt>
      <trkpt lat="47.64678" lon="6.17918">
        <ele>223</ele>
        <time>2020-11-03T15:27:16Z</time>
      </trkpt>
      <trkpt lat="47.64685" lon="6.17925">
        <ele>223</ele>
        <time>2020-11-03T15:27:23Z</time>
      </trkpt>
      <trkpt lat="47.64689" lon="6.17929">
        <ele>223</ele>
        <time>2020-11-03T15:27:24Z</time>
      </trkpt>
      <trkpt lat="47.64698" lon="6.17939">
        <ele>224</ele>
        <time>2020-11-03T15:27:26Z</time>
      </trkpt>
      <trkpt lat="47.64701" lon="6.17944">
        <ele>224</ele>
        <time>2020-11-03T15:27:27Z</time>
      </trkpt>
      <trkpt lat="47.64705" lon="6.17949">
        <ele>224</ele>
        <time>2020-11-03T15:27:29Z</time>
      </trkpt>
      <trkpt lat="47.64709" lon="6.17956">
        <ele>224</ele>
        <time>2020-11-03T15:27:30Z</time>
      </trkpt>
      <trkpt lat="47.64713" lon="6.17961">
        <ele>224</ele>
        <time>2020-11-03T15:27:31Z</time>
      </trkpt>
      <trkpt lat="47.64717" lon="6.17967">
        <ele>224</ele>
        <time>2020-11-03T15:27:33Z</time>
      </trkpt>
      <trkpt lat="47.64723" lon="6.17976">
        <ele>224</ele>
        <time>2020-11-03T15:27:35Z</time>
      </trkpt>
      <trkpt lat="47.64726" lon="6.17982">
        <ele>224</ele>
        <time>2020-11-03T15:27:36Z</time>
      </trkpt>
      <trkpt lat="47.64729" lon="6.17987">
        <ele>224</ele>
        <time>2020-11-03T15:27:37Z</time>
      </trkpt>
      <trkpt lat="47.64733" lon="6.17994">
        <ele>223</ele>
        <time>2020-11-03T15:27:39Z</time>
      </trkpt>
      <trkpt lat="47.64738" lon="6.18001">
        <ele>226</ele>
        <time>2020-11-03T15:27:41Z</time>
      </trkpt>
      <trkpt lat="47.64741" lon="6.18007">
        <ele>226</ele>
        <time>2020-11-03T15:27:42Z</time>
      </trkpt>
      <trkpt lat="47.64744" lon="6.18012">
        <ele>227</ele>
        <time>2020-11-03T15:27:43Z</time>
      </trkpt>
      <trkpt lat="47.64748" lon="6.18017">
        <ele>228</ele>
        <time>2020-11-03T15:27:45Z</time>
      </trkpt>
      <trkpt lat="47.64752" lon="6.18025">
        <ele>225</ele>
        <time>2020-11-03T15:27:46Z</time>
      </trkpt>
      <trkpt lat="47.64756" lon="6.1803">
        <ele>226</ele>
        <time>2020-11-03T15:27:47Z</time>
      </trkpt>
      <trkpt lat="47.6476" lon="6.18035">
        <ele>226</ele>
        <time>2020-11-03T15:27:49Z</time>
      </trkpt>
      <trkpt lat="47.64766" lon="6.18042">
        <ele>227</ele>
        <time>2020-11-03T15:27:50Z</time>
      </trkpt>
      <trkpt lat="47.64769" lon="6.18046">
        <ele>227</ele>
        <time>2020-11-03T15:27:51Z</time>
      </trkpt>
      <trkpt lat="47.64781" lon="6.18055">
        <ele>227</ele>
        <time>2020-11-03T15:27:54Z</time>
      </trkpt>
      <trkpt lat="47.64785" lon="6.18058">
        <ele>227</ele>
        <time>2020-11-03T15:27:55Z</time>
      </trkpt>
      <trkpt lat="47.6479" lon="6.18061">
        <ele>227</ele>
        <time>2020-11-03T15:27:57Z</time>
      </trkpt>
      <trkpt lat="47.64797" lon="6.18065">
        <ele>227</ele>
        <time>2020-11-03T15:27:58Z</time>
      </trkpt>
      <trkpt lat="47.64803" lon="6.18067">
        <ele>227</ele>
        <time>2020-11-03T15:28:00Z</time>
      </trkpt>
      <trkpt lat="47.64809" lon="6.18069">
        <ele>226</ele>
        <time>2020-11-03T15:28:01Z</time>
      </trkpt>
      <trkpt lat="47.64814" lon="6.1807">
        <ele>226</ele>
        <time>2020-11-03T15:28:03Z</time>
      </trkpt>
      <trkpt lat="47.64822" lon="6.18072">
        <ele>226</ele>
        <time>2020-11-03T15:28:05Z</time>
      </trkpt>
      <trkpt lat="47.64829" lon="6.18072">
        <ele>226</ele>
        <time>2020-11-03T15:28:07Z</time>
      </trkpt>
      <trkpt lat="47.64836" lon="6.18073">
        <ele>225</ele>
        <time>2020-11-03T15:28:08Z</time>
      </trkpt>
      <trkpt lat="47.64846" lon="6.18073">
        <ele>225</ele>
        <time>2020-11-03T15:28:11Z</time>
      </trkpt>
      <trkpt lat="47.64853" lon="6.18076">
        <ele>225</ele>
        <time>2020-11-03T15:28:14Z</time>
      </trkpt>
      <trkpt lat="47.64859" lon="6.1808">
        <ele>225</ele>
        <time>2020-11-03T15:28:16Z</time>
      </trkpt>
      <trkpt lat="47.64863" lon="6.18085">
        <ele>229</ele>
        <time>2020-11-03T15:28:17Z</time>
      </trkpt>
      <trkpt lat="47.64868" lon="6.18089">
        <ele>229</ele>
        <time>2020-11-03T15:28:19Z</time>
      </trkpt>
      <trkpt lat="47.64872" lon="6.18093">
        <ele>229</ele>
        <time>2020-11-03T15:28:21Z</time>
      </trkpt>
      <trkpt lat="47.64882" lon="6.18098">
        <ele>230</ele>
        <time>2020-11-03T15:28:27Z</time>
      </trkpt>
      <trkpt lat="47.64893" lon="6.18104">
        <ele>230</ele>
        <time>2020-11-03T15:28:30Z</time>
      </trkpt>
      <trkpt lat="47.64896" lon="6.18109">
        <ele>230</ele>
        <time>2020-11-03T15:28:34Z</time>
      </trkpt>
      <trkpt lat="47.64901" lon="6.18111">
        <ele>230</ele>
        <time>2020-11-03T15:28:38Z</time>
      </trkpt>
      <trkpt lat="47.64904" lon="6.18115">
        <ele>231</ele>
        <time>2020-11-03T15:28:47Z</time>
      </trkpt>
      <trkpt lat="47.64912" lon="6.18123">
        <ele>231</ele>
        <time>2020-11-03T15:28:53Z</time>
      </trkpt>
      <trkpt lat="47.64916" lon="6.1813">
        <ele>232</ele>
        <time>2020-11-03T15:28:58Z</time>
      </trkpt>
      <trkpt lat="47.6492" lon="6.18135">
        <ele>234</ele>
        <time>2020-11-03T15:29:07Z</time>
      </trkpt>
      <trkpt lat="47.64927" lon="6.18144">
        <ele>234</ele>
        <time>2020-11-03T15:29:10Z</time>
      </trkpt>
      <trkpt lat="47.64932" lon="6.18146">
        <ele>234</ele>
        <time>2020-11-03T15:29:18Z</time>
      </trkpt>
      <trkpt lat="47.64941" lon="6.18147">
        <ele>235</ele>
        <time>2020-11-03T15:29:22Z</time>
      </trkpt>
      <trkpt lat="47.64946" lon="6.18146">
        <ele>235</ele>
        <time>2020-11-03T15:29:33Z</time>
      </trkpt>
      <trkpt lat="47.64951" lon="6.18148">
        <ele>235</ele>
        <time>2020-11-03T15:29:34Z</time>
      </trkpt>
      <trkpt lat="47.64955" lon="6.18146">
        <ele>235</ele>
        <time>2020-11-03T15:29:42Z</time>
      </trkpt>
      <trkpt lat="47.6496" lon="6.18146">
        <ele>235</ele>
        <time>2020-11-03T15:29:48Z</time>
      </trkpt>
      <trkpt lat="47.64965" lon="6.18146">
        <ele>235</ele>
        <time>2020-11-03T15:29:52Z</time>
      </trkpt>
      <trkpt lat="47.6497" lon="6.18147">
        <ele>236</ele>
        <time>2020-11-03T15:29:55Z</time>
      </trkpt>
      <trkpt lat="47.64975" lon="6.18149">
        <ele>236</ele>
        <time>2020-11-03T15:30:04Z</time>
      </trkpt>
      <trkpt lat="47.6498" lon="6.18147">
        <ele>236</ele>
        <time>2020-11-03T15:30:05Z</time>
      </trkpt>
      <trkpt lat="47.64985" lon="6.18147">
        <ele>237</ele>
        <time>2020-11-03T15:30:10Z</time>
      </trkpt>
      <trkpt lat="47.64989" lon="6.1815">
        <ele>237</ele>
        <time>2020-11-03T15:30:18Z</time>
      </trkpt>
      <trkpt lat="47.64994" lon="6.18154">
        <ele>238</ele>
        <time>2020-11-03T15:30:22Z</time>
      </trkpt>
      <trkpt lat="47.64999" lon="6.18154">
        <ele>239</ele>
        <time>2020-11-03T15:30:24Z</time>
      </trkpt>
      <trkpt lat="47.65003" lon="6.18157">
        <ele>241</ele>
        <time>2020-11-03T15:30:29Z</time>
      </trkpt>
      <trkpt lat="47.65004" lon="6.18165">
        <ele>241</ele>
        <time>2020-11-03T15:30:38Z</time>
      </trkpt>
      <trkpt lat="47.65003" lon="6.18172">
        <ele>243</ele>
        <time>2020-11-03T15:30:42Z</time>
      </trkpt>
      <trkpt lat="47.65004" lon="6.18188">
        <ele>245</ele>
        <time>2020-11-03T15:30:51Z</time>
      </trkpt>
      <trkpt lat="47.65006" lon="6.18196">
        <ele>246</ele>
        <time>2020-11-03T15:30:56Z</time>
      </trkpt>
      <trkpt lat="47.6501" lon="6.182">
        <ele>247</ele>
        <time>2020-11-03T15:31:01Z</time>
      </trkpt>
      <trkpt lat="47.65014" lon="6.18215">
        <ele>247</ele>
        <time>2020-11-03T15:31:09Z</time>
      </trkpt>
      <trkpt lat="47.65013" lon="6.18223">
        <ele>248</ele>
        <time>2020-11-03T15:31:12Z</time>
      </trkpt>
      <trkpt lat="47.65015" lon="6.1823">
        <ele>248</ele>
        <time>2020-11-03T15:31:16Z</time>
      </trkpt>
      <trkpt lat="47.65018" lon="6.18236">
        <ele>248</ele>
        <time>2020-11-03T15:31:21Z</time>
      </trkpt>
      <trkpt lat="47.65021" lon="6.18241">
        <ele>248</ele>
        <time>2020-11-03T15:31:24Z</time>
      </trkpt>
      <trkpt lat="47.65022" lon="6.18249">
        <ele>249</ele>
        <time>2020-11-03T15:31:29Z</time>
      </trkpt>
      <trkpt lat="47.65022" lon="6.18255">
        <ele>251</ele>
        <time>2020-11-03T15:31:33Z</time>
      </trkpt>
      <trkpt lat="47.65023" lon="6.18264">
        <ele>252</ele>
        <time>2020-11-03T15:31:37Z</time>
      </trkpt>
      <trkpt lat="47.65026" lon="6.1827">
        <ele>252</ele>
        <time>2020-11-03T15:31:38Z</time>
      </trkpt>
      <trkpt lat="47.65029" lon="6.18275">
        <ele>252</ele>
        <time>2020-11-03T15:31:42Z</time>
      </trkpt>
      <trkpt lat="47.65031" lon="6.18281">
        <ele>253</ele>
        <time>2020-11-03T15:31:46Z</time>
      </trkpt>
      <trkpt lat="47.6503" lon="6.18289">
        <ele>253</ele>
        <time>2020-11-03T15:31:54Z</time>
      </trkpt>
      <trkpt lat="47.65023" lon="6.183">
        <ele>253</ele>
        <time>2020-11-03T15:32:01Z</time>
      </trkpt>
      <trkpt lat="47.65019" lon="6.18305">
        <ele>253</ele>
        <time>2020-11-03T15:32:05Z</time>
      </trkpt>
      <trkpt lat="47.65016" lon="6.1831">
        <ele>253</ele>
        <time>2020-11-03T15:32:07Z</time>
      </trkpt>
      <trkpt lat="47.65011" lon="6.18309">
        <ele>253</ele>
        <time>2020-11-03T15:32:12Z</time>
      </trkpt>
      <trkpt lat="47.65006" lon="6.18309">
        <ele>253</ele>
        <time>2020-11-03T15:32:15Z</time>
      </trkpt>
      <trkpt lat="47.64999" lon="6.18308">
        <ele>252</ele>
        <time>2020-11-03T15:32:16Z</time>
      </trkpt>
      <trkpt lat="47.64994" lon="6.18306">
        <ele>252</ele>
        <time>2020-11-03T15:32:19Z</time>
      </trkpt>
      <trkpt lat="47.64989" lon="6.18306">
        <ele>252</ele>
        <time>2020-11-03T15:32:25Z</time>
      </trkpt>
      <trkpt lat="47.64984" lon="6.18305">
        <ele>252</ele>
        <time>2020-11-03T15:32:28Z</time>
      </trkpt>
      <trkpt lat="47.64978" lon="6.18304">
        <ele>252</ele>
        <time>2020-11-03T15:32:30Z</time>
      </trkpt>
      <trkpt lat="47.64974" lon="6.18303">
        <ele>252</ele>
        <time>2020-11-03T15:32:31Z</time>
      </trkpt>
      <trkpt lat="47.64968" lon="6.18301">
        <ele>251</ele>
        <time>2020-11-03T15:32:34Z</time>
      </trkpt>
      <trkpt lat="47.64963" lon="6.18301">
        <ele>251</ele>
        <time>2020-11-03T15:32:35Z</time>
      </trkpt>
      <trkpt lat="47.64957" lon="6.183">
        <ele>251</ele>
        <time>2020-11-03T15:32:38Z</time>
      </trkpt>
      <trkpt lat="47.64952" lon="6.183">
        <ele>251</ele>
        <time>2020-11-03T15:32:40Z</time>
      </trkpt>
      <trkpt lat="47.6494" lon="6.18298">
        <ele>251</ele>
        <time>2020-11-03T15:32:44Z</time>
      </trkpt>
      <trkpt lat="47.64935" lon="6.18298">
        <ele>251</ele>
        <time>2020-11-03T15:32:46Z</time>
      </trkpt>
      <trkpt lat="47.6493" lon="6.18297">
        <ele>251</ele>
        <time>2020-11-03T15:32:47Z</time>
      </trkpt>
      <trkpt lat="47.64924" lon="6.18294">
        <ele>251</ele>
        <time>2020-11-03T15:32:50Z</time>
      </trkpt>
      <trkpt lat="47.64914" lon="6.18291">
        <ele>251</ele>
        <time>2020-11-03T15:33:21Z</time>
      </trkpt>
      <trkpt lat="47.64911" lon="6.18283">
        <ele>251</ele>
        <time>2020-11-03T15:33:27Z</time>
      </trkpt>
      <trkpt lat="47.64905" lon="6.18282">
        <ele>251</ele>
        <time>2020-11-03T15:33:29Z</time>
      </trkpt>
      <trkpt lat="47.64893" lon="6.1828">
        <ele>251</ele>
        <time>2020-11-03T15:33:32Z</time>
      </trkpt>
      <trkpt lat="47.64886" lon="6.18277">
        <ele>251</ele>
        <time>2020-11-03T15:33:34Z</time>
      </trkpt>
      <trkpt lat="47.64846" lon="6.18254">
        <ele>251</ele>
        <time>2020-11-03T15:33:35Z</time>
      </trkpt>
      <trkpt lat="47.6484" lon="6.18251">
        <ele>250</ele>
        <time>2020-11-03T15:33:36Z</time>
      </trkpt>
      <trkpt lat="47.64835" lon="6.18248">
        <ele>249</ele>
        <time>2020-11-03T15:33:37Z</time>
      </trkpt>
      <trkpt lat="47.6483" lon="6.18244">
        <ele>249</ele>
        <time>2020-11-03T15:33:38Z</time>
      </trkpt>
      <trkpt lat="47.64825" lon="6.1824">
        <ele>249</ele>
        <time>2020-11-03T15:33:39Z</time>
      </trkpt>
      <trkpt lat="47.6482" lon="6.18237">
        <ele>249</ele>
        <time>2020-11-03T15:33:40Z</time>
      </trkpt>
      <trkpt lat="47.64816" lon="6.18233">
        <ele>248</ele>
        <time>2020-11-03T15:33:41Z</time>
      </trkpt>
      <trkpt lat="47.64811" lon="6.18229">
        <ele>248</ele>
        <time>2020-11-03T15:33:42Z</time>
      </trkpt>
      <trkpt lat="47.64806" lon="6.18226">
        <ele>248</ele>
        <time>2020-11-03T15:33:43Z</time>
      </trkpt>
      <trkpt lat="47.64801" lon="6.18222">
        <ele>248</ele>
        <time>2020-11-03T15:33:44Z</time>
      </trkpt>
      <trkpt lat="47.64797" lon="6.18218">
        <ele>248</ele>
        <time>2020-11-03T15:33:45Z</time>
      </trkpt>
      <trkpt lat="47.64793" lon="6.18215">
        <ele>248</ele>
        <time>2020-11-03T15:33:46Z</time>
      </trkpt>
      <trkpt lat="47.64787" lon="6.18209">
        <ele>248</ele>
        <time>2020-11-03T15:33:48Z</time>
      </trkpt>
      <trkpt lat="47.6478" lon="6.18203">
        <ele>248</ele>
        <time>2020-11-03T15:33:50Z</time>
      </trkpt>
      <trkpt lat="47.64776" lon="6.18197">
        <ele>248</ele>
        <time>2020-11-03T15:33:52Z</time>
      </trkpt>
      <trkpt lat="47.64769" lon="6.18195">
        <ele>248</ele>
        <time>2020-11-03T15:33:59Z</time>
      </trkpt>
      <trkpt lat="47.64764" lon="6.18188">
        <ele>248</ele>
        <time>2020-11-03T15:34:01Z</time>
      </trkpt>
      <trkpt lat="47.6476" lon="6.18182">
        <ele>248</ele>
        <time>2020-11-03T15:34:03Z</time>
      </trkpt>
      <trkpt lat="47.64755" lon="6.18174">
        <ele>249</ele>
        <time>2020-11-03T15:34:06Z</time>
      </trkpt>
      <trkpt lat="47.64752" lon="6.1817">
        <ele>249</ele>
        <time>2020-11-03T15:34:09Z</time>
      </trkpt>
      <trkpt lat="47.64746" lon="6.18155">
        <ele>248</ele>
        <time>2020-11-03T15:34:10Z</time>
      </trkpt>
      <trkpt lat="47.64741" lon="6.18149">
        <ele>247</ele>
        <time>2020-11-03T15:34:16Z</time>
      </trkpt>
      <trkpt lat="47.64737" lon="6.18143">
        <ele>246</ele>
        <time>2020-11-03T15:34:18Z</time>
      </trkpt>
      <trkpt lat="47.64734" lon="6.18137">
        <ele>246</ele>
        <time>2020-11-03T15:34:21Z</time>
      </trkpt>
      <trkpt lat="47.6473" lon="6.1813">
        <ele>245</ele>
        <time>2020-11-03T15:34:23Z</time>
      </trkpt>
      <trkpt lat="47.64722" lon="6.18118">
        <ele>245</ele>
        <time>2020-11-03T15:34:27Z</time>
      </trkpt>
      <trkpt lat="47.64718" lon="6.1811">
        <ele>244</ele>
        <time>2020-11-03T15:34:29Z</time>
      </trkpt>
      <trkpt lat="47.64714" lon="6.18104">
        <ele>244</ele>
        <time>2020-11-03T15:34:30Z</time>
      </trkpt>
      <trkpt lat="47.64709" lon="6.18098">
        <ele>244</ele>
        <time>2020-11-03T15:34:32Z</time>
      </trkpt>
      <trkpt lat="47.64704" lon="6.18092">
        <ele>245</ele>
        <time>2020-11-03T15:34:35Z</time>
      </trkpt>
      <trkpt lat="47.647" lon="6.18087">
        <ele>245</ele>
        <time>2020-11-03T15:34:36Z</time>
      </trkpt>
      <trkpt lat="47.64696" lon="6.18081">
        <ele>239</ele>
        <time>2020-11-03T15:34:38Z</time>
      </trkpt>
      <trkpt lat="47.64691" lon="6.18077">
        <ele>239</ele>
        <time>2020-11-03T15:34:40Z</time>
      </trkpt>
      <trkpt lat="47.64686" lon="6.18073">
        <ele>240</ele>
        <time>2020-11-03T15:34:42Z</time>
      </trkpt>
      <trkpt lat="47.6468" lon="6.18069">
        <ele>240</ele>
        <time>2020-11-03T15:34:43Z</time>
      </trkpt>
      <trkpt lat="47.64676" lon="6.18065">
        <ele>240</ele>
        <time>2020-11-03T15:34:44Z</time>
      </trkpt>
      <trkpt lat="47.64671" lon="6.18061">
        <ele>240</ele>
        <time>2020-11-03T15:34:45Z</time>
      </trkpt>
      <trkpt lat="47.64656" lon="6.18047">
        <ele>240</ele>
        <time>2020-11-03T15:34:49Z</time>
      </trkpt>
      <trkpt lat="47.6464" lon="6.18029">
        <ele>238</ele>
        <time>2020-11-03T15:34:54Z</time>
      </trkpt>
      <trkpt lat="47.64636" lon="6.18024">
        <ele>238</ele>
        <time>2020-11-03T15:34:55Z</time>
      </trkpt>
      <trkpt lat="47.6463" lon="6.18018">
        <ele>238</ele>
        <time>2020-11-03T15:34:58Z</time>
      </trkpt>
      <trkpt lat="47.64618" lon="6.18016">
        <ele>237</ele>
        <time>2020-11-03T15:35:01Z</time>
      </trkpt>
      <trkpt lat="47.64612" lon="6.18019">
        <ele>237</ele>
        <time>2020-11-03T15:35:04Z</time>
      </trkpt>
      <trkpt lat="47.64606" lon="6.18025">
        <ele>237</ele>
        <time>2020-11-03T15:35:06Z</time>
      </trkpt>
      <trkpt lat="47.646" lon="6.18032">
        <ele>238</ele>
        <time>2020-11-03T15:35:07Z</time>
      </trkpt>
      <trkpt lat="47.64597" lon="6.18038">
        <ele>238</ele>
        <time>2020-11-03T15:35:09Z</time>
      </trkpt>
      <trkpt lat="47.64593" lon="6.18047">
        <ele>238</ele>
        <time>2020-11-03T15:35:10Z</time>
      </trkpt>
      <trkpt lat="47.6459" lon="6.18054">
        <ele>239</ele>
        <time>2020-11-03T15:35:11Z</time>
      </trkpt>
      <trkpt lat="47.64587" lon="6.1806">
        <ele>239</ele>
        <time>2020-11-03T15:35:13Z</time>
      </trkpt>
      <trkpt lat="47.64581" lon="6.18073">
        <ele>236</ele>
        <time>2020-11-03T15:35:15Z</time>
      </trkpt>
      <trkpt lat="47.64575" lon="6.18086">
        <ele>238</ele>
        <time>2020-11-03T15:35:17Z</time>
      </trkpt>
      <trkpt lat="47.64572" lon="6.18091">
        <ele>237</ele>
        <time>2020-11-03T15:35:18Z</time>
      </trkpt>
      <trkpt lat="47.64566" lon="6.181">
        <ele>235</ele>
        <time>2020-11-03T15:35:19Z</time>
      </trkpt>
      <trkpt lat="47.64563" lon="6.18107">
        <ele>235</ele>
        <time>2020-11-03T15:35:21Z</time>
      </trkpt>
      <trkpt lat="47.64562" lon="6.18116">
        <ele>234</ele>
        <time>2020-11-03T15:35:23Z</time>
      </trkpt>
      <trkpt lat="47.64562" lon="6.18123">
        <ele>234</ele>
        <time>2020-11-03T15:35:25Z</time>
      </trkpt>
      <trkpt lat="47.64562" lon="6.18131">
        <ele>235</ele>
        <time>2020-11-03T15:35:29Z</time>
      </trkpt>
      <trkpt lat="47.64563" lon="6.18138">
        <ele>235</ele>
        <time>2020-11-03T15:35:34Z</time>
      </trkpt>
      <trkpt lat="47.64563" lon="6.18145">
        <ele>235</ele>
        <time>2020-11-03T15:35:39Z</time>
      </trkpt>
      <trkpt lat="47.64561" lon="6.18152">
        <ele>236</ele>
        <time>2020-11-03T15:35:45Z</time>
      </trkpt>
      <trkpt lat="47.64561" lon="6.18159">
        <ele>236</ele>
        <time>2020-11-03T15:35:53Z</time>
      </trkpt>
      <trkpt lat="47.64558" lon="6.18166">
        <ele>236</ele>
        <time>2020-11-03T15:35:54Z</time>
      </trkpt>
      <trkpt lat="47.64557" lon="6.18173">
        <ele>238</ele>
        <time>2020-11-03T15:35:57Z</time>
      </trkpt>
      <trkpt lat="47.64556" lon="6.18181">
        <ele>238</ele>
        <time>2020-11-03T15:36:05Z</time>
      </trkpt>
      <trkpt lat="47.64555" lon="6.18188">
        <ele>237</ele>
        <time>2020-11-03T15:36:08Z</time>
      </trkpt>
      <trkpt lat="47.64551" lon="6.18194">
        <ele>237</ele>
        <time>2020-11-03T15:36:11Z</time>
      </trkpt>
      <trkpt lat="47.6455" lon="6.18202">
        <ele>237</ele>
        <time>2020-11-03T15:36:12Z</time>
      </trkpt>
      <trkpt lat="47.6455" lon="6.18209">
        <ele>237</ele>
        <time>2020-11-03T15:36:20Z</time>
      </trkpt>
      <trkpt lat="47.64548" lon="6.18216">
        <ele>237</ele>
        <time>2020-11-03T15:36:21Z</time>
      </trkpt>
      <trkpt lat="47.64549" lon="6.18223">
        <ele>238</ele>
        <time>2020-11-03T15:36:29Z</time>
      </trkpt>
      <trkpt lat="47.64549" lon="6.1823">
        <ele>238</ele>
        <time>2020-11-03T15:36:35Z</time>
      </trkpt>
      <trkpt lat="47.64548" lon="6.18238">
        <ele>238</ele>
        <time>2020-11-03T15:36:39Z</time>
      </trkpt>
      <trkpt lat="47.64549" lon="6.18245">
        <ele>239</ele>
        <time>2020-11-03T15:36:44Z</time>
      </trkpt>
      <trkpt lat="47.6455" lon="6.18253">
        <ele>244</ele>
        <time>2020-11-03T15:36:49Z</time>
      </trkpt>
      <trkpt lat="47.64548" lon="6.18259">
        <ele>243</ele>
        <time>2020-11-03T15:36:53Z</time>
      </trkpt>
      <trkpt lat="47.64549" lon="6.18267">
        <ele>244</ele>
        <time>2020-11-03T15:36:54Z</time>
      </trkpt>
      <trkpt lat="47.64552" lon="6.18273">
        <ele>244</ele>
        <time>2020-11-03T15:37:03Z</time>
      </trkpt>
      <trkpt lat="47.64555" lon="6.18279">
        <ele>245</ele>
        <time>2020-11-03T15:37:04Z</time>
      </trkpt>
      <trkpt lat="47.64557" lon="6.18285">
        <ele>245</ele>
        <time>2020-11-03T15:37:09Z</time>
      </trkpt>
      <trkpt lat="47.64561" lon="6.18289">
        <ele>246</ele>
        <time>2020-11-03T15:37:14Z</time>
      </trkpt>
      <trkpt lat="47.64563" lon="6.18295">
        <ele>246</ele>
        <time>2020-11-03T15:37:19Z</time>
      </trkpt>
      <trkpt lat="47.64566" lon="6.18301">
        <ele>247</ele>
        <time>2020-11-03T15:37:28Z</time>
      </trkpt>
      <trkpt lat="47.64569" lon="6.18308">
        <ele>247</ele>
        <time>2020-11-03T15:37:30Z</time>
      </trkpt>
      <trkpt lat="47.64572" lon="6.18313">
        <ele>248</ele>
        <time>2020-11-03T15:37:39Z</time>
      </trkpt>
      <trkpt lat="47.64576" lon="6.18319">
        <ele>250</ele>
        <time>2020-11-03T15:37:44Z</time>
      </trkpt>
      <trkpt lat="47.64578" lon="6.18325">
        <ele>251</ele>
        <time>2020-11-03T15:37:49Z</time>
      </trkpt>
      <trkpt lat="47.64581" lon="6.18332">
        <ele>253</ele>
        <time>2020-11-03T15:37:51Z</time>
      </trkpt>
      <trkpt lat="47.64583" lon="6.18338">
        <ele>254</ele>
        <time>2020-11-03T15:37:55Z</time>
      </trkpt>
      <trkpt lat="47.64586" lon="6.18344">
        <ele>254</ele>
        <time>2020-11-03T15:38:03Z</time>
      </trkpt>
      <trkpt lat="47.64589" lon="6.1835">
        <ele>254</ele>
        <time>2020-11-03T15:38:06Z</time>
      </trkpt>
      <trkpt lat="47.64596" lon="6.18362">
        <ele>255</ele>
        <time>2020-11-03T15:38:09Z</time>
      </trkpt>
      <trkpt lat="47.64599" lon="6.18368">
        <ele>255</ele>
        <time>2020-11-03T15:38:12Z</time>
      </trkpt>
      <trkpt lat="47.64604" lon="6.18374">
        <ele>255</ele>
        <time>2020-11-03T15:38:18Z</time>
      </trkpt>
      <trkpt lat="47.64609" lon="6.18379">
        <ele>255</ele>
        <time>2020-11-03T15:38:21Z</time>
      </trkpt>
      <trkpt lat="47.64617" lon="6.18389">
        <ele>255</ele>
        <time>2020-11-03T15:38:26Z</time>
      </trkpt>
      <trkpt lat="47.64621" lon="6.18394">
        <ele>255</ele>
        <time>2020-11-03T15:38:28Z</time>
      </trkpt>
      <trkpt lat="47.64624" lon="6.18399">
        <ele>255</ele>
        <time>2020-11-03T15:38:31Z</time>
      </trkpt>
      <trkpt lat="47.64628" lon="6.18404">
        <ele>255</ele>
        <time>2020-11-03T15:38:33Z</time>
      </trkpt>
      <trkpt lat="47.64634" lon="6.18411">
        <ele>255</ele>
        <time>2020-11-03T15:38:36Z</time>
      </trkpt>
      <trkpt lat="47.64638" lon="6.18417">
        <ele>253</ele>
        <time>2020-11-03T15:38:38Z</time>
      </trkpt>
      <trkpt lat="47.64643" lon="6.18422">
        <ele>253</ele>
        <time>2020-11-03T15:38:39Z</time>
      </trkpt>
      <trkpt lat="47.64646" lon="6.18427">
        <ele>253</ele>
        <time>2020-11-03T15:38:41Z</time>
      </trkpt>
      <trkpt lat="47.64651" lon="6.18433">
        <ele>253</ele>
        <time>2020-11-03T15:38:43Z</time>
      </trkpt>
      <trkpt lat="47.64656" lon="6.18439">
        <ele>253</ele>
        <time>2020-11-03T15:38:45Z</time>
      </trkpt>
      <trkpt lat="47.64659" lon="6.18445">
        <ele>253</ele>
        <time>2020-11-03T15:38:47Z</time>
      </trkpt>
      <trkpt lat="47.64667" lon="6.18455">
        <ele>254</ele>
        <time>2020-11-03T15:38:50Z</time>
      </trkpt>
      <trkpt lat="47.64671" lon="6.18461">
        <ele>254</ele>
        <time>2020-11-03T15:38:52Z</time>
      </trkpt>
      <trkpt lat="47.64675" lon="6.18466">
        <ele>254</ele>
        <time>2020-11-03T15:38:54Z</time>
      </trkpt>
      <trkpt lat="47.6468" lon="6.18473">
        <ele>254</ele>
        <time>2020-11-03T15:38:55Z</time>
      </trkpt>
      <trkpt lat="47.64685" lon="6.18479">
        <ele>254</ele>
        <time>2020-11-03T15:38:57Z</time>
      </trkpt>
      <trkpt lat="47.64693" lon="6.18492">
        <ele>254</ele>
        <time>2020-11-03T15:39:01Z</time>
      </trkpt>
      <trkpt lat="47.64697" lon="6.18498">
        <ele>254</ele>
        <time>2020-11-03T15:39:03Z</time>
      </trkpt>
      <trkpt lat="47.64706" lon="6.18512">
        <ele>253</ele>
        <time>2020-11-03T15:39:07Z</time>
      </trkpt>
      <trkpt lat="47.6471" lon="6.18518">
        <ele>253</ele>
        <time>2020-11-03T15:39:09Z</time>
      </trkpt>
      <trkpt lat="47.64714" lon="6.18525">
        <ele>253</ele>
        <time>2020-11-03T15:39:11Z</time>
      </trkpt>
      <trkpt lat="47.64717" lon="6.18532">
        <ele>253</ele>
        <time>2020-11-03T15:39:12Z</time>
      </trkpt>
      <trkpt lat="47.6472" lon="6.1854">
        <ele>253</ele>
        <time>2020-11-03T15:39:14Z</time>
      </trkpt>
      <trkpt lat="47.64726" lon="6.18555">
        <ele>253</ele>
        <time>2020-11-03T15:39:19Z</time>
      </trkpt>
      <trkpt lat="47.64729" lon="6.18561">
        <ele>253</ele>
        <time>2020-11-03T15:39:21Z</time>
      </trkpt>
      <trkpt lat="47.64732" lon="6.18569">
        <ele>254</ele>
        <time>2020-11-03T15:39:23Z</time>
      </trkpt>
      <trkpt lat="47.64735" lon="6.18575">
        <ele>254</ele>
        <time>2020-11-03T15:39:25Z</time>
      </trkpt>
      <trkpt lat="47.64741" lon="6.18588">
        <ele>253</ele>
        <time>2020-11-03T15:39:29Z</time>
      </trkpt>
      <trkpt lat="47.64745" lon="6.18594">
        <ele>253</ele>
        <time>2020-11-03T15:39:31Z</time>
      </trkpt>
      <trkpt lat="47.64757" lon="6.18612">
        <ele>255</ele>
        <time>2020-11-03T15:39:37Z</time>
      </trkpt>
      <trkpt lat="47.64759" lon="6.18617">
        <ele>255</ele>
        <time>2020-11-03T15:39:39Z</time>
      </trkpt>
      <trkpt lat="47.64762" lon="6.18623">
        <ele>255</ele>
        <time>2020-11-03T15:39:41Z</time>
      </trkpt>
      <trkpt lat="47.64766" lon="6.18629">
        <ele>255</ele>
        <time>2020-11-03T15:39:43Z</time>
      </trkpt>
      <trkpt lat="47.6477" lon="6.18636">
        <ele>255</ele>
        <time>2020-11-03T15:39:45Z</time>
      </trkpt>
      <trkpt lat="47.64773" lon="6.18642">
        <ele>255</ele>
        <time>2020-11-03T15:39:46Z</time>
      </trkpt>
      <trkpt lat="47.64776" lon="6.18648">
        <ele>255</ele>
        <time>2020-11-03T15:39:48Z</time>
      </trkpt>
      <trkpt lat="47.64779" lon="6.18653">
        <ele>255</ele>
        <time>2020-11-03T15:39:50Z</time>
      </trkpt>
      <trkpt lat="47.64783" lon="6.18659">
        <ele>255</ele>
        <time>2020-11-03T15:39:52Z</time>
      </trkpt>
      <trkpt lat="47.64786" lon="6.18666">
        <ele>255</ele>
        <time>2020-11-03T15:39:54Z</time>
      </trkpt>
      <trkpt lat="47.6479" lon="6.18673">
        <ele>255</ele>
        <time>2020-11-03T15:39:56Z</time>
      </trkpt>
      <trkpt lat="47.64796" lon="6.18685">
        <ele>255</ele>
        <time>2020-11-03T15:40:00Z</time>
      </trkpt>
      <trkpt lat="47.648" lon="6.18693">
        <ele>255</ele>
        <time>2020-11-03T15:40:03Z</time>
      </trkpt>
      <trkpt lat="47.64803" lon="6.18698">
        <ele>255</ele>
        <time>2020-11-03T15:40:04Z</time>
      </trkpt>
      <trkpt lat="47.64807" lon="6.18705">
        <ele>256</ele>
        <time>2020-11-03T15:40:07Z</time>
      </trkpt>
      <trkpt lat="47.6481" lon="6.18711">
        <ele>256</ele>
        <time>2020-11-03T15:40:09Z</time>
      </trkpt>
      <trkpt lat="47.64814" lon="6.18719">
        <ele>256</ele>
        <time>2020-11-03T15:40:11Z</time>
      </trkpt>
      <trkpt lat="47.64817" lon="6.18726">
        <ele>256</ele>
        <time>2020-11-03T15:40:14Z</time>
      </trkpt>
      <trkpt lat="47.64821" lon="6.18732">
        <ele>256</ele>
        <time>2020-11-03T15:40:16Z</time>
      </trkpt>
      <trkpt lat="47.64828" lon="6.18744">
        <ele>257</ele>
        <time>2020-11-03T15:40:21Z</time>
      </trkpt>
      <trkpt lat="47.64834" lon="6.18758">
        <ele>259</ele>
        <time>2020-11-03T15:40:22Z</time>
      </trkpt>
      <trkpt lat="47.64838" lon="6.18765">
        <ele>259</ele>
        <time>2020-11-03T15:40:28Z</time>
      </trkpt>
      <trkpt lat="47.64845" lon="6.18781">
        <ele>260</ele>
        <time>2020-11-03T15:40:34Z</time>
      </trkpt>
      <trkpt lat="47.64848" lon="6.18786">
        <ele>260</ele>
        <time>2020-11-03T15:40:36Z</time>
      </trkpt>
      <trkpt lat="47.64852" lon="6.18795">
        <ele>260</ele>
        <time>2020-11-03T15:40:39Z</time>
      </trkpt>
      <trkpt lat="47.64854" lon="6.18802">
        <ele>260</ele>
        <time>2020-11-03T15:40:41Z</time>
      </trkpt>
      <trkpt lat="47.64857" lon="6.18809">
        <ele>260</ele>
        <time>2020-11-03T15:40:44Z</time>
      </trkpt>
      <trkpt lat="47.6486" lon="6.18815">
        <ele>260</ele>
        <time>2020-11-03T15:40:46Z</time>
      </trkpt>
      <trkpt lat="47.64864" lon="6.18823">
        <ele>260</ele>
        <time>2020-11-03T15:40:49Z</time>
      </trkpt>
      <trkpt lat="47.64867" lon="6.18831">
        <ele>260</ele>
        <time>2020-11-03T15:40:52Z</time>
      </trkpt>
      <trkpt lat="47.64873" lon="6.18844">
        <ele>261</ele>
        <time>2020-11-03T15:40:56Z</time>
      </trkpt>
      <trkpt lat="47.64876" lon="6.18852">
        <ele>261</ele>
        <time>2020-11-03T15:40:59Z</time>
      </trkpt>
      <trkpt lat="47.64879" lon="6.18858">
        <ele>261</ele>
        <time>2020-11-03T15:41:02Z</time>
      </trkpt>
      <trkpt lat="47.64882" lon="6.18864">
        <ele>261</ele>
        <time>2020-11-03T15:41:03Z</time>
      </trkpt>
      <trkpt lat="47.64888" lon="6.18879">
        <ele>261</ele>
        <time>2020-11-03T15:41:09Z</time>
      </trkpt>
      <trkpt lat="47.64891" lon="6.18885">
        <ele>261</ele>
        <time>2020-11-03T15:41:11Z</time>
      </trkpt>
      <trkpt lat="47.64897" lon="6.18898">
        <ele>261</ele>
        <time>2020-11-03T15:41:15Z</time>
      </trkpt>
      <trkpt lat="47.64901" lon="6.18904">
        <ele>261</ele>
        <time>2020-11-03T15:41:17Z</time>
      </trkpt>
      <trkpt lat="47.64904" lon="6.18909">
        <ele>261</ele>
        <time>2020-11-03T15:41:19Z</time>
      </trkpt>
      <trkpt lat="47.64909" lon="6.18917">
        <ele>261</ele>
        <time>2020-11-03T15:41:22Z</time>
      </trkpt>
      <trkpt lat="47.64913" lon="6.18923">
        <ele>261</ele>
        <time>2020-11-03T15:41:24Z</time>
      </trkpt>
      <trkpt lat="47.64917" lon="6.18929">
        <ele>261</ele>
        <time>2020-11-03T15:41:26Z</time>
      </trkpt>
      <trkpt lat="47.6492" lon="6.18935">
        <ele>263</ele>
        <time>2020-11-03T15:41:29Z</time>
      </trkpt>
      <trkpt lat="47.64923" lon="6.1894">
        <ele>263</ele>
        <time>2020-11-03T15:41:31Z</time>
      </trkpt>
      <trkpt lat="47.64927" lon="6.18945">
        <ele>263</ele>
        <time>2020-11-03T15:41:33Z</time>
      </trkpt>
      <trkpt lat="47.64931" lon="6.18951">
        <ele>263</ele>
        <time>2020-11-03T15:41:35Z</time>
      </trkpt>
      <trkpt lat="47.64937" lon="6.18963">
        <ele>263</ele>
        <time>2020-11-03T15:41:35Z</time>
      </trkpt>
      <trkpt lat="47.64941" lon="6.1897">
        <ele>263</ele>
        <time>2020-11-03T15:41:42Z</time>
      </trkpt>
      <trkpt lat="47.64949" lon="6.18984">
        <ele>263</ele>
        <time>2020-11-03T15:41:47Z</time>
      </trkpt>
      <trkpt lat="47.64954" lon="6.18997">
        <ele>263</ele>
        <time>2020-11-03T15:41:50Z</time>
      </trkpt>
      <trkpt lat="47.64958" lon="6.19005">
        <ele>262</ele>
        <time>2020-11-03T15:41:53Z</time>
      </trkpt>
      <trkpt lat="47.64961" lon="6.19011">
        <ele>262</ele>
        <time>2020-11-03T15:41:54Z</time>
      </trkpt>
      <trkpt lat="47.64964" lon="6.19018">
        <ele>262</ele>
        <time>2020-11-03T15:41:56Z</time>
      </trkpt>
      <trkpt lat="47.64967" lon="6.19024">
        <ele>262</ele>
        <time>2020-11-03T15:41:58Z</time>
      </trkpt>
      <trkpt lat="47.64975" lon="6.19037">
        <ele>263</ele>
        <time>2020-11-03T15:42:03Z</time>
      </trkpt>
      <trkpt lat="47.64978" lon="6.19041">
        <ele>263</ele>
        <time>2020-11-03T15:42:04Z</time>
      </trkpt>
      <trkpt lat="47.64982" lon="6.19047">
        <ele>263</ele>
        <time>2020-11-03T15:42:06Z</time>
      </trkpt>
      <trkpt lat="47.64986" lon="6.19055">
        <ele>263</ele>
        <time>2020-11-03T15:42:09Z</time>
      </trkpt>
      <trkpt lat="47.64989" lon="6.19061">
        <ele>263</ele>
        <time>2020-11-03T15:42:11Z</time>
      </trkpt>
      <trkpt lat="47.64992" lon="6.19067">
        <ele>263</ele>
        <time>2020-11-03T15:42:13Z</time>
      </trkpt>
      <trkpt lat="47.64996" lon="6.19074">
        <ele>263</ele>
        <time>2020-11-03T15:42:15Z</time>
      </trkpt>
      <trkpt lat="47.64999" lon="6.19079">
        <ele>264</ele>
        <time>2020-11-03T15:42:17Z</time>
      </trkpt>
      <trkpt lat="47.65002" lon="6.19085">
        <ele>264</ele>
        <time>2020-11-03T15:42:19Z</time>
      </trkpt>
      <trkpt lat="47.65005" lon="6.19091">
        <ele>264</ele>
        <time>2020-11-03T15:42:21Z</time>
      </trkpt>
      <trkpt lat="47.65008" lon="6.19096">
        <ele>265</ele>
        <time>2020-11-03T15:42:23Z</time>
      </trkpt>
      <trkpt lat="47.65012" lon="6.19102">
        <ele>265</ele>
        <time>2020-11-03T15:42:25Z</time>
      </trkpt>
      <trkpt lat="47.65016" lon="6.19109">
        <ele>265</ele>
        <time>2020-11-03T15:42:28Z</time>
      </trkpt>
      <trkpt lat="47.65019" lon="6.19115">
        <ele>265</ele>
        <time>2020-11-03T15:42:30Z</time>
      </trkpt>
      <trkpt lat="47.65024" lon="6.19122">
        <ele>265</ele>
        <time>2020-11-03T15:42:32Z</time>
      </trkpt>
      <trkpt lat="47.65027" lon="6.19128">
        <ele>265</ele>
        <time>2020-11-03T15:42:34Z</time>
      </trkpt>
      <trkpt lat="47.65031" lon="6.19134">
        <ele>265</ele>
        <time>2020-11-03T15:42:37Z</time>
      </trkpt>
      <trkpt lat="47.65036" lon="6.19142">
        <ele>265</ele>
        <time>2020-11-03T15:42:39Z</time>
      </trkpt>
      <trkpt lat="47.65044" lon="6.19154">
        <ele>265</ele>
        <time>2020-11-03T15:42:39Z</time>
      </trkpt>
      <trkpt lat="47.65048" lon="6.19159">
        <ele>266</ele>
        <time>2020-11-03T15:42:45Z</time>
      </trkpt>
      <trkpt lat="47.65051" lon="6.19164">
        <ele>266</ele>
        <time>2020-11-03T15:42:47Z</time>
      </trkpt>
      <trkpt lat="47.65054" lon="6.1917">
        <ele>265</ele>
        <time>2020-11-03T15:42:50Z</time>
      </trkpt>
      <trkpt lat="47.65058" lon="6.19176">
        <ele>265</ele>
        <time>2020-11-03T15:42:51Z</time>
      </trkpt>
      <trkpt lat="47.65061" lon="6.19181">
        <ele>265</ele>
        <time>2020-11-03T15:42:53Z</time>
      </trkpt>
      <trkpt lat="47.65066" lon="6.19187">
        <ele>266</ele>
        <time>2020-11-03T15:42:56Z</time>
      </trkpt>
      <trkpt lat="47.6507" lon="6.19192">
        <ele>266</ele>
        <time>2020-11-03T15:42:58Z</time>
      </trkpt>
      <trkpt lat="47.65079" lon="6.1921">
        <ele>266</ele>
        <time>2020-11-03T15:43:04Z</time>
      </trkpt>
      <trkpt lat="47.65089" lon="6.19223">
        <ele>268</ele>
        <time>2020-11-03T15:43:09Z</time>
      </trkpt>
      <trkpt lat="47.65093" lon="6.19229">
        <ele>268</ele>
        <time>2020-11-03T15:43:11Z</time>
      </trkpt>
      <trkpt lat="47.65098" lon="6.19236">
        <ele>268</ele>
        <time>2020-11-03T15:43:13Z</time>
      </trkpt>
      <trkpt lat="47.65106" lon="6.19249">
        <ele>268</ele>
        <time>2020-11-03T15:43:18Z</time>
      </trkpt>
      <trkpt lat="47.6511" lon="6.19254">
        <ele>268</ele>
        <time>2020-11-03T15:43:21Z</time>
      </trkpt>
      <trkpt lat="47.65113" lon="6.19259">
        <ele>268</ele>
        <time>2020-11-03T15:43:23Z</time>
      </trkpt>
      <trkpt lat="47.65117" lon="6.19265">
        <ele>268</ele>
        <time>2020-11-03T15:43:25Z</time>
      </trkpt>
      <trkpt lat="47.65121" lon="6.1927">
        <ele>268</ele>
        <time>2020-11-03T15:43:27Z</time>
      </trkpt>
      <trkpt lat="47.6513" lon="6.1928">
        <ele>268</ele>
        <time>2020-11-03T15:43:32Z</time>
      </trkpt>
      <trkpt lat="47.6514" lon="6.19291">
        <ele>268</ele>
        <time>2020-11-03T15:43:37Z</time>
      </trkpt>
      <trkpt lat="47.65144" lon="6.19296">
        <ele>268</ele>
        <time>2020-11-03T15:43:39Z</time>
      </trkpt>
      <trkpt lat="47.65154" lon="6.19306">
        <ele>268</ele>
        <time>2020-11-03T15:43:43Z</time>
      </trkpt>
      <trkpt lat="47.65158" lon="6.1931">
        <ele>268</ele>
        <time>2020-11-03T15:43:45Z</time>
      </trkpt>
      <trkpt lat="47.65163" lon="6.19315">
        <ele>268</ele>
        <time>2020-11-03T15:43:47Z</time>
      </trkpt>
      <trkpt lat="47.65174" lon="6.19327">
        <ele>269</ele>
        <time>2020-11-03T15:43:51Z</time>
      </trkpt>
      <trkpt lat="47.65179" lon="6.19333">
        <ele>269</ele>
        <time>2020-11-03T15:43:53Z</time>
      </trkpt>
      <trkpt lat="47.65183" lon="6.19339">
        <ele>268</ele>
        <time>2020-11-03T15:43:55Z</time>
      </trkpt>
      <trkpt lat="47.65189" lon="6.19348">
        <ele>268</ele>
        <time>2020-11-03T15:43:57Z</time>
      </trkpt>
      <trkpt lat="47.65195" lon="6.19356">
        <ele>268</ele>
        <time>2020-11-03T15:44:00Z</time>
      </trkpt>
      <trkpt lat="47.65199" lon="6.19363">
        <ele>268</ele>
        <time>2020-11-03T15:44:01Z</time>
      </trkpt>
      <trkpt lat="47.65203" lon="6.1937">
        <ele>268</ele>
        <time>2020-11-03T15:44:03Z</time>
      </trkpt>
      <trkpt lat="47.65206" lon="6.19377">
        <ele>268</ele>
        <time>2020-11-03T15:44:05Z</time>
      </trkpt>
      <trkpt lat="47.6521" lon="6.19385">
        <ele>268</ele>
        <time>2020-11-03T15:44:06Z</time>
      </trkpt>
      <trkpt lat="47.65216" lon="6.19394">
        <ele>268</ele>
        <time>2020-11-03T15:44:09Z</time>
      </trkpt>
      <trkpt lat="47.65219" lon="6.194">
        <ele>268</ele>
        <time>2020-11-03T15:44:10Z</time>
      </trkpt>
      <trkpt lat="47.65225" lon="6.19411">
        <ele>268</ele>
        <time>2020-11-03T15:44:13Z</time>
      </trkpt>
      <trkpt lat="47.65232" lon="6.19423">
        <ele>267</ele>
        <time>2020-11-03T15:44:16Z</time>
      </trkpt>
      <trkpt lat="47.65236" lon="6.19428">
        <ele>267</ele>
        <time>2020-11-03T15:44:19Z</time>
      </trkpt>
      <trkpt lat="47.65239" lon="6.19433">
        <ele>267</ele>
        <time>2020-11-03T15:44:21Z</time>
      </trkpt>
      <trkpt lat="47.65243" lon="6.19437">
        <ele>267</ele>
        <time>2020-11-03T15:44:23Z</time>
      </trkpt>
      <trkpt lat="47.65247" lon="6.19444">
        <ele>267</ele>
        <time>2020-11-03T15:44:27Z</time>
      </trkpt>
      <trkpt lat="47.65251" lon="6.19448">
        <ele>270</ele>
        <time>2020-11-03T15:44:30Z</time>
      </trkpt>
      <trkpt lat="47.65253" lon="6.19454">
        <ele>270</ele>
        <time>2020-11-03T15:44:32Z</time>
      </trkpt>
      <trkpt lat="47.65258" lon="6.1946">
        <ele>270</ele>
        <time>2020-11-03T15:44:36Z</time>
      </trkpt>
      <trkpt lat="47.65261" lon="6.19467">
        <ele>270</ele>
        <time>2020-11-03T15:44:38Z</time>
      </trkpt>
      <trkpt lat="47.65265" lon="6.19476">
        <ele>270</ele>
        <time>2020-11-03T15:44:42Z</time>
      </trkpt>
      <trkpt lat="47.65268" lon="6.19483">
        <ele>270</ele>
        <time>2020-11-03T15:44:44Z</time>
      </trkpt>
      <trkpt lat="47.65275" lon="6.19494">
        <ele>270</ele>
        <time>2020-11-03T15:44:49Z</time>
      </trkpt>
      <trkpt lat="47.65278" lon="6.19507">
        <ele>270</ele>
        <time>2020-11-03T15:44:53Z</time>
      </trkpt>
      <trkpt lat="47.65281" lon="6.19517">
        <ele>270</ele>
        <time>2020-11-03T15:44:56Z</time>
      </trkpt>
      <trkpt lat="47.65282" lon="6.19531">
        <ele>271</ele>
        <time>2020-11-03T15:45:00Z</time>
      </trkpt>
      <trkpt lat="47.65285" lon="6.19538">
        <ele>271</ele>
        <time>2020-11-03T15:45:03Z</time>
      </trkpt>
      <trkpt lat="47.65288" lon="6.19545">
        <ele>271</ele>
        <time>2020-11-03T15:45:05Z</time>
      </trkpt>
      <trkpt lat="47.65292" lon="6.19551">
        <ele>271</ele>
        <time>2020-11-03T15:45:06Z</time>
      </trkpt>
      <trkpt lat="47.65298" lon="6.19557">
        <ele>271</ele>
        <time>2020-11-03T15:45:08Z</time>
      </trkpt>
      <trkpt lat="47.65303" lon="6.19567">
        <ele>271</ele>
        <time>2020-11-03T15:45:11Z</time>
      </trkpt>
      <trkpt lat="47.65306" lon="6.19574">
        <ele>271</ele>
        <time>2020-11-03T15:45:12Z</time>
      </trkpt>
      <trkpt lat="47.65312" lon="6.19592">
        <ele>271</ele>
        <time>2020-11-03T15:45:15Z</time>
      </trkpt>
      <trkpt lat="47.65314" lon="6.19598">
        <ele>271</ele>
        <time>2020-11-03T15:45:17Z</time>
      </trkpt>
      <trkpt lat="47.65326" lon="6.19603">
        <ele>271</ele>
        <time>2020-11-03T15:45:21Z</time>
      </trkpt>
      <trkpt lat="47.65332" lon="6.19603">
        <ele>271</ele>
        <time>2020-11-03T15:45:23Z</time>
      </trkpt>
      <trkpt lat="47.65336" lon="6.19607">
        <ele>274</ele>
        <time>2020-11-03T15:45:26Z</time>
      </trkpt>
      <trkpt lat="47.6534" lon="6.19611">
        <ele>274</ele>
        <time>2020-11-03T15:45:29Z</time>
      </trkpt>
      <trkpt lat="47.65345" lon="6.19613">
        <ele>275</ele>
        <time>2020-11-03T15:45:29Z</time>
      </trkpt>
      <trkpt lat="47.65349" lon="6.19616">
        <ele>275</ele>
        <time>2020-11-03T15:45:39Z</time>
      </trkpt>
      <trkpt lat="47.65354" lon="6.19618">
        <ele>275</ele>
        <time>2020-11-03T15:45:39Z</time>
      </trkpt>
      <trkpt lat="47.65359" lon="6.19619">
        <ele>275</ele>
        <time>2020-11-03T15:45:45Z</time>
      </trkpt>
      <trkpt lat="47.65362" lon="6.19613">
        <ele>275</ele>
        <time>2020-11-03T15:46:05Z</time>
      </trkpt>
      <trkpt lat="47.65357" lon="6.19611">
        <ele>275</ele>
        <time>2020-11-03T15:46:21Z</time>
      </trkpt>
      <trkpt lat="47.65352" lon="6.19609">
        <ele>275</ele>
        <time>2020-11-03T15:46:24Z</time>
      </trkpt>
      <trkpt lat="47.65347" lon="6.19605">
        <ele>275</ele>
        <time>2020-11-03T15:46:27Z</time>
      </trkpt>
      <trkpt lat="47.65341" lon="6.19603">
        <ele>274</ele>
        <time>2020-11-03T15:46:29Z</time>
      </trkpt>
      <trkpt lat="47.6533" lon="6.19602">
        <ele>271</ele>
        <time>2020-11-03T15:46:34Z</time>
      </trkpt>
      <trkpt lat="47.65324" lon="6.196">
        <ele>271</ele>
        <time>2020-11-03T15:46:37Z</time>
      </trkpt>
      <trkpt lat="47.65318" lon="6.19597">
        <ele>271</ele>
        <time>2020-11-03T15:46:39Z</time>
      </trkpt>
      <trkpt lat="47.65314" lon="6.19593">
        <ele>271</ele>
        <time>2020-11-03T15:46:41Z</time>
      </trkpt>
      <trkpt lat="47.65307" lon="6.19581">
        <ele>271</ele>
        <time>2020-11-03T15:46:47Z</time>
      </trkpt>
      <trkpt lat="47.65304" lon="6.19576">
        <ele>271</ele>
        <time>2020-11-03T15:46:50Z</time>
      </trkpt>
      <trkpt lat="47.65302" lon="6.1957">
        <ele>271</ele>
        <time>2020-11-03T15:46:52Z</time>
      </trkpt>
      <trkpt lat="47.65298" lon="6.19564">
        <ele>271</ele>
        <time>2020-11-03T15:46:55Z</time>
      </trkpt>
      <trkpt lat="47.65296" lon="6.19558">
        <ele>271</ele>
        <time>2020-11-03T15:46:58Z</time>
      </trkpt>
      <trkpt lat="47.65294" lon="6.19551">
        <ele>271</ele>
        <time>2020-11-03T15:47:01Z</time>
      </trkpt>
      <trkpt lat="47.65291" lon="6.19544">
        <ele>271</ele>
        <time>2020-11-03T15:47:06Z</time>
      </trkpt>
      <trkpt lat="47.65289" lon="6.19538">
        <ele>271</ele>
        <time>2020-11-03T15:47:11Z</time>
      </trkpt>
      <trkpt lat="47.65285" lon="6.19534">
        <ele>271</ele>
        <time>2020-11-03T15:47:15Z</time>
      </trkpt>
      <trkpt lat="47.65282" lon="6.19528">
        <ele>271</ele>
        <time>2020-11-03T15:47:18Z</time>
      </trkpt>
      <trkpt lat="47.65281" lon="6.19521">
        <ele>270</ele>
        <time>2020-11-03T15:47:23Z</time>
      </trkpt>
      <trkpt lat="47.6528" lon="6.19512">
        <ele>270</ele>
        <time>2020-11-03T15:47:32Z</time>
      </trkpt>
      <trkpt lat="47.6528" lon="6.19504">
        <ele>270</ele>
        <time>2020-11-03T15:47:35Z</time>
      </trkpt>
      <trkpt lat="47.65278" lon="6.19495">
        <ele>270</ele>
        <time>2020-11-03T15:47:39Z</time>
      </trkpt>
      <trkpt lat="47.65274" lon="6.19488">
        <ele>270</ele>
        <time>2020-11-03T15:47:42Z</time>
      </trkpt>
      <trkpt lat="47.65271" lon="6.19481">
        <ele>270</ele>
        <time>2020-11-03T15:47:44Z</time>
      </trkpt>
      <trkpt lat="47.65266" lon="6.19474">
        <ele>270</ele>
        <time>2020-11-03T15:47:48Z</time>
      </trkpt>
      <trkpt lat="47.65262" lon="6.19467">
        <ele>270</ele>
        <time>2020-11-03T15:47:50Z</time>
      </trkpt>
      <trkpt lat="47.65258" lon="6.19462">
        <ele>270</ele>
        <time>2020-11-03T15:47:53Z</time>
      </trkpt>
      <trkpt lat="47.65251" lon="6.1945">
        <ele>270</ele>
        <time>2020-11-03T15:48:00Z</time>
      </trkpt>
      <trkpt lat="47.65246" lon="6.19444">
        <ele>267</ele>
        <time>2020-11-03T15:48:02Z</time>
      </trkpt>
      <trkpt lat="47.65241" lon="6.19438">
        <ele>267</ele>
        <time>2020-11-03T15:48:05Z</time>
      </trkpt>
      <trkpt lat="47.65234" lon="6.19429">
        <ele>267</ele>
        <time>2020-11-03T15:48:10Z</time>
      </trkpt>
      <trkpt lat="47.6523" lon="6.19423">
        <ele>267</ele>
        <time>2020-11-03T15:48:12Z</time>
      </trkpt>
      <trkpt lat="47.65225" lon="6.19415">
        <ele>268</ele>
        <time>2020-11-03T15:48:14Z</time>
      </trkpt>
      <trkpt lat="47.65222" lon="6.1941">
        <ele>268</ele>
        <time>2020-11-03T15:48:15Z</time>
      </trkpt>
      <trkpt lat="47.65212" lon="6.19394">
        <ele>268</ele>
        <time>2020-11-03T15:48:18Z</time>
      </trkpt>
      <trkpt lat="47.65206" lon="6.19384">
        <ele>268</ele>
        <time>2020-11-03T15:48:21Z</time>
      </trkpt>
      <trkpt lat="47.65203" lon="6.19377">
        <ele>268</ele>
        <time>2020-11-03T15:48:22Z</time>
      </trkpt>
      <trkpt lat="47.65199" lon="6.19371">
        <ele>268</ele>
        <time>2020-11-03T15:48:24Z</time>
      </trkpt>
      <trkpt lat="47.65197" lon="6.19365">
        <ele>268</ele>
        <time>2020-11-03T15:48:25Z</time>
      </trkpt>
      <trkpt lat="47.65193" lon="6.19359">
        <ele>268</ele>
        <time>2020-11-03T15:48:27Z</time>
      </trkpt>
      <trkpt lat="47.6519" lon="6.19353">
        <ele>268</ele>
        <time>2020-11-03T15:48:29Z</time>
      </trkpt>
      <trkpt lat="47.65186" lon="6.19347">
        <ele>268</ele>
        <time>2020-11-03T15:48:31Z</time>
      </trkpt>
      <trkpt lat="47.65181" lon="6.19341">
        <ele>268</ele>
        <time>2020-11-03T15:48:34Z</time>
      </trkpt>
      <trkpt lat="47.65177" lon="6.19335">
        <ele>268</ele>
        <time>2020-11-03T15:48:36Z</time>
      </trkpt>
      <trkpt lat="47.65174" lon="6.1933">
        <ele>269</ele>
        <time>2020-11-03T15:48:37Z</time>
      </trkpt>
      <trkpt lat="47.6517" lon="6.19325">
        <ele>269</ele>
        <time>2020-11-03T15:48:39Z</time>
      </trkpt>
      <trkpt lat="47.65164" lon="6.19319">
        <ele>268</ele>
        <time>2020-11-03T15:48:42Z</time>
      </trkpt>
      <trkpt lat="47.6516" lon="6.19315">
        <ele>268</ele>
        <time>2020-11-03T15:48:43Z</time>
      </trkpt>
      <trkpt lat="47.65156" lon="6.19311">
        <ele>268</ele>
        <time>2020-11-03T15:48:45Z</time>
      </trkpt>
      <trkpt lat="47.65152" lon="6.19307">
        <ele>268</ele>
        <time>2020-11-03T15:48:47Z</time>
      </trkpt>
      <trkpt lat="47.65149" lon="6.19303">
        <ele>268</ele>
        <time>2020-11-03T15:48:48Z</time>
      </trkpt>
      <trkpt lat="47.65143" lon="6.19298">
        <ele>268</ele>
        <time>2020-11-03T15:48:50Z</time>
      </trkpt>
      <trkpt lat="47.65138" lon="6.19292">
        <ele>268</ele>
        <time>2020-11-03T15:48:53Z</time>
      </trkpt>
      <trkpt lat="47.65133" lon="6.19287">
        <ele>268</ele>
        <time>2020-11-03T15:48:54Z</time>
      </trkpt>
      <trkpt lat="47.65127" lon="6.1928">
        <ele>268</ele>
        <time>2020-11-03T15:48:57Z</time>
      </trkpt>
      <trkpt lat="47.65122" lon="6.19273">
        <ele>268</ele>
        <time>2020-11-03T15:48:58Z</time>
      </trkpt>
      <trkpt lat="47.65116" lon="6.19265">
        <ele>268</ele>
        <time>2020-11-03T15:49:00Z</time>
      </trkpt>
      <trkpt lat="47.6511" lon="6.19259">
        <ele>267</ele>
        <time>2020-11-03T15:49:02Z</time>
      </trkpt>
      <trkpt lat="47.65107" lon="6.19254">
        <ele>267</ele>
        <time>2020-11-03T15:49:03Z</time>
      </trkpt>
      <trkpt lat="47.65102" lon="6.19248">
        <ele>268</ele>
        <time>2020-11-03T15:49:05Z</time>
      </trkpt>
      <trkpt lat="47.65091" lon="6.19232">
        <ele>268</ele>
        <time>2020-11-03T15:49:09Z</time>
      </trkpt>
      <trkpt lat="47.65075" lon="6.19212">
        <ele>266</ele>
        <time>2020-11-03T15:49:14Z</time>
      </trkpt>
      <trkpt lat="47.65068" lon="6.19199">
        <ele>265</ele>
        <time>2020-11-03T15:49:16Z</time>
      </trkpt>
      <trkpt lat="47.65063" lon="6.1919">
        <ele>265</ele>
        <time>2020-11-03T15:49:18Z</time>
      </trkpt>
      <trkpt lat="47.65054" lon="6.19177">
        <ele>265</ele>
        <time>2020-11-03T15:49:22Z</time>
      </trkpt>
      <trkpt lat="47.65048" lon="6.19168">
        <ele>265</ele>
        <time>2020-11-03T15:49:24Z</time>
      </trkpt>
      <trkpt lat="47.65045" lon="6.19163">
        <ele>265</ele>
        <time>2020-11-03T15:49:25Z</time>
      </trkpt>
      <trkpt lat="47.65037" lon="6.1915">
        <ele>265</ele>
        <time>2020-11-03T15:49:27Z</time>
      </trkpt>
      <trkpt lat="47.65033" lon="6.19144">
        <ele>265</ele>
        <time>2020-11-03T15:49:29Z</time>
      </trkpt>
      <trkpt lat="47.65029" lon="6.19137">
        <ele>265</ele>
        <time>2020-11-03T15:49:30Z</time>
      </trkpt>
      <trkpt lat="47.65026" lon="6.19131">
        <ele>265</ele>
        <time>2020-11-03T15:49:31Z</time>
      </trkpt>
      <trkpt lat="47.65022" lon="6.19125">
        <ele>265</ele>
        <time>2020-11-03T15:49:32Z</time>
      </trkpt>
      <trkpt lat="47.65014" lon="6.19111">
        <ele>265</ele>
        <time>2020-11-03T15:49:35Z</time>
      </trkpt>
      <trkpt lat="47.65011" lon="6.19105">
        <ele>265</ele>
        <time>2020-11-03T15:49:36Z</time>
      </trkpt>
      <trkpt lat="47.65007" lon="6.19098">
        <ele>265</ele>
        <time>2020-11-03T15:49:38Z</time>
      </trkpt>
      <trkpt lat="47.65003" lon="6.19092">
        <ele>264</ele>
        <time>2020-11-03T15:49:39Z</time>
      </trkpt>
      <trkpt lat="47.64999" lon="6.19085">
        <ele>264</ele>
        <time>2020-11-03T15:49:41Z</time>
      </trkpt>
      <trkpt lat="47.64993" lon="6.19075">
        <ele>263</ele>
        <time>2020-11-03T15:49:43Z</time>
      </trkpt>
      <trkpt lat="47.64986" lon="6.19064">
        <ele>263</ele>
        <time>2020-11-03T15:49:45Z</time>
      </trkpt>
      <trkpt lat="47.64982" lon="6.19056">
        <ele>263</ele>
        <time>2020-11-03T15:49:46Z</time>
      </trkpt>
      <trkpt lat="47.64971" lon="6.19036">
        <ele>262</ele>
        <time>2020-11-03T15:49:46Z</time>
      </trkpt>
      <trkpt lat="47.64966" lon="6.19026">
        <ele>262</ele>
        <time>2020-11-03T15:49:53Z</time>
      </trkpt>
      <trkpt lat="47.64962" lon="6.19019">
        <ele>262</ele>
        <time>2020-11-03T15:49:54Z</time>
      </trkpt>
      <trkpt lat="47.64958" lon="6.19011">
        <ele>262</ele>
        <time>2020-11-03T15:49:56Z</time>
      </trkpt>
      <trkpt lat="47.64954" lon="6.19004">
        <ele>262</ele>
        <time>2020-11-03T15:49:58Z</time>
      </trkpt>
      <trkpt lat="47.6495" lon="6.18995">
        <ele>263</ele>
        <time>2020-11-03T15:50:00Z</time>
      </trkpt>
      <trkpt lat="47.64946" lon="6.18988">
        <ele>263</ele>
        <time>2020-11-03T15:50:02Z</time>
      </trkpt>
      <trkpt lat="47.64943" lon="6.1898">
        <ele>262</ele>
        <time>2020-11-03T15:50:04Z</time>
      </trkpt>
      <trkpt lat="47.64938" lon="6.18973">
        <ele>262</ele>
        <time>2020-11-03T15:50:06Z</time>
      </trkpt>
      <trkpt lat="47.64931" lon="6.18959">
        <ele>263</ele>
        <time>2020-11-03T15:50:08Z</time>
      </trkpt>
      <trkpt lat="47.64928" lon="6.18954">
        <ele>263</ele>
        <time>2020-11-03T15:50:10Z</time>
      </trkpt>
      <trkpt lat="47.64922" lon="6.18944">
        <ele>263</ele>
        <time>2020-11-03T15:50:12Z</time>
      </trkpt>
      <trkpt lat="47.64915" lon="6.18932">
        <ele>261</ele>
        <time>2020-11-03T15:50:14Z</time>
      </trkpt>
      <trkpt lat="47.64912" lon="6.18926">
        <ele>261</ele>
        <time>2020-11-03T15:50:15Z</time>
      </trkpt>
      <trkpt lat="47.64909" lon="6.18921">
        <ele>261</ele>
        <time>2020-11-03T15:50:17Z</time>
      </trkpt>
      <trkpt lat="47.64905" lon="6.18915">
        <ele>261</ele>
        <time>2020-11-03T15:50:18Z</time>
      </trkpt>
      <trkpt lat="47.64888" lon="6.18886">
        <ele>261</ele>
        <time>2020-11-03T15:50:19Z</time>
      </trkpt>
      <trkpt lat="47.64884" lon="6.18878">
        <ele>261</ele>
        <time>2020-11-03T15:50:25Z</time>
      </trkpt>
      <trkpt lat="47.64881" lon="6.18872">
        <ele>261</ele>
        <time>2020-11-03T15:50:26Z</time>
      </trkpt>
      <trkpt lat="47.64878" lon="6.18865">
        <ele>261</ele>
        <time>2020-11-03T15:50:28Z</time>
      </trkpt>
      <trkpt lat="47.64872" lon="6.18854">
        <ele>261</ele>
        <time>2020-11-03T15:50:30Z</time>
      </trkpt>
      <trkpt lat="47.64866" lon="6.18838">
        <ele>260</ele>
        <time>2020-11-03T15:50:32Z</time>
      </trkpt>
      <trkpt lat="47.64862" lon="6.18832">
        <ele>260</ele>
        <time>2020-11-03T15:50:33Z</time>
      </trkpt>
      <trkpt lat="47.64858" lon="6.18824">
        <ele>260</ele>
        <time>2020-11-03T15:50:35Z</time>
      </trkpt>
      <trkpt lat="47.64851" lon="6.1881">
        <ele>260</ele>
        <time>2020-11-03T15:50:37Z</time>
      </trkpt>
      <trkpt lat="47.64843" lon="6.18792">
        <ele>260</ele>
        <time>2020-11-03T15:50:40Z</time>
      </trkpt>
      <trkpt lat="47.64839" lon="6.18785">
        <ele>260</ele>
        <time>2020-11-03T15:50:42Z</time>
      </trkpt>
      <trkpt lat="47.64822" lon="6.18748">
        <ele>257</ele>
        <time>2020-11-03T15:50:42Z</time>
      </trkpt>
      <trkpt lat="47.64819" lon="6.18742">
        <ele>257</ele>
        <time>2020-11-03T15:50:43Z</time>
      </trkpt>
      <trkpt lat="47.64816" lon="6.18735">
        <ele>256</ele>
        <time>2020-11-03T15:50:44Z</time>
      </trkpt>
      <trkpt lat="47.64813" lon="6.18729">
        <ele>256</ele>
        <time>2020-11-03T15:50:45Z</time>
      </trkpt>
      <trkpt lat="47.6481" lon="6.18722">
        <ele>256</ele>
        <time>2020-11-03T15:50:46Z</time>
      </trkpt>
      <trkpt lat="47.64807" lon="6.18715">
        <ele>256</ele>
        <time>2020-11-03T15:50:47Z</time>
      </trkpt>
      <trkpt lat="47.64803" lon="6.18709">
        <ele>255</ele>
        <time>2020-11-03T15:50:48Z</time>
      </trkpt>
      <trkpt lat="47.648" lon="6.18702">
        <ele>255</ele>
        <time>2020-11-03T15:50:49Z</time>
      </trkpt>
      <trkpt lat="47.64796" lon="6.18695">
        <ele>255</ele>
        <time>2020-11-03T15:50:50Z</time>
      </trkpt>
      <trkpt lat="47.64793" lon="6.18688">
        <ele>255</ele>
        <time>2020-11-03T15:50:51Z</time>
      </trkpt>
      <trkpt lat="47.6479" lon="6.18682">
        <ele>255</ele>
        <time>2020-11-03T15:50:52Z</time>
      </trkpt>
      <trkpt lat="47.64786" lon="6.18675">
        <ele>255</ele>
        <time>2020-11-03T15:50:53Z</time>
      </trkpt>
      <trkpt lat="47.64782" lon="6.18668">
        <ele>254</ele>
        <time>2020-11-03T15:50:54Z</time>
      </trkpt>
      <trkpt lat="47.64779" lon="6.18662">
        <ele>255</ele>
        <time>2020-11-03T15:50:55Z</time>
      </trkpt>
      <trkpt lat="47.64775" lon="6.18655">
        <ele>255</ele>
        <time>2020-11-03T15:50:56Z</time>
      </trkpt>
      <trkpt lat="47.64772" lon="6.18648">
        <ele>255</ele>
        <time>2020-11-03T15:50:57Z</time>
      </trkpt>
      <trkpt lat="47.64768" lon="6.18641">
        <ele>255</ele>
        <time>2020-11-03T15:50:58Z</time>
      </trkpt>
      <trkpt lat="47.64765" lon="6.18635">
        <ele>255</ele>
        <time>2020-11-03T15:50:59Z</time>
      </trkpt>
      <trkpt lat="47.64762" lon="6.18629">
        <ele>255</ele>
        <time>2020-11-03T15:51:00Z</time>
      </trkpt>
      <trkpt lat="47.64758" lon="6.18623">
        <ele>255</ele>
        <time>2020-11-03T15:51:01Z</time>
      </trkpt>
      <trkpt lat="47.64755" lon="6.18617">
        <ele>255</ele>
        <time>2020-11-03T15:51:02Z</time>
      </trkpt>
      <trkpt lat="47.64752" lon="6.18611">
        <ele>255</ele>
        <time>2020-11-03T15:51:03Z</time>
      </trkpt>
      <trkpt lat="47.64749" lon="6.18605">
        <ele>252</ele>
        <time>2020-11-03T15:51:04Z</time>
      </trkpt>
      <trkpt lat="47.64747" lon="6.18599">
        <ele>252</ele>
        <time>2020-11-03T15:51:05Z</time>
      </trkpt>
      <trkpt lat="47.64744" lon="6.18594">
        <ele>253</ele>
        <time>2020-11-03T15:51:06Z</time>
      </trkpt>
      <trkpt lat="47.64741" lon="6.18588">
        <ele>253</ele>
        <time>2020-11-03T15:51:07Z</time>
      </trkpt>
      <trkpt lat="47.64738" lon="6.18583">
        <ele>254</ele>
        <time>2020-11-03T15:51:08Z</time>
      </trkpt>
      <trkpt lat="47.64732" lon="6.18573">
        <ele>254</ele>
        <time>2020-11-03T15:51:10Z</time>
      </trkpt>
      <trkpt lat="47.64727" lon="6.18565">
        <ele>253</ele>
        <time>2020-11-03T15:51:12Z</time>
      </trkpt>
      <trkpt lat="47.64723" lon="6.18557">
        <ele>253</ele>
        <time>2020-11-03T15:51:14Z</time>
      </trkpt>
      <trkpt lat="47.64718" lon="6.18549">
        <ele>253</ele>
        <time>2020-11-03T15:51:16Z</time>
      </trkpt>
      <trkpt lat="47.64723" lon="6.18544">
        <ele>253</ele>
        <time>2020-11-03T15:51:22Z</time>
      </trkpt>
      <trkpt lat="47.64717" lon="6.18535">
        <ele>253</ele>
        <time>2020-11-03T15:51:25Z</time>
      </trkpt>
      <trkpt lat="47.64713" lon="6.18529">
        <ele>253</ele>
        <time>2020-11-03T15:51:26Z</time>
      </trkpt>
      <trkpt lat="47.64709" lon="6.18522">
        <ele>253</ele>
        <time>2020-11-03T15:51:28Z</time>
      </trkpt>
      <trkpt lat="47.64704" lon="6.18515">
        <ele>253</ele>
        <time>2020-11-03T15:51:29Z</time>
      </trkpt>
      <trkpt lat="47.647" lon="6.1851">
        <ele>253</ele>
        <time>2020-11-03T15:51:30Z</time>
      </trkpt>
      <trkpt lat="47.64697" lon="6.18504">
        <ele>253</ele>
        <time>2020-11-03T15:51:31Z</time>
      </trkpt>
      <trkpt lat="47.64689" lon="6.18489">
        <ele>254</ele>
        <time>2020-11-03T15:51:34Z</time>
      </trkpt>
      <trkpt lat="47.64686" lon="6.18483">
        <ele>254</ele>
        <time>2020-11-03T15:51:36Z</time>
      </trkpt>
      <trkpt lat="47.64681" lon="6.18476">
        <ele>254</ele>
        <time>2020-11-03T15:51:37Z</time>
      </trkpt>
      <trkpt lat="47.64676" lon="6.1847">
        <ele>254</ele>
        <time>2020-11-03T15:51:39Z</time>
      </trkpt>
      <trkpt lat="47.64668" lon="6.18458">
        <ele>254</ele>
        <time>2020-11-03T15:51:42Z</time>
      </trkpt>
      <trkpt lat="47.6466" lon="6.18447">
        <ele>253</ele>
        <time>2020-11-03T15:51:45Z</time>
      </trkpt>
      <trkpt lat="47.64655" lon="6.18441">
        <ele>253</ele>
        <time>2020-11-03T15:51:47Z</time>
      </trkpt>
      <trkpt lat="47.64647" lon="6.18429">
        <ele>253</ele>
        <time>2020-11-03T15:51:51Z</time>
      </trkpt>
      <trkpt lat="47.64644" lon="6.18424">
        <ele>253</ele>
        <time>2020-11-03T15:51:52Z</time>
      </trkpt>
      <trkpt lat="47.64636" lon="6.18411">
        <ele>255</ele>
        <time>2020-11-03T15:51:56Z</time>
      </trkpt>
      <trkpt lat="47.64631" lon="6.18405">
        <ele>255</ele>
        <time>2020-11-03T15:51:57Z</time>
      </trkpt>
      <trkpt lat="47.64624" lon="6.18397">
        <ele>255</ele>
        <time>2020-11-03T15:52:00Z</time>
      </trkpt>
      <trkpt lat="47.64621" lon="6.18393">
        <ele>255</ele>
        <time>2020-11-03T15:52:01Z</time>
      </trkpt>
      <trkpt lat="47.64617" lon="6.18389">
        <ele>255</ele>
        <time>2020-11-03T15:52:02Z</time>
      </trkpt>
      <trkpt lat="47.64613" lon="6.18384">
        <ele>255</ele>
        <time>2020-11-03T15:52:04Z</time>
      </trkpt>
      <trkpt lat="47.64603" lon="6.18372">
        <ele>255</ele>
        <time>2020-11-03T15:52:07Z</time>
      </trkpt>
      <trkpt lat="47.64597" lon="6.18364">
        <ele>255</ele>
        <time>2020-11-03T15:52:09Z</time>
      </trkpt>
      <trkpt lat="47.64594" lon="6.18359">
        <ele>255</ele>
        <time>2020-11-03T15:52:10Z</time>
      </trkpt>
      <trkpt lat="47.64591" lon="6.18353">
        <ele>254</ele>
        <time>2020-11-03T15:52:12Z</time>
      </trkpt>
      <trkpt lat="47.64587" lon="6.18343">
        <ele>254</ele>
        <time>2020-11-03T15:52:14Z</time>
      </trkpt>
      <trkpt lat="47.64584" lon="6.18337">
        <ele>254</ele>
        <time>2020-11-03T15:52:15Z</time>
      </trkpt>
      <trkpt lat="47.64582" lon="6.18331">
        <ele>253</ele>
        <time>2020-11-03T15:52:16Z</time>
      </trkpt>
      <trkpt lat="47.6457" lon="6.18305">
        <ele>247</ele>
        <time>2020-11-03T15:52:21Z</time>
      </trkpt>
      <trkpt lat="47.64565" lon="6.18297">
        <ele>246</ele>
        <time>2020-11-03T15:52:23Z</time>
      </trkpt>
      <trkpt lat="47.64561" lon="6.1829">
        <ele>246</ele>
        <time>2020-11-03T15:52:24Z</time>
      </trkpt>
      <trkpt lat="47.64559" lon="6.18285">
        <ele>245</ele>
        <time>2020-11-03T15:52:25Z</time>
      </trkpt>
      <trkpt lat="47.6455" lon="6.18239">
        <ele>239</ele>
        <time>2020-11-03T15:52:26Z</time>
      </trkpt>
      <trkpt lat="47.64551" lon="6.18229">
        <ele>238</ele>
        <time>2020-11-03T15:52:27Z</time>
      </trkpt>
      <trkpt lat="47.64552" lon="6.18219">
        <ele>238</ele>
        <time>2020-11-03T15:52:28Z</time>
      </trkpt>
      <trkpt lat="47.64552" lon="6.18209">
        <ele>238</ele>
        <time>2020-11-03T15:52:29Z</time>
      </trkpt>
      <trkpt lat="47.64554" lon="6.18201">
        <ele>237</ele>
        <time>2020-11-03T15:52:30Z</time>
      </trkpt>
      <trkpt lat="47.64555" lon="6.18194">
        <ele>237</ele>
        <time>2020-11-03T15:52:31Z</time>
      </trkpt>
      <trkpt lat="47.64557" lon="6.18187">
        <ele>238</ele>
        <time>2020-11-03T15:52:32Z</time>
      </trkpt>
      <trkpt lat="47.64558" lon="6.18173">
        <ele>238</ele>
        <time>2020-11-03T15:52:34Z</time>
      </trkpt>
      <trkpt lat="47.64559" lon="6.18166">
        <ele>236</ele>
        <time>2020-11-03T15:52:39Z</time>
      </trkpt>
      <trkpt lat="47.64561" lon="6.1816">
        <ele>236</ele>
        <time>2020-11-03T15:52:41Z</time>
      </trkpt>
      <trkpt lat="47.64563" lon="6.18154">
        <ele>236</ele>
        <time>2020-11-03T15:52:42Z</time>
      </trkpt>
      <trkpt lat="47.64565" lon="6.18147">
        <ele>236</ele>
        <time>2020-11-03T15:52:44Z</time>
      </trkpt>
      <trkpt lat="47.64565" lon="6.18139">
        <ele>235</ele>
        <time>2020-11-03T15:52:47Z</time>
      </trkpt>
      <trkpt lat="47.64558" lon="6.18122">
        <ele>234</ele>
        <time>2020-11-03T15:52:51Z</time>
      </trkpt>
      <trkpt lat="47.64555" lon="6.18115">
        <ele>234</ele>
        <time>2020-11-03T15:52:53Z</time>
      </trkpt>
      <trkpt lat="47.64555" lon="6.18107">
        <ele>234</ele>
        <time>2020-11-03T15:52:54Z</time>
      </trkpt>
      <trkpt lat="47.64557" lon="6.181">
        <ele>234</ele>
        <time>2020-11-03T15:52:56Z</time>
      </trkpt>
      <trkpt lat="47.64563" lon="6.18085">
        <ele>236</ele>
        <time>2020-11-03T15:52:57Z</time>
      </trkpt>
      <trkpt lat="47.64564" lon="6.18078">
        <ele>234</ele>
        <time>2020-11-03T15:53:04Z</time>
      </trkpt>
      <trkpt lat="47.64566" lon="6.18069">
        <ele>234</ele>
        <time>2020-11-03T15:53:07Z</time>
      </trkpt>
      <trkpt lat="47.64573" lon="6.18059">
        <ele>233</ele>
        <time>2020-11-03T15:53:13Z</time>
      </trkpt>
      <trkpt lat="47.64576" lon="6.18054">
        <ele>233</ele>
        <time>2020-11-03T15:53:16Z</time>
      </trkpt>
      <trkpt lat="47.64584" lon="6.18041">
        <ele>238</ele>
        <time>2020-11-03T15:53:25Z</time>
      </trkpt>
      <trkpt lat="47.64587" lon="6.18035">
        <ele>237</ele>
        <time>2020-11-03T15:53:27Z</time>
      </trkpt>
      <trkpt lat="47.64589" lon="6.18029">
        <ele>237</ele>
        <time>2020-11-03T15:53:35Z</time>
      </trkpt>
      <trkpt lat="47.64591" lon="6.18022">
        <ele>236</ele>
        <time>2020-11-03T15:53:39Z</time>
      </trkpt>
      <trkpt lat="47.646" lon="6.18018">
        <ele>237</ele>
        <time>2020-11-03T15:53:43Z</time>
      </trkpt>
      <trkpt lat="47.64605" lon="6.18016">
        <ele>237</ele>
        <time>2020-11-03T15:54:03Z</time>
      </trkpt>
      <trkpt lat="47.64609" lon="6.18017">
        <ele>237</ele>
        <time>2020-11-03T15:54:21Z</time>
      </trkpt>
      <trkpt lat="47.64613" lon="6.18021">
        <ele>237</ele>
        <time>2020-11-03T15:54:25Z</time>
      </trkpt>
      <trkpt lat="47.64616" lon="6.18026">
        <ele>238</ele>
        <time>2020-11-03T15:54:31Z</time>
      </trkpt>
      <trkpt lat="47.64626" lon="6.18033">
        <ele>238</ele>
        <time>2020-11-03T15:54:34Z</time>
      </trkpt>
      <trkpt lat="47.64631" lon="6.18035">
        <ele>239</ele>
        <time>2020-11-03T15:54:42Z</time>
      </trkpt>
      <trkpt lat="47.64635" lon="6.18041">
        <ele>239</ele>
        <time>2020-11-03T15:54:49Z</time>
      </trkpt>
      <trkpt lat="47.64642" lon="6.18051">
        <ele>240</ele>
        <time>2020-11-03T15:54:53Z</time>
      </trkpt>
      <trkpt lat="47.64646" lon="6.18056">
        <ele>240</ele>
        <time>2020-11-03T15:55:01Z</time>
      </trkpt>
      <trkpt lat="47.64654" lon="6.18066">
        <ele>242</ele>
        <time>2020-11-03T15:55:03Z</time>
      </trkpt>
      <trkpt lat="47.64659" lon="6.18071">
        <ele>243</ele>
        <time>2020-11-03T15:55:10Z</time>
      </trkpt>
      <trkpt lat="47.64665" lon="6.18076">
        <ele>245</ele>
        <time>2020-11-03T15:55:12Z</time>
      </trkpt>
      <trkpt lat="47.64673" lon="6.18086">
        <ele>247</ele>
        <time>2020-11-03T15:55:20Z</time>
      </trkpt>
      <trkpt lat="47.64676" lon="6.18092">
        <ele>246</ele>
        <time>2020-11-03T15:55:23Z</time>
      </trkpt>
      <trkpt lat="47.64682" lon="6.18103">
        <ele>246</ele>
        <time>2020-11-03T15:55:25Z</time>
      </trkpt>
      <trkpt lat="47.64684" lon="6.18113">
        <ele>246</ele>
        <time>2020-11-03T15:55:32Z</time>
      </trkpt>
      <trkpt lat="47.64693" lon="6.18125">
        <ele>246</ele>
        <time>2020-11-03T15:55:35Z</time>
      </trkpt>
      <trkpt lat="47.64697" lon="6.1813">
        <ele>246</ele>
        <time>2020-11-03T15:55:37Z</time>
      </trkpt>
      <trkpt lat="47.64701" lon="6.18134">
        <ele>246</ele>
        <time>2020-11-03T15:55:39Z</time>
      </trkpt>
      <trkpt lat="47.64706" lon="6.18138">
        <ele>246</ele>
        <time>2020-11-03T15:55:41Z</time>
      </trkpt>
      <trkpt lat="47.64709" lon="6.18142">
        <ele>247</ele>
        <time>2020-11-03T15:55:43Z</time>
      </trkpt>
      <trkpt lat="47.64713" lon="6.18148">
        <ele>247</ele>
        <time>2020-11-03T15:55:49Z</time>
      </trkpt>
      <trkpt lat="47.64719" lon="6.18156">
        <ele>247</ele>
        <time>2020-11-03T15:55:53Z</time>
      </trkpt>
      <trkpt lat="47.64723" lon="6.18162">
        <ele>247</ele>
        <time>2020-11-03T15:55:55Z</time>
      </trkpt>
      <trkpt lat="47.64727" lon="6.18167">
        <ele>251</ele>
        <time>2020-11-03T15:55:57Z</time>
      </trkpt>
      <trkpt lat="47.6473" lon="6.18171">
        <ele>251</ele>
        <time>2020-11-03T15:55:58Z</time>
      </trkpt>
      <trkpt lat="47.64734" lon="6.18176">
        <ele>251</ele>
        <time>2020-11-03T15:56:00Z</time>
      </trkpt>
      <trkpt lat="47.64751" lon="6.18195">
        <ele>249</ele>
        <time>2020-11-03T15:56:02Z</time>
      </trkpt>
      <trkpt lat="47.64759" lon="6.18202">
        <ele>249</ele>
        <time>2020-11-03T15:56:04Z</time>
      </trkpt>
      <trkpt lat="47.64766" lon="6.18208">
        <ele>249</ele>
        <time>2020-11-03T15:56:10Z</time>
      </trkpt>
      <trkpt lat="47.64789" lon="6.18226">
        <ele>249</ele>
        <time>2020-11-03T15:56:11Z</time>
      </trkpt>
      <trkpt lat="47.64796" lon="6.18232">
        <ele>249</ele>
        <time>2020-11-03T15:56:12Z</time>
      </trkpt>
      <trkpt lat="47.64804" lon="6.18237">
        <ele>249</ele>
        <time>2020-11-03T15:56:14Z</time>
      </trkpt>
      <trkpt lat="47.64811" lon="6.18241">
        <ele>249</ele>
        <time>2020-11-03T15:56:16Z</time>
      </trkpt>
      <trkpt lat="47.64817" lon="6.18246">
        <ele>249</ele>
        <time>2020-11-03T15:56:18Z</time>
      </trkpt>
      <trkpt lat="47.64823" lon="6.18249">
        <ele>249</ele>
        <time>2020-11-03T15:56:24Z</time>
      </trkpt>
      <trkpt lat="47.64832" lon="6.18254">
        <ele>251</ele>
        <time>2020-11-03T15:56:26Z</time>
      </trkpt>
      <trkpt lat="47.64841" lon="6.1826">
        <ele>251</ele>
        <time>2020-11-03T15:56:30Z</time>
      </trkpt>
      <trkpt lat="47.64845" lon="6.18262">
        <ele>251</ele>
        <time>2020-11-03T15:56:31Z</time>
      </trkpt>
      <trkpt lat="47.64851" lon="6.18266">
        <ele>251</ele>
        <time>2020-11-03T15:56:34Z</time>
      </trkpt>
      <trkpt lat="47.64864" lon="6.18275">
        <ele>251</ele>
        <time>2020-11-03T15:56:38Z</time>
      </trkpt>
      <trkpt lat="47.64868" lon="6.18277">
        <ele>251</ele>
        <time>2020-11-03T15:56:40Z</time>
      </trkpt>
      <trkpt lat="47.64873" lon="6.1828">
        <ele>251</ele>
        <time>2020-11-03T15:56:42Z</time>
      </trkpt>
      <trkpt lat="47.64878" lon="6.18282">
        <ele>251</ele>
        <time>2020-11-03T15:56:45Z</time>
      </trkpt>
      <trkpt lat="47.64888" lon="6.18289">
        <ele>251</ele>
        <time>2020-11-03T15:56:46Z</time>
      </trkpt>
      <trkpt lat="47.64892" lon="6.18293">
        <ele>251</ele>
        <time>2020-11-03T15:56:52Z</time>
      </trkpt>
      <trkpt lat="47.64897" lon="6.18296">
        <ele>251</ele>
        <time>2020-11-03T15:56:56Z</time>
      </trkpt>
      <trkpt lat="47.64902" lon="6.18298">
        <ele>252</ele>
        <time>2020-11-03T15:57:00Z</time>
      </trkpt>
      <trkpt lat="47.64907" lon="6.18301">
        <ele>252</ele>
        <time>2020-11-03T15:57:04Z</time>
      </trkpt>
      <trkpt lat="47.64912" lon="6.18306">
        <ele>252</ele>
        <time>2020-11-03T15:57:05Z</time>
      </trkpt>
      <trkpt lat="47.64919" lon="6.18309">
        <ele>252</ele>
        <time>2020-11-03T15:57:08Z</time>
      </trkpt>
      <trkpt lat="47.64925" lon="6.18309">
        <ele>252</ele>
        <time>2020-11-03T15:57:14Z</time>
      </trkpt>
      <trkpt lat="47.6493" lon="6.18309">
        <ele>252</ele>
        <time>2020-11-03T15:57:15Z</time>
      </trkpt>
      <trkpt lat="47.64935" lon="6.1831">
        <ele>252</ele>
        <time>2020-11-03T15:57:17Z</time>
      </trkpt>
      <trkpt lat="47.64941" lon="6.18311">
        <ele>252</ele>
        <time>2020-11-03T15:57:19Z</time>
      </trkpt>
      <trkpt lat="47.64953" lon="6.18312">
        <ele>252</ele>
        <time>2020-11-03T15:57:24Z</time>
      </trkpt>
      <trkpt lat="47.64965" lon="6.18312">
        <ele>252</ele>
        <time>2020-11-03T15:57:25Z</time>
      </trkpt>
      <trkpt lat="47.6497" lon="6.18312">
        <ele>252</ele>
        <time>2020-11-03T15:57:27Z</time>
      </trkpt>
      <trkpt lat="47.64976" lon="6.18313">
        <ele>252</ele>
        <time>2020-11-03T15:57:30Z</time>
      </trkpt>
      <trkpt lat="47.64981" lon="6.18314">
        <ele>252</ele>
        <time>2020-11-03T15:57:32Z</time>
      </trkpt>
      <trkpt lat="47.64986" lon="6.18315">
        <ele>252</ele>
        <time>2020-11-03T15:57:34Z</time>
      </trkpt>
      <trkpt lat="47.64991" lon="6.18316">
        <ele>252</ele>
        <time>2020-11-03T15:57:36Z</time>
      </trkpt>
      <trkpt lat="47.64997" lon="6.18317">
        <ele>253</ele>
        <time>2020-11-03T15:57:38Z</time>
      </trkpt>
      <trkpt lat="47.65002" lon="6.18318">
        <ele>253</ele>
        <time>2020-11-03T15:57:40Z</time>
      </trkpt>
      <trkpt lat="47.65008" lon="6.18319">
        <ele>253</ele>
        <time>2020-11-03T15:57:42Z</time>
      </trkpt>
      <trkpt lat="47.65013" lon="6.1832">
        <ele>253</ele>
        <time>2020-11-03T15:57:44Z</time>
      </trkpt>
      <trkpt lat="47.65019" lon="6.18321">
        <ele>253</ele>
        <time>2020-11-03T15:57:46Z</time>
      </trkpt>
      <trkpt lat="47.65023" lon="6.18322">
        <ele>253</ele>
        <time>2020-11-03T15:57:48Z</time>
      </trkpt>
      <trkpt lat="47.65029" lon="6.18324">
        <ele>253</ele>
        <time>2020-11-03T15:57:50Z</time>
      </trkpt>
      <trkpt lat="47.65034" lon="6.18326">
        <ele>254</ele>
        <time>2020-11-03T15:57:52Z</time>
      </trkpt>
      <trkpt lat="47.6504" lon="6.18328">
        <ele>254</ele>
        <time>2020-11-03T15:57:54Z</time>
      </trkpt>
      <trkpt lat="47.65044" lon="6.18332">
        <ele>254</ele>
        <time>2020-11-03T15:57:56Z</time>
      </trkpt>
      <trkpt lat="47.65048" lon="6.18335">
        <ele>256</ele>
        <time>2020-11-03T15:58:02Z</time>
      </trkpt>
      <trkpt lat="47.65053" lon="6.18339">
        <ele>256</ele>
        <time>2020-11-03T15:58:04Z</time>
      </trkpt>
      <trkpt lat="47.65062" lon="6.18347">
        <ele>256</ele>
        <time>2020-11-03T15:58:08Z</time>
      </trkpt>
      <trkpt lat="47.65066" lon="6.18351">
        <ele>256</ele>
        <time>2020-11-03T15:58:10Z</time>
      </trkpt>
      <trkpt lat="47.6507" lon="6.18355">
        <ele>256</ele>
        <time>2020-11-03T15:58:11Z</time>
      </trkpt>
      <trkpt lat="47.6508" lon="6.18364">
        <ele>256</ele>
        <time>2020-11-03T15:58:17Z</time>
      </trkpt>
      <trkpt lat="47.65084" lon="6.18368">
        <ele>257</ele>
        <time>2020-11-03T15:58:19Z</time>
      </trkpt>
      <trkpt lat="47.65089" lon="6.18372">
        <ele>257</ele>
        <time>2020-11-03T15:58:21Z</time>
      </trkpt>
      <trkpt lat="47.65098" lon="6.18381">
        <ele>257</ele>
        <time>2020-11-03T15:58:28Z</time>
      </trkpt>
      <trkpt lat="47.65101" lon="6.18386">
        <ele>257</ele>
        <time>2020-11-03T15:58:30Z</time>
      </trkpt>
      <trkpt lat="47.6511" lon="6.18396">
        <ele>257</ele>
        <time>2020-11-03T15:58:38Z</time>
      </trkpt>
      <trkpt lat="47.65114" lon="6.18399">
        <ele>257</ele>
        <time>2020-11-03T15:58:41Z</time>
      </trkpt>
      <trkpt lat="47.65118" lon="6.18403">
        <ele>258</ele>
        <time>2020-11-03T15:58:46Z</time>
      </trkpt>
      <trkpt lat="47.65124" lon="6.18407">
        <ele>258</ele>
        <time>2020-11-03T15:58:50Z</time>
      </trkpt>
      <trkpt lat="47.65128" lon="6.18411">
        <ele>258</ele>
        <time>2020-11-03T15:58:53Z</time>
      </trkpt>
      <trkpt lat="47.65138" lon="6.18418">
        <ele>259</ele>
        <time>2020-11-03T15:59:00Z</time>
      </trkpt>
      <trkpt lat="47.65142" lon="6.18421">
        <ele>259</ele>
        <time>2020-11-03T15:59:03Z</time>
      </trkpt>
      <trkpt lat="47.65146" lon="6.18425">
        <ele>259</ele>
        <time>2020-11-03T15:59:06Z</time>
      </trkpt>
      <trkpt lat="47.6515" lon="6.1843">
        <ele>259</ele>
        <time>2020-11-03T15:59:10Z</time>
      </trkpt>
      <trkpt lat="47.65154" lon="6.18435">
        <ele>259</ele>
        <time>2020-11-03T15:59:13Z</time>
      </trkpt>
      <trkpt lat="47.65163" lon="6.18444">
        <ele>259</ele>
        <time>2020-11-03T15:59:19Z</time>
      </trkpt>
      <trkpt lat="47.65173" lon="6.1845">
        <ele>260</ele>
        <time>2020-11-03T15:59:22Z</time>
      </trkpt>
      <trkpt lat="47.6518" lon="6.18455">
        <ele>261</ele>
        <time>2020-11-03T15:59:25Z</time>
      </trkpt>
      <trkpt lat="47.6519" lon="6.18463">
        <ele>261</ele>
        <time>2020-11-03T15:59:29Z</time>
      </trkpt>
      <trkpt lat="47.65196" lon="6.18468">
        <ele>261</ele>
        <time>2020-11-03T15:59:32Z</time>
      </trkpt>
      <trkpt lat="47.65199" lon="6.18473">
        <ele>261</ele>
        <time>2020-11-03T15:59:35Z</time>
      </trkpt>
      <trkpt lat="47.65203" lon="6.1848">
        <ele>261</ele>
        <time>2020-11-03T15:59:38Z</time>
      </trkpt>
      <trkpt lat="47.65207" lon="6.18484">
        <ele>261</ele>
        <time>2020-11-03T15:59:41Z</time>
      </trkpt>
      <trkpt lat="47.6521" lon="6.1849">
        <ele>261</ele>
        <time>2020-11-03T15:59:44Z</time>
      </trkpt>
      <trkpt lat="47.65214" lon="6.18496">
        <ele>261</ele>
        <time>2020-11-03T15:59:47Z</time>
      </trkpt>
      <trkpt lat="47.65218" lon="6.18502">
        <ele>262</ele>
        <time>2020-11-03T15:59:50Z</time>
      </trkpt>
      <trkpt lat="47.65224" lon="6.18513">
        <ele>263</ele>
        <time>2020-11-03T15:59:55Z</time>
      </trkpt>
      <trkpt lat="47.65227" lon="6.18519">
        <ele>263</ele>
        <time>2020-11-03T15:59:58Z</time>
      </trkpt>
      <trkpt lat="47.65231" lon="6.18526">
        <ele>263</ele>
        <time>2020-11-03T16:00:01Z</time>
      </trkpt>
      <trkpt lat="47.65234" lon="6.18533">
        <ele>263</ele>
        <time>2020-11-03T16:00:05Z</time>
      </trkpt>
      <trkpt lat="47.65237" lon="6.18539">
        <ele>263</ele>
        <time>2020-11-03T16:00:07Z</time>
      </trkpt>
      <trkpt lat="47.65239" lon="6.18545">
        <ele>263</ele>
        <time>2020-11-03T16:00:10Z</time>
      </trkpt>
      <trkpt lat="47.65242" lon="6.18554">
        <ele>263</ele>
        <time>2020-11-03T16:00:14Z</time>
      </trkpt>
      <trkpt lat="47.65244" lon="6.1856">
        <ele>263</ele>
        <time>2020-11-03T16:00:16Z</time>
      </trkpt>
      <trkpt lat="47.65248" lon="6.18565">
        <ele>264</ele>
        <time>2020-11-03T16:00:20Z</time>
      </trkpt>
      <trkpt lat="47.65251" lon="6.1857">
        <ele>265</ele>
        <time>2020-11-03T16:00:22Z</time>
      </trkpt>
      <trkpt lat="47.65254" lon="6.18576">
        <ele>265</ele>
        <time>2020-11-03T16:00:25Z</time>
      </trkpt>
      <trkpt lat="47.65257" lon="6.18581">
        <ele>265</ele>
        <time>2020-11-03T16:00:27Z</time>
      </trkpt>
      <trkpt lat="47.65261" lon="6.18586">
        <ele>266</ele>
        <time>2020-11-03T16:00:30Z</time>
      </trkpt>
      <trkpt lat="47.65264" lon="6.18592">
        <ele>266</ele>
        <time>2020-11-03T16:00:32Z</time>
      </trkpt>
      <trkpt lat="47.65267" lon="6.18598">
        <ele>266</ele>
        <time>2020-11-03T16:00:35Z</time>
      </trkpt>
      <trkpt lat="47.65271" lon="6.18604">
        <ele>266</ele>
        <time>2020-11-03T16:00:39Z</time>
      </trkpt>
      <trkpt lat="47.65274" lon="6.1861">
        <ele>267</ele>
        <time>2020-11-03T16:00:42Z</time>
      </trkpt>
      <trkpt lat="47.65278" lon="6.18615">
        <ele>267</ele>
        <time>2020-11-03T16:00:44Z</time>
      </trkpt>
      <trkpt lat="47.65282" lon="6.1862">
        <ele>267</ele>
        <time>2020-11-03T16:00:47Z</time>
      </trkpt>
      <trkpt lat="47.65289" lon="6.18629">
        <ele>267</ele>
        <time>2020-11-03T16:00:52Z</time>
      </trkpt>
      <trkpt lat="47.65298" lon="6.1864">
        <ele>267</ele>
        <time>2020-11-03T16:00:54Z</time>
      </trkpt>
      <trkpt lat="47.65301" lon="6.18645">
        <ele>267</ele>
        <time>2020-11-03T16:01:00Z</time>
      </trkpt>
      <trkpt lat="47.65306" lon="6.18652">
        <ele>268</ele>
        <time>2020-11-03T16:01:04Z</time>
      </trkpt>
      <trkpt lat="47.65314" lon="6.18662">
        <ele>268</ele>
        <time>2020-11-03T16:01:10Z</time>
      </trkpt>
      <trkpt lat="47.65318" lon="6.18667">
        <ele>269</ele>
        <time>2020-11-03T16:01:13Z</time>
      </trkpt>
      <trkpt lat="47.65321" lon="6.18672">
        <ele>269</ele>
        <time>2020-11-03T16:01:16Z</time>
      </trkpt>
      <trkpt lat="47.65324" lon="6.18677">
        <ele>269</ele>
        <time>2020-11-03T16:01:20Z</time>
      </trkpt>
      <trkpt lat="47.65327" lon="6.18683">
        <ele>269</ele>
        <time>2020-11-03T16:01:24Z</time>
      </trkpt>
      <trkpt lat="47.65331" lon="6.18687">
        <ele>269</ele>
        <time>2020-11-03T16:01:28Z</time>
      </trkpt>
      <trkpt lat="47.65338" lon="6.18699">
        <ele>272</ele>
        <time>2020-11-03T16:01:34Z</time>
      </trkpt>
      <trkpt lat="47.65341" lon="6.18705">
        <ele>272</ele>
        <time>2020-11-03T16:01:37Z</time>
      </trkpt>
      <trkpt lat="47.65344" lon="6.18711">
        <ele>272</ele>
        <time>2020-11-03T16:01:41Z</time>
      </trkpt>
      <trkpt lat="47.65347" lon="6.1872">
        <ele>272</ele>
        <time>2020-11-03T16:01:45Z</time>
      </trkpt>
      <trkpt lat="47.65351" lon="6.18727">
        <ele>272</ele>
        <time>2020-11-03T16:01:49Z</time>
      </trkpt>
      <trkpt lat="47.65357" lon="6.18738">
        <ele>272</ele>
        <time>2020-11-03T16:01:55Z</time>
      </trkpt>
      <trkpt lat="47.6536" lon="6.18744">
        <ele>272</ele>
        <time>2020-11-03T16:01:58Z</time>
      </trkpt>
      <trkpt lat="47.65364" lon="6.1875">
        <ele>274</ele>
        <time>2020-11-03T16:02:02Z</time>
      </trkpt>
      <trkpt lat="47.65368" lon="6.18757">
        <ele>274</ele>
        <time>2020-11-03T16:02:05Z</time>
      </trkpt>
      <trkpt lat="47.65371" lon="6.18762">
        <ele>274</ele>
        <time>2020-11-03T16:02:08Z</time>
      </trkpt>
      <trkpt lat="47.65374" lon="6.18768">
        <ele>274</ele>
        <time>2020-11-03T16:02:11Z</time>
      </trkpt>
      <trkpt lat="47.65377" lon="6.18774">
        <ele>274</ele>
        <time>2020-11-03T16:02:14Z</time>
      </trkpt>
      <trkpt lat="47.6538" lon="6.1878">
        <ele>275</ele>
        <time>2020-11-03T16:02:17Z</time>
      </trkpt>
      <trkpt lat="47.65383" lon="6.18786">
        <ele>275</ele>
        <time>2020-11-03T16:02:20Z</time>
      </trkpt>
      <trkpt lat="47.65389" lon="6.18799">
        <ele>275</ele>
        <time>2020-11-03T16:02:23Z</time>
      </trkpt>
      <trkpt lat="47.65392" lon="6.18805">
        <ele>275</ele>
        <time>2020-11-03T16:02:31Z</time>
      </trkpt>
      <trkpt lat="47.65395" lon="6.18812">
        <ele>275</ele>
        <time>2020-11-03T16:02:35Z</time>
      </trkpt>
      <trkpt lat="47.65398" lon="6.18819">
        <ele>276</ele>
        <time>2020-11-03T16:02:40Z</time>
      </trkpt>
      <trkpt lat="47.65401" lon="6.18824">
        <ele>276</ele>
        <time>2020-11-03T16:02:43Z</time>
      </trkpt>
      <trkpt lat="47.65406" lon="6.1883">
        <ele>277</ele>
        <time>2020-11-03T16:02:46Z</time>
      </trkpt>
      <trkpt lat="47.65409" lon="6.18836">
        <ele>277</ele>
        <time>2020-11-03T16:02:50Z</time>
      </trkpt>
      <trkpt lat="47.65413" lon="6.18841">
        <ele>277</ele>
        <time>2020-11-03T16:02:53Z</time>
      </trkpt>
      <trkpt lat="47.65416" lon="6.18848">
        <ele>277</ele>
        <time>2020-11-03T16:02:56Z</time>
      </trkpt>
      <trkpt lat="47.65418" lon="6.18842">
        <ele>279</ele>
        <time>2020-11-03T16:03:06Z</time>
      </trkpt>
      <trkpt lat="47.65415" lon="6.18836">
        <ele>278</ele>
        <time>2020-11-03T16:03:09Z</time>
      </trkpt>
      <trkpt lat="47.65411" lon="6.18831">
        <ele>277</ele>
        <time>2020-11-03T16:03:13Z</time>
      </trkpt>
      <trkpt lat="47.65407" lon="6.18826">
        <ele>277</ele>
        <time>2020-11-03T16:03:15Z</time>
      </trkpt>
      <trkpt lat="47.65403" lon="6.18819">
        <ele>276</ele>
        <time>2020-11-03T16:03:17Z</time>
      </trkpt>
      <trkpt lat="47.65399" lon="6.18813">
        <ele>276</ele>
        <time>2020-11-03T16:03:19Z</time>
      </trkpt>
      <trkpt lat="47.65393" lon="6.18804">
        <ele>275</ele>
        <time>2020-11-03T16:03:22Z</time>
      </trkpt>
      <trkpt lat="47.65387" lon="6.18793">
        <ele>275</ele>
        <time>2020-11-03T16:03:24Z</time>
      </trkpt>
      <trkpt lat="47.65383" lon="6.18787">
        <ele>275</ele>
        <time>2020-11-03T16:03:25Z</time>
      </trkpt>
      <trkpt lat="47.65378" lon="6.18777">
        <ele>275</ele>
        <time>2020-11-03T16:03:26Z</time>
      </trkpt>
      <trkpt lat="47.65373" lon="6.18769">
        <ele>274</ele>
        <time>2020-11-03T16:03:28Z</time>
      </trkpt>
      <trkpt lat="47.65369" lon="6.18761">
        <ele>274</ele>
        <time>2020-11-03T16:03:29Z</time>
      </trkpt>
      <trkpt lat="47.65363" lon="6.18748">
        <ele>273</ele>
        <time>2020-11-03T16:03:31Z</time>
      </trkpt>
      <trkpt lat="47.65356" lon="6.18736">
        <ele>272</ele>
        <time>2020-11-03T16:03:32Z</time>
      </trkpt>
      <trkpt lat="47.65337" lon="6.18697">
        <ele>272</ele>
        <time>2020-11-03T16:03:33Z</time>
      </trkpt>
      <trkpt lat="47.65333" lon="6.18691">
        <ele>269</ele>
        <time>2020-11-03T16:03:34Z</time>
      </trkpt>
      <trkpt lat="47.6533" lon="6.18685">
        <ele>269</ele>
        <time>2020-11-03T16:03:35Z</time>
      </trkpt>
      <trkpt lat="47.65326" lon="6.18679">
        <ele>269</ele>
        <time>2020-11-03T16:03:36Z</time>
      </trkpt>
      <trkpt lat="47.65323" lon="6.18674">
        <ele>269</ele>
        <time>2020-11-03T16:03:37Z</time>
      </trkpt>
      <trkpt lat="47.6532" lon="6.18669">
        <ele>269</ele>
        <time>2020-11-03T16:03:38Z</time>
      </trkpt>
      <trkpt lat="47.65317" lon="6.18665">
        <ele>268</ele>
        <time>2020-11-03T16:03:39Z</time>
      </trkpt>
      <trkpt lat="47.65313" lon="6.1866">
        <ele>268</ele>
        <time>2020-11-03T16:03:40Z</time>
      </trkpt>
      <trkpt lat="47.65309" lon="6.18656">
        <ele>268</ele>
        <time>2020-11-03T16:03:41Z</time>
      </trkpt>
      <trkpt lat="47.65305" lon="6.1865">
        <ele>268</ele>
        <time>2020-11-03T16:03:42Z</time>
      </trkpt>
      <trkpt lat="47.65301" lon="6.18645">
        <ele>267</ele>
        <time>2020-11-03T16:03:43Z</time>
      </trkpt>
      <trkpt lat="47.65296" lon="6.18639">
        <ele>267</ele>
        <time>2020-11-03T16:03:44Z</time>
      </trkpt>
      <trkpt lat="47.65292" lon="6.18634">
        <ele>267</ele>
        <time>2020-11-03T16:03:45Z</time>
      </trkpt>
      <trkpt lat="47.65287" lon="6.18628">
        <ele>267</ele>
        <time>2020-11-03T16:03:46Z</time>
      </trkpt>
      <trkpt lat="47.65283" lon="6.18622">
        <ele>267</ele>
        <time>2020-11-03T16:03:47Z</time>
      </trkpt>
      <trkpt lat="47.65278" lon="6.18615">
        <ele>267</ele>
        <time>2020-11-03T16:03:48Z</time>
      </trkpt>
      <trkpt lat="47.65273" lon="6.18608">
        <ele>266</ele>
        <time>2020-11-03T16:03:49Z</time>
      </trkpt>
      <trkpt lat="47.65269" lon="6.18602">
        <ele>266</ele>
        <time>2020-11-03T16:03:50Z</time>
      </trkpt>
      <trkpt lat="47.65265" lon="6.18595">
        <ele>266</ele>
        <time>2020-11-03T16:03:51Z</time>
      </trkpt>
      <trkpt lat="47.65261" lon="6.18588">
        <ele>266</ele>
        <time>2020-11-03T16:03:52Z</time>
      </trkpt>
      <trkpt lat="47.65257" lon="6.18582">
        <ele>265</ele>
        <time>2020-11-03T16:03:53Z</time>
      </trkpt>
      <trkpt lat="47.65253" lon="6.18575">
        <ele>265</ele>
        <time>2020-11-03T16:03:54Z</time>
      </trkpt>
      <trkpt lat="47.65249" lon="6.18568">
        <ele>264</ele>
        <time>2020-11-03T16:03:55Z</time>
      </trkpt>
      <trkpt lat="47.65245" lon="6.1856">
        <ele>264</ele>
        <time>2020-11-03T16:03:56Z</time>
      </trkpt>
      <trkpt lat="47.65241" lon="6.18553">
        <ele>263</ele>
        <time>2020-11-03T16:03:57Z</time>
      </trkpt>
      <trkpt lat="47.65237" lon="6.18546">
        <ele>263</ele>
        <time>2020-11-03T16:03:58Z</time>
      </trkpt>
      <trkpt lat="47.65234" lon="6.18538">
        <ele>263</ele>
        <time>2020-11-03T16:03:59Z</time>
      </trkpt>
      <trkpt lat="47.6523" lon="6.1853">
        <ele>263</ele>
        <time>2020-11-03T16:04:00Z</time>
      </trkpt>
      <trkpt lat="47.65227" lon="6.18522">
        <ele>263</ele>
        <time>2020-11-03T16:04:01Z</time>
      </trkpt>
      <trkpt lat="47.65223" lon="6.18514">
        <ele>263</ele>
        <time>2020-11-03T16:04:02Z</time>
      </trkpt>
      <trkpt lat="47.65219" lon="6.18507">
        <ele>262</ele>
        <time>2020-11-03T16:04:03Z</time>
      </trkpt>
      <trkpt lat="47.65216" lon="6.18499">
        <ele>261</ele>
        <time>2020-11-03T16:04:04Z</time>
      </trkpt>
      <trkpt lat="47.65213" lon="6.18492">
        <ele>261</ele>
        <time>2020-11-03T16:04:04Z</time>
      </trkpt>
      <trkpt lat="47.65209" lon="6.18485">
        <ele>261</ele>
        <time>2020-11-03T16:04:05Z</time>
      </trkpt>
      <trkpt lat="47.65205" lon="6.18478">
        <ele>261</ele>
        <time>2020-11-03T16:04:06Z</time>
      </trkpt>
      <trkpt lat="47.65201" lon="6.18471">
        <ele>261</ele>
        <time>2020-11-03T16:04:07Z</time>
      </trkpt>
      <trkpt lat="47.65198" lon="6.18465">
        <ele>261</ele>
        <time>2020-11-03T16:04:08Z</time>
      </trkpt>
      <trkpt lat="47.65194" lon="6.18459">
        <ele>261</ele>
        <time>2020-11-03T16:04:09Z</time>
      </trkpt>
      <trkpt lat="47.6519" lon="6.18452">
        <ele>261</ele>
        <time>2020-11-03T16:04:10Z</time>
      </trkpt>
      <trkpt lat="47.65186" lon="6.18446">
        <ele>260</ele>
        <time>2020-11-03T16:04:11Z</time>
      </trkpt>
      <trkpt lat="47.65182" lon="6.18441">
        <ele>260</ele>
        <time>2020-11-03T16:04:12Z</time>
      </trkpt>
      <trkpt lat="47.65178" lon="6.18435">
        <ele>260</ele>
        <time>2020-11-03T16:04:13Z</time>
      </trkpt>
      <trkpt lat="47.65173" lon="6.1843">
        <ele>260</ele>
        <time>2020-11-03T16:04:14Z</time>
      </trkpt>
      <trkpt lat="47.65169" lon="6.18425">
        <ele>260</ele>
        <time>2020-11-03T16:04:15Z</time>
      </trkpt>
      <trkpt lat="47.65164" lon="6.18421">
        <ele>259</ele>
        <time>2020-11-03T16:04:16Z</time>
      </trkpt>
      <trkpt lat="47.6516" lon="6.18416">
        <ele>259</ele>
        <time>2020-11-03T16:04:17Z</time>
      </trkpt>
      <trkpt lat="47.65155" lon="6.18412">
        <ele>258</ele>
        <time>2020-11-03T16:04:18Z</time>
      </trkpt>
      <trkpt lat="47.6515" lon="6.18409">
        <ele>258</ele>
        <time>2020-11-03T16:04:19Z</time>
      </trkpt>
      <trkpt lat="47.65145" lon="6.18406">
        <ele>258</ele>
        <time>2020-11-03T16:04:20Z</time>
      </trkpt>
      <trkpt lat="47.6514" lon="6.18403">
        <ele>258</ele>
        <time>2020-11-03T16:04:21Z</time>
      </trkpt>
      <trkpt lat="47.65136" lon="6.184">
        <ele>258</ele>
        <time>2020-11-03T16:04:22Z</time>
      </trkpt>
      <trkpt lat="47.65131" lon="6.18397">
        <ele>258</ele>
        <time>2020-11-03T16:04:23Z</time>
      </trkpt>
      <trkpt lat="47.65126" lon="6.18394">
        <ele>258</ele>
        <time>2020-11-03T16:04:24Z</time>
      </trkpt>
      <trkpt lat="47.65122" lon="6.1839">
        <ele>258</ele>
        <time>2020-11-03T16:04:25Z</time>
      </trkpt>
      <trkpt lat="47.65117" lon="6.18384">
        <ele>257</ele>
        <time>2020-11-03T16:04:26Z</time>
      </trkpt>
      <trkpt lat="47.65113" lon="6.18379">
        <ele>257</ele>
        <time>2020-11-03T16:04:27Z</time>
      </trkpt>
      <trkpt lat="47.65108" lon="6.18373">
        <ele>257</ele>
        <time>2020-11-03T16:04:28Z</time>
      </trkpt>
      <trkpt lat="47.65103" lon="6.18367">
        <ele>257</ele>
        <time>2020-11-03T16:04:29Z</time>
      </trkpt>
      <trkpt lat="47.65098" lon="6.18362">
        <ele>257</ele>
        <time>2020-11-03T16:04:30Z</time>
      </trkpt>
      <trkpt lat="47.65092" lon="6.18357">
        <ele>257</ele>
        <time>2020-11-03T16:04:31Z</time>
      </trkpt>
      <trkpt lat="47.65086" lon="6.18352">
        <ele>257</ele>
        <time>2020-11-03T16:04:32Z</time>
      </trkpt>
      <trkpt lat="47.65081" lon="6.18347">
        <ele>256</ele>
        <time>2020-11-03T16:04:33Z</time>
      </trkpt>
      <trkpt lat="47.65075" lon="6.18342">
        <ele>256</ele>
        <time>2020-11-03T16:04:34Z</time>
      </trkpt>
      <trkpt lat="47.6507" lon="6.18338">
        <ele>256</ele>
        <time>2020-11-03T16:04:35Z</time>
      </trkpt>
      <trkpt lat="47.65064" lon="6.18333">
        <ele>255</ele>
        <time>2020-11-03T16:04:36Z</time>
      </trkpt>
      <trkpt lat="47.65059" lon="6.18329">
        <ele>254</ele>
        <time>2020-11-03T16:04:37Z</time>
      </trkpt>
      <trkpt lat="47.65054" lon="6.18325">
        <ele>254</ele>
        <time>2020-11-03T16:04:38Z</time>
      </trkpt>
      <trkpt lat="47.65049" lon="6.18323">
        <ele>254</ele>
        <time>2020-11-03T16:04:39Z</time>
      </trkpt>
      <trkpt lat="47.65043" lon="6.1832">
        <ele>254</ele>
        <time>2020-11-03T16:04:40Z</time>
      </trkpt>
      <trkpt lat="47.65038" lon="6.18318">
        <ele>254</ele>
        <time>2020-11-03T16:04:41Z</time>
      </trkpt>
      <trkpt lat="47.65033" lon="6.18317">
        <ele>253</ele>
        <time>2020-11-03T16:04:42Z</time>
      </trkpt>
      <trkpt lat="47.65028" lon="6.18315">
        <ele>253</ele>
        <time>2020-11-03T16:04:43Z</time>
      </trkpt>
      <trkpt lat="47.65023" lon="6.18314">
        <ele>253</ele>
        <time>2020-11-03T16:04:44Z</time>
      </trkpt>
      <trkpt lat="47.65018" lon="6.18313">
        <ele>253</ele>
        <time>2020-11-03T16:04:45Z</time>
      </trkpt>
      <trkpt lat="47.65013" lon="6.18312">
        <ele>253</ele>
        <time>2020-11-03T16:04:46Z</time>
      </trkpt>
      <trkpt lat="47.65008" lon="6.18311">
        <ele>253</ele>
        <time>2020-11-03T16:04:47Z</time>
      </trkpt>
      <trkpt lat="47.65003" lon="6.1831">
        <ele>253</ele>
        <time>2020-11-03T16:04:48Z</time>
      </trkpt>
      <trkpt lat="47.64999" lon="6.18309">
        <ele>252</ele>
        <time>2020-11-03T16:04:49Z</time>
      </trkpt>
      <trkpt lat="47.64994" lon="6.18308">
        <ele>252</ele>
        <time>2020-11-03T16:04:50Z</time>
      </trkpt>
      <trkpt lat="47.64989" lon="6.18307">
        <ele>252</ele>
        <time>2020-11-03T16:04:51Z</time>
      </trkpt>
      <trkpt lat="47.64984" lon="6.18306">
        <ele>252</ele>
        <time>2020-11-03T16:04:52Z</time>
      </trkpt>
      <trkpt lat="47.64979" lon="6.18305">
        <ele>252</ele>
        <time>2020-11-03T16:04:53Z</time>
      </trkpt>
      <trkpt lat="47.64974" lon="6.18305">
        <ele>252</ele>
        <time>2020-11-03T16:04:54Z</time>
      </trkpt>
      <trkpt lat="47.64969" lon="6.18303">
        <ele>251</ele>
        <time>2020-11-03T16:04:55Z</time>
      </trkpt>
      <trkpt lat="47.64965" lon="6.18303">
        <ele>251</ele>
        <time>2020-11-03T16:04:56Z</time>
      </trkpt>
      <trkpt lat="47.6496" lon="6.18302">
        <ele>251</ele>
        <time>2020-11-03T16:04:57Z</time>
      </trkpt>
      <trkpt lat="47.64955" lon="6.18302">
        <ele>251</ele>
        <time>2020-11-03T16:04:58Z</time>
      </trkpt>
      <trkpt lat="47.64951" lon="6.18301">
        <ele>251</ele>
        <time>2020-11-03T16:04:59Z</time>
      </trkpt>
      <trkpt lat="47.64946" lon="6.183">
        <ele>251</ele>
        <time>2020-11-03T16:05:00Z</time>
      </trkpt>
      <trkpt lat="47.64941" lon="6.18299">
        <ele>251</ele>
        <time>2020-11-03T16:05:01Z</time>
      </trkpt>
      <trkpt lat="47.64934" lon="6.18298">
        <ele>251</ele>
        <time>2020-11-03T16:05:03Z</time>
      </trkpt>
      <trkpt lat="47.64927" lon="6.18296">
        <ele>251</ele>
        <time>2020-11-03T16:05:05Z</time>
      </trkpt>
      <trkpt lat="47.64919" lon="6.18294">
        <ele>251</ele>
        <time>2020-11-03T16:05:07Z</time>
      </trkpt>
      <trkpt lat="47.64906" lon="6.18288">
        <ele>251</ele>
        <time>2020-11-03T16:05:14Z</time>
      </trkpt>
      <trkpt lat="47.64893" lon="6.1828">
        <ele>251</ele>
        <time>2020-11-03T16:05:14Z</time>
      </trkpt>
      <trkpt lat="47.64888" lon="6.18277">
        <ele>251</ele>
        <time>2020-11-03T16:05:15Z</time>
      </trkpt>
      <trkpt lat="47.64882" lon="6.18273">
        <ele>251</ele>
        <time>2020-11-03T16:05:16Z</time>
      </trkpt>
      <trkpt lat="47.64876" lon="6.18269">
        <ele>251</ele>
        <time>2020-11-03T16:05:17Z</time>
      </trkpt>
      <trkpt lat="47.6487" lon="6.18265">
        <ele>251</ele>
        <time>2020-11-03T16:05:18Z</time>
      </trkpt>
      <trkpt lat="47.64864" lon="6.18261">
        <ele>251</ele>
        <time>2020-11-03T16:05:19Z</time>
      </trkpt>
      <trkpt lat="47.64858" lon="6.18256">
        <ele>251</ele>
        <time>2020-11-03T16:05:20Z</time>
      </trkpt>
      <trkpt lat="47.64852" lon="6.18252">
        <ele>251</ele>
        <time>2020-11-03T16:05:21Z</time>
      </trkpt>
      <trkpt lat="47.64846" lon="6.18248">
        <ele>247</ele>
        <time>2020-11-03T16:05:22Z</time>
      </trkpt>
      <trkpt lat="47.64841" lon="6.18245">
        <ele>248</ele>
        <time>2020-11-03T16:05:23Z</time>
      </trkpt>
      <trkpt lat="47.64836" lon="6.18241">
        <ele>248</ele>
        <time>2020-11-03T16:05:24Z</time>
      </trkpt>
      <trkpt lat="47.64831" lon="6.18238">
        <ele>249</ele>
        <time>2020-11-03T16:05:25Z</time>
      </trkpt>
      <trkpt lat="47.64826" lon="6.18235">
        <ele>249</ele>
        <time>2020-11-03T16:05:26Z</time>
      </trkpt>
      <trkpt lat="47.64821" lon="6.18232">
        <ele>248</ele>
        <time>2020-11-03T16:05:27Z</time>
      </trkpt>
      <trkpt lat="47.64815" lon="6.18228">
        <ele>248</ele>
        <time>2020-11-03T16:05:28Z</time>
      </trkpt>
      <trkpt lat="47.6481" lon="6.18226">
        <ele>248</ele>
        <time>2020-11-03T16:05:29Z</time>
      </trkpt>
      <trkpt lat="47.64805" lon="6.18223">
        <ele>248</ele>
        <time>2020-11-03T16:05:30Z</time>
      </trkpt>
      <trkpt lat="47.648" lon="6.1822">
        <ele>248</ele>
        <time>2020-11-03T16:05:31Z</time>
      </trkpt>
      <trkpt lat="47.64796" lon="6.18217">
        <ele>248</ele>
        <time>2020-11-03T16:05:32Z</time>
      </trkpt>
      <trkpt lat="47.64792" lon="6.18214">
        <ele>248</ele>
        <time>2020-11-03T16:05:33Z</time>
      </trkpt>
      <trkpt lat="47.64785" lon="6.18209">
        <ele>248</ele>
        <time>2020-11-03T16:05:35Z</time>
      </trkpt>
      <trkpt lat="47.64779" lon="6.18205">
        <ele>248</ele>
        <time>2020-11-03T16:05:37Z</time>
      </trkpt>
      <trkpt lat="47.64773" lon="6.18201">
        <ele>248</ele>
        <time>2020-11-03T16:05:39Z</time>
      </trkpt>
      <trkpt lat="47.64778" lon="6.18198">
        <ele>248</ele>
        <time>2020-11-03T16:05:46Z</time>
      </trkpt>
      <trkpt lat="47.6477" lon="6.18192">
        <ele>248</ele>
        <time>2020-11-03T16:05:49Z</time>
      </trkpt>
      <trkpt lat="47.64765" lon="6.18188">
        <ele>248</ele>
        <time>2020-11-03T16:05:50Z</time>
      </trkpt>
      <trkpt lat="47.64752" lon="6.18178">
        <ele>249</ele>
        <time>2020-11-03T16:05:51Z</time>
      </trkpt>
      <trkpt lat="47.64747" lon="6.18172">
        <ele>250</ele>
        <time>2020-11-03T16:05:54Z</time>
      </trkpt>
      <trkpt lat="47.64744" lon="6.18167">
        <ele>248</ele>
        <time>2020-11-03T16:06:01Z</time>
      </trkpt>
      <trkpt lat="47.6474" lon="6.18162">
        <ele>248</ele>
        <time>2020-11-03T16:06:04Z</time>
      </trkpt>
      <trkpt lat="47.64732" lon="6.18152">
        <ele>247</ele>
        <time>2020-11-03T16:06:04Z</time>
      </trkpt>
      <trkpt lat="47.64726" lon="6.18144">
        <ele>246</ele>
        <time>2020-11-03T16:06:11Z</time>
      </trkpt>
      <trkpt lat="47.64722" lon="6.1814">
        <ele>246</ele>
        <time>2020-11-03T16:06:13Z</time>
      </trkpt>
      <trkpt lat="47.64718" lon="6.18133">
        <ele>246</ele>
        <time>2020-11-03T16:06:16Z</time>
      </trkpt>
      <trkpt lat="47.64714" lon="6.18127">
        <ele>246</ele>
        <time>2020-11-03T16:06:17Z</time>
      </trkpt>
      <trkpt lat="47.64705" lon="6.18114">
        <ele>245</ele>
        <time>2020-11-03T16:06:22Z</time>
      </trkpt>
      <trkpt lat="47.64702" lon="6.18108">
        <ele>245</ele>
        <time>2020-11-03T16:06:24Z</time>
      </trkpt>
      <trkpt lat="47.64699" lon="6.18102">
        <ele>245</ele>
        <time>2020-11-03T16:06:25Z</time>
      </trkpt>
      <trkpt lat="47.64694" lon="6.18094">
        <ele>245</ele>
        <time>2020-11-03T16:06:28Z</time>
      </trkpt>
      <trkpt lat="47.6469" lon="6.18088">
        <ele>246</ele>
        <time>2020-11-03T16:06:30Z</time>
      </trkpt>
      <trkpt lat="47.64686" lon="6.18082">
        <ele>241</ele>
        <time>2020-11-03T16:06:31Z</time>
      </trkpt>
      <trkpt lat="47.64676" lon="6.18069">
        <ele>241</ele>
        <time>2020-11-03T16:06:35Z</time>
      </trkpt>
      <trkpt lat="47.64665" lon="6.18058">
        <ele>241</ele>
        <time>2020-11-03T16:06:38Z</time>
      </trkpt>
      <trkpt lat="47.6466" lon="6.18052">
        <ele>241</ele>
        <time>2020-11-03T16:06:40Z</time>
      </trkpt>
      <trkpt lat="47.64644" lon="6.18033">
        <ele>239</ele>
        <time>2020-11-03T16:06:45Z</time>
      </trkpt>
      <trkpt lat="47.64639" lon="6.18027">
        <ele>238</ele>
        <time>2020-11-03T16:06:46Z</time>
      </trkpt>
      <trkpt lat="47.64627" lon="6.18013">
        <ele>237</ele>
        <time>2020-11-03T16:06:51Z</time>
      </trkpt>
      <trkpt lat="47.6462" lon="6.18011">
        <ele>237</ele>
        <time>2020-11-03T16:06:53Z</time>
      </trkpt>
      <trkpt lat="47.64615" lon="6.18012">
        <ele>237</ele>
        <time>2020-11-03T16:06:55Z</time>
      </trkpt>
      <trkpt lat="47.64604" lon="6.18018">
        <ele>237</ele>
        <time>2020-11-03T16:06:57Z</time>
      </trkpt>
      <trkpt lat="47.64598" lon="6.18023">
        <ele>237</ele>
        <time>2020-11-03T16:06:58Z</time>
      </trkpt>
      <trkpt lat="47.64593" lon="6.1803">
        <ele>237</ele>
        <time>2020-11-03T16:06:59Z</time>
      </trkpt>
      <trkpt lat="47.6457" lon="6.18066">
        <ele>234</ele>
        <time>2020-11-03T16:06:59Z</time>
      </trkpt>
      <trkpt lat="47.64567" lon="6.18072">
        <ele>234</ele>
        <time>2020-11-03T16:07:00Z</time>
      </trkpt>
      <trkpt lat="47.64565" lon="6.18077">
        <ele>234</ele>
        <time>2020-11-03T16:07:01Z</time>
      </trkpt>
      <trkpt lat="47.64562" lon="6.18083">
        <ele>234</ele>
        <time>2020-11-03T16:07:02Z</time>
      </trkpt>
      <trkpt lat="47.6456" lon="6.1809">
        <ele>235</ele>
        <time>2020-11-03T16:07:09Z</time>
      </trkpt>
      <trkpt lat="47.64553" lon="6.18095">
        <ele>234</ele>
        <time>2020-11-03T16:07:11Z</time>
      </trkpt>
      <trkpt lat="47.64547" lon="6.18101">
        <ele>233</ele>
        <time>2020-11-03T16:07:12Z</time>
      </trkpt>
      <trkpt lat="47.6454" lon="6.18119">
        <ele>232</ele>
        <time>2020-11-03T16:07:16Z</time>
      </trkpt>
      <trkpt lat="47.64533" lon="6.18133">
        <ele>232</ele>
        <time>2020-11-03T16:07:18Z</time>
      </trkpt>
      <trkpt lat="47.64529" lon="6.18144">
        <ele>231</ele>
        <time>2020-11-03T16:07:20Z</time>
      </trkpt>
      <trkpt lat="47.64524" lon="6.18158">
        <ele>230</ele>
        <time>2020-11-03T16:07:22Z</time>
      </trkpt>
      <trkpt lat="47.6452" lon="6.18163">
        <ele>230</ele>
        <time>2020-11-03T16:07:23Z</time>
      </trkpt>
      <trkpt lat="47.64515" lon="6.18167">
        <ele>230</ele>
        <time>2020-11-03T16:07:24Z</time>
      </trkpt>
      <trkpt lat="47.6451" lon="6.18169">
        <ele>229</ele>
        <time>2020-11-03T16:07:26Z</time>
      </trkpt>
      <trkpt lat="47.64505" lon="6.18172">
        <ele>228</ele>
        <time>2020-11-03T16:07:27Z</time>
      </trkpt>
      <trkpt lat="47.645" lon="6.18179">
        <ele>225</ele>
        <time>2020-11-03T16:07:29Z</time>
      </trkpt>
      <trkpt lat="47.64497" lon="6.18189">
        <ele>226</ele>
        <time>2020-11-03T16:07:30Z</time>
      </trkpt>
      <trkpt lat="47.64489" lon="6.18214">
        <ele>226</ele>
        <time>2020-11-03T16:07:35Z</time>
      </trkpt>
      <trkpt lat="47.64483" lon="6.1823">
        <ele>227</ele>
        <time>2020-11-03T16:07:40Z</time>
      </trkpt>
      <trkpt lat="47.64477" lon="6.18242">
        <ele>227</ele>
        <time>2020-11-03T16:07:43Z</time>
      </trkpt>
      <trkpt lat="47.64471" lon="6.18253">
        <ele>230</ele>
        <time>2020-11-03T16:07:46Z</time>
      </trkpt>
      <trkpt lat="47.64455" lon="6.18275">
        <ele>230</ele>
        <time>2020-11-03T16:07:47Z</time>
      </trkpt>
      <trkpt lat="47.64451" lon="6.1828">
        <ele>230</ele>
        <time>2020-11-03T16:07:53Z</time>
      </trkpt>
      <trkpt lat="47.64446" lon="6.18286">
        <ele>230</ele>
        <time>2020-11-03T16:07:55Z</time>
      </trkpt>
      <trkpt lat="47.64441" lon="6.18293">
        <ele>230</ele>
        <time>2020-11-03T16:07:58Z</time>
      </trkpt>
      <trkpt lat="47.64436" lon="6.18298">
        <ele>230</ele>
        <time>2020-11-03T16:08:00Z</time>
      </trkpt>
      <trkpt lat="47.64429" lon="6.18296">
        <ele>230</ele>
        <time>2020-11-03T16:08:01Z</time>
      </trkpt>
      <trkpt lat="47.64425" lon="6.18292">
        <ele>229</ele>
        <time>2020-11-03T16:08:03Z</time>
      </trkpt>
      <trkpt lat="47.64422" lon="6.18287">
        <ele>229</ele>
        <time>2020-11-03T16:08:04Z</time>
      </trkpt>
      <trkpt lat="47.64418" lon="6.18282">
        <ele>228</ele>
        <time>2020-11-03T16:08:05Z</time>
      </trkpt>
      <trkpt lat="47.64412" lon="6.18276">
        <ele>223</ele>
        <time>2020-11-03T16:08:06Z</time>
      </trkpt>
      <trkpt lat="47.64408" lon="6.18271">
        <ele>223</ele>
        <time>2020-11-03T16:08:07Z</time>
      </trkpt>
      <trkpt lat="47.64398" lon="6.18259">
        <ele>223</ele>
        <time>2020-11-03T16:08:10Z</time>
      </trkpt>
      <trkpt lat="47.64394" lon="6.18255">
        <ele>223</ele>
        <time>2020-11-03T16:08:12Z</time>
      </trkpt>
      <trkpt lat="47.64388" lon="6.18248">
        <ele>222</ele>
        <time>2020-11-03T16:08:13Z</time>
      </trkpt>
      <trkpt lat="47.64384" lon="6.18243">
        <ele>222</ele>
        <time>2020-11-03T16:08:14Z</time>
      </trkpt>
      <trkpt lat="47.6438" lon="6.18238">
        <ele>222</ele>
        <time>2020-11-03T16:08:16Z</time>
      </trkpt>
      <trkpt lat="47.64365" lon="6.18215">
        <ele>222</ele>
        <time>2020-11-03T16:08:22Z</time>
      </trkpt>
      <trkpt lat="47.64357" lon="6.18203">
        <ele>222</ele>
        <time>2020-11-03T16:08:25Z</time>
      </trkpt>
      <trkpt lat="47.64348" lon="6.18193">
        <ele>222</ele>
        <time>2020-11-03T16:08:25Z</time>
      </trkpt>
      <trkpt lat="47.64343" lon="6.18188">
        <ele>222</ele>
        <time>2020-11-03T16:08:28Z</time>
      </trkpt>
      <trkpt lat="47.64339" lon="6.18186">
        <ele>223</ele>
        <time>2020-11-03T16:08:35Z</time>
      </trkpt>
      <trkpt lat="47.64334" lon="6.18184">
        <ele>223</ele>
        <time>2020-11-03T16:08:36Z</time>
      </trkpt>
      <trkpt lat="47.64319" lon="6.18181">
        <ele>222</ele>
        <time>2020-11-03T16:08:40Z</time>
      </trkpt>
      <trkpt lat="47.64314" lon="6.18181">
        <ele>222</ele>
        <time>2020-11-03T16:08:41Z</time>
      </trkpt>
      <trkpt lat="47.6431" lon="6.18183">
        <ele>222</ele>
        <time>2020-11-03T16:08:42Z</time>
      </trkpt>
      <trkpt lat="47.64305" lon="6.18184">
        <ele>222</ele>
        <time>2020-11-03T16:08:44Z</time>
      </trkpt>
      <trkpt lat="47.64294" lon="6.18188">
        <ele>222</ele>
        <time>2020-11-03T16:08:47Z</time>
      </trkpt>
      <trkpt lat="47.64288" lon="6.18192">
        <ele>222</ele>
        <time>2020-11-03T16:08:49Z</time>
      </trkpt>
      <trkpt lat="47.64282" lon="6.18195">
        <ele>222</ele>
        <time>2020-11-03T16:08:50Z</time>
      </trkpt>
      <trkpt lat="47.64277" lon="6.18199">
        <ele>222</ele>
        <time>2020-11-03T16:08:53Z</time>
      </trkpt>
      <trkpt lat="47.64272" lon="6.18203">
        <ele>222</ele>
        <time>2020-11-03T16:08:55Z</time>
      </trkpt>
      <trkpt lat="47.64268" lon="6.18206">
        <ele>222</ele>
        <time>2020-11-03T16:08:56Z</time>
      </trkpt>
      <trkpt lat="47.64258" lon="6.18215">
        <ele>222</ele>
        <time>2020-11-03T16:08:56Z</time>
      </trkpt>
      <trkpt lat="47.64253" lon="6.1822">
        <ele>222</ele>
        <time>2020-11-03T16:09:04Z</time>
      </trkpt>
      <trkpt lat="47.6424" lon="6.18235">
        <ele>222</ele>
        <time>2020-11-03T16:09:06Z</time>
      </trkpt>
      <trkpt lat="47.64234" lon="6.18241">
        <ele>222</ele>
        <time>2020-11-03T16:09:09Z</time>
      </trkpt>
      <trkpt lat="47.6423" lon="6.18245">
        <ele>222</ele>
        <time>2020-11-03T16:09:11Z</time>
      </trkpt>
      <trkpt lat="47.64226" lon="6.1825">
        <ele>222</ele>
        <time>2020-11-03T16:09:13Z</time>
      </trkpt>
      <trkpt lat="47.64222" lon="6.18254">
        <ele>223</ele>
        <time>2020-11-03T16:09:15Z</time>
      </trkpt>
      <trkpt lat="47.64218" lon="6.18259">
        <ele>224</ele>
        <time>2020-11-03T16:09:17Z</time>
      </trkpt>
      <trkpt lat="47.64214" lon="6.18263">
        <ele>224</ele>
        <time>2020-11-03T16:09:19Z</time>
      </trkpt>
      <trkpt lat="47.64208" lon="6.18266">
        <ele>224</ele>
        <time>2020-11-03T16:09:27Z</time>
      </trkpt>
      <trkpt lat="47.64203" lon="6.18266">
        <ele>224</ele>
        <time>2020-11-03T16:09:28Z</time>
      </trkpt>
      <trkpt lat="47.64198" lon="6.18265">
        <ele>224</ele>
        <time>2020-11-03T16:09:30Z</time>
      </trkpt>
      <trkpt lat="47.64194" lon="6.18263">
        <ele>224</ele>
        <time>2020-11-03T16:09:32Z</time>
      </trkpt>
      <trkpt lat="47.64186" lon="6.18261">
        <ele>224</ele>
        <time>2020-11-03T16:09:34Z</time>
      </trkpt>
      <trkpt lat="47.64177" lon="6.18259">
        <ele>224</ele>
        <time>2020-11-03T16:09:35Z</time>
      </trkpt>
      <trkpt lat="47.6414" lon="6.18241">
        <ele>222</ele>
        <time>2020-11-03T16:09:35Z</time>
      </trkpt>
      <trkpt lat="47.64134" lon="6.18237">
        <ele>222</ele>
        <time>2020-11-03T16:09:36Z</time>
      </trkpt>
      <trkpt lat="47.64129" lon="6.18231">
        <ele>222</ele>
        <time>2020-11-03T16:09:37Z</time>
      </trkpt>
      <trkpt lat="47.64123" lon="6.18226">
        <ele>222</ele>
        <time>2020-11-03T16:09:38Z</time>
      </trkpt>
      <trkpt lat="47.64118" lon="6.18221">
        <ele>222</ele>
        <time>2020-11-03T16:09:39Z</time>
      </trkpt>
      <trkpt lat="47.64114" lon="6.18217">
        <ele>222</ele>
        <time>2020-11-03T16:09:40Z</time>
      </trkpt>
      <trkpt lat="47.64109" lon="6.18213">
        <ele>222</ele>
        <time>2020-11-03T16:09:41Z</time>
      </trkpt>
      <trkpt lat="47.64105" lon="6.18209">
        <ele>222</ele>
        <time>2020-11-03T16:09:42Z</time>
      </trkpt>
      <trkpt lat="47.64101" lon="6.18204">
        <ele>222</ele>
        <time>2020-11-03T16:09:43Z</time>
      </trkpt>
      <trkpt lat="47.64097" lon="6.182">
        <ele>222</ele>
        <time>2020-11-03T16:09:44Z</time>
      </trkpt>
      <trkpt lat="47.64093" lon="6.18196">
        <ele>222</ele>
        <time>2020-11-03T16:09:45Z</time>
      </trkpt>
      <trkpt lat="47.64089" lon="6.18191">
        <ele>222</ele>
        <time>2020-11-03T16:09:46Z</time>
      </trkpt>
      <trkpt lat="47.64085" lon="6.18188">
        <ele>222</ele>
        <time>2020-11-03T16:09:47Z</time>
      </trkpt>
      <trkpt lat="47.64081" lon="6.18184">
        <ele>222</ele>
        <time>2020-11-03T16:09:48Z</time>
      </trkpt>
      <trkpt lat="47.64074" lon="6.18185">
        <ele>222</ele>
        <time>2020-11-03T16:09:50Z</time>
      </trkpt>
      <trkpt lat="47.6407" lon="6.18195">
        <ele>222</ele>
        <time>2020-11-03T16:09:52Z</time>
      </trkpt>
      <trkpt lat="47.64069" lon="6.18204">
        <ele>223</ele>
        <time>2020-11-03T16:09:54Z</time>
      </trkpt>
      <trkpt lat="47.64068" lon="6.18216">
        <ele>223</ele>
        <time>2020-11-03T16:10:01Z</time>
      </trkpt>
      <trkpt lat="47.64065" lon="6.18223">
        <ele>223</ele>
        <time>2020-11-03T16:10:04Z</time>
      </trkpt>
      <trkpt lat="47.64054" lon="6.18227">
        <ele>223</ele>
        <time>2020-11-03T16:10:09Z</time>
      </trkpt>
      <trkpt lat="47.64043" lon="6.18222">
        <ele>223</ele>
        <time>2020-11-03T16:10:14Z</time>
      </trkpt>
      <trkpt lat="47.64038" lon="6.18219">
        <ele>223</ele>
        <time>2020-11-03T16:10:15Z</time>
      </trkpt>
      <trkpt lat="47.64031" lon="6.18214">
        <ele>223</ele>
        <time>2020-11-03T16:10:18Z</time>
      </trkpt>
      <trkpt lat="47.64021" lon="6.18206">
        <ele>223</ele>
        <time>2020-11-03T16:10:21Z</time>
      </trkpt>
      <trkpt lat="47.64013" lon="6.182">
        <ele>223</ele>
        <time>2020-11-03T16:10:24Z</time>
      </trkpt>
      <trkpt lat="47.64008" lon="6.18196">
        <ele>223</ele>
        <time>2020-11-03T16:10:25Z</time>
      </trkpt>
      <trkpt lat="47.63997" lon="6.18189">
        <ele>225</ele>
        <time>2020-11-03T16:10:29Z</time>
      </trkpt>
      <trkpt lat="47.63991" lon="6.18184">
        <ele>225</ele>
        <time>2020-11-03T16:10:31Z</time>
      </trkpt>
      <trkpt lat="47.63987" lon="6.18181">
        <ele>225</ele>
        <time>2020-11-03T16:10:32Z</time>
      </trkpt>
      <trkpt lat="47.6398" lon="6.18176">
        <ele>225</ele>
        <time>2020-11-03T16:10:35Z</time>
      </trkpt>
      <trkpt lat="47.63975" lon="6.18173">
        <ele>226</ele>
        <time>2020-11-03T16:10:37Z</time>
      </trkpt>
      <trkpt lat="47.63968" lon="6.18168">
        <ele>226</ele>
        <time>2020-11-03T16:10:39Z</time>
      </trkpt>
      <trkpt lat="47.63961" lon="6.18162">
        <ele>223</ele>
        <time>2020-11-03T16:10:41Z</time>
      </trkpt>
      <trkpt lat="47.63952" lon="6.1815">
        <ele>224</ele>
        <time>2020-11-03T16:10:44Z</time>
      </trkpt>
      <trkpt lat="47.63945" lon="6.18138">
        <ele>224</ele>
        <time>2020-11-03T16:10:47Z</time>
      </trkpt>
      <trkpt lat="47.6394" lon="6.1813">
        <ele>223</ele>
        <time>2020-11-03T16:10:49Z</time>
      </trkpt>
      <trkpt lat="47.6393" lon="6.18113">
        <ele>223</ele>
        <time>2020-11-03T16:10:49Z</time>
      </trkpt>
      <trkpt lat="47.63926" lon="6.18106">
        <ele>223</ele>
        <time>2020-11-03T16:10:51Z</time>
      </trkpt>
      <trkpt lat="47.63922" lon="6.18099">
        <ele>223</ele>
        <time>2020-11-03T16:10:58Z</time>
      </trkpt>
      <trkpt lat="47.63918" lon="6.18093">
        <ele>222</ele>
        <time>2020-11-03T16:11:00Z</time>
      </trkpt>
      <trkpt lat="47.63914" lon="6.18087">
        <ele>223</ele>
        <time>2020-11-03T16:11:02Z</time>
      </trkpt>
      <trkpt lat="47.63909" lon="6.18081">
        <ele>223</ele>
        <time>2020-11-03T16:11:05Z</time>
      </trkpt>
      <trkpt lat="47.63905" lon="6.18074">
        <ele>223</ele>
        <time>2020-11-03T16:11:08Z</time>
      </trkpt>
      <trkpt lat="47.63901" lon="6.18069">
        <ele>223</ele>
        <time>2020-11-03T16:11:10Z</time>
      </trkpt>
      <trkpt lat="47.63897" lon="6.18064">
        <ele>224</ele>
        <time>2020-11-03T16:11:13Z</time>
      </trkpt>
      <trkpt lat="47.63893" lon="6.18059">
        <ele>224</ele>
        <time>2020-11-03T16:11:16Z</time>
      </trkpt>
      <trkpt lat="47.63889" lon="6.18053">
        <ele>224</ele>
        <time>2020-11-03T16:11:19Z</time>
      </trkpt>
      <trkpt lat="47.6388" lon="6.1804">
        <ele>224</ele>
        <time>2020-11-03T16:11:26Z</time>
      </trkpt>
      <trkpt lat="47.63876" lon="6.18033">
        <ele>224</ele>
        <time>2020-11-03T16:11:29Z</time>
      </trkpt>
      <trkpt lat="47.63868" lon="6.18022">
        <ele>224</ele>
        <time>2020-11-03T16:11:29Z</time>
      </trkpt>
      <trkpt lat="47.63863" lon="6.18015">
        <ele>224</ele>
        <time>2020-11-03T16:11:32Z</time>
      </trkpt>
      <trkpt lat="47.6386" lon="6.1801">
        <ele>225</ele>
        <time>2020-11-03T16:11:34Z</time>
      </trkpt>
      <trkpt lat="47.63856" lon="6.18005">
        <ele>225</ele>
        <time>2020-11-03T16:11:41Z</time>
      </trkpt>
      <trkpt lat="47.63853" lon="6.18">
        <ele>225</ele>
        <time>2020-11-03T16:11:43Z</time>
      </trkpt>
      <trkpt lat="47.63849" lon="6.17992">
        <ele>223</ele>
        <time>2020-11-03T16:11:47Z</time>
      </trkpt>
      <trkpt lat="47.63841" lon="6.17981">
        <ele>223</ele>
        <time>2020-11-03T16:11:52Z</time>
      </trkpt>
      <trkpt lat="47.63838" lon="6.17976">
        <ele>223</ele>
        <time>2020-11-03T16:11:54Z</time>
      </trkpt>
      <trkpt lat="47.63834" lon="6.17971">
        <ele>223</ele>
        <time>2020-11-03T16:11:57Z</time>
      </trkpt>
      <trkpt lat="47.6383" lon="6.17965">
        <ele>227</ele>
        <time>2020-11-03T16:12:00Z</time>
      </trkpt>
      <trkpt lat="47.63826" lon="6.1796">
        <ele>227</ele>
        <time>2020-11-03T16:12:03Z</time>
      </trkpt>
      <trkpt lat="47.63823" lon="6.17954">
        <ele>227</ele>
        <time>2020-11-03T16:12:06Z</time>
      </trkpt>
      <trkpt lat="47.63819" lon="6.17949">
        <ele>227</ele>
        <time>2020-11-03T16:12:08Z</time>
      </trkpt>
      <trkpt lat="47.63816" lon="6.17943">
        <ele>226</ele>
        <time>2020-11-03T16:12:11Z</time>
      </trkpt>
      <trkpt lat="47.63812" lon="6.17937">
        <ele>226</ele>
        <time>2020-11-03T16:12:14Z</time>
      </trkpt>
      <trkpt lat="47.63808" lon="6.17932">
        <ele>226</ele>
        <time>2020-11-03T16:12:16Z</time>
      </trkpt>
      <trkpt lat="47.63804" lon="6.17926">
        <ele>226</ele>
        <time>2020-11-03T16:12:19Z</time>
      </trkpt>
      <trkpt lat="47.638" lon="6.17921">
        <ele>227</ele>
        <time>2020-11-03T16:12:21Z</time>
      </trkpt>
      <trkpt lat="47.63797" lon="6.17916">
        <ele>224</ele>
        <time>2020-11-03T16:12:24Z</time>
      </trkpt>
      <trkpt lat="47.63793" lon="6.1791">
        <ele>224</ele>
        <time>2020-11-03T16:12:27Z</time>
      </trkpt>
      <trkpt lat="47.63788" lon="6.17905">
        <ele>224</ele>
        <time>2020-11-03T16:12:29Z</time>
      </trkpt>
      <trkpt lat="47.63785" lon="6.179">
        <ele>224</ele>
        <time>2020-11-03T16:12:32Z</time>
      </trkpt>
      <trkpt lat="47.63781" lon="6.17895">
        <ele>224</ele>
        <time>2020-11-03T16:12:34Z</time>
      </trkpt>
      <trkpt lat="47.63777" lon="6.17889">
        <ele>224</ele>
        <time>2020-11-03T16:12:38Z</time>
      </trkpt>
      <trkpt lat="47.6378" lon="6.17894">
        <ele>224</ele>
        <time>2020-11-03T16:12:59Z</time>
      </trkpt>
      <trkpt lat="47.63783" lon="6.17899">
        <ele>224</ele>
        <time>2020-11-03T16:13:10Z</time>
      </trkpt>
      <trkpt lat="47.63787" lon="6.17906">
        <ele>224</ele>
        <time>2020-11-03T16:13:14Z</time>
      </trkpt>
      <trkpt lat="47.6379" lon="6.17913">
        <ele>224</ele>
        <time>2020-11-03T16:13:16Z</time>
      </trkpt>
      <trkpt lat="47.63794" lon="6.17919">
        <ele>227</ele>
        <time>2020-11-03T16:13:19Z</time>
      </trkpt>
      <trkpt lat="47.63797" lon="6.17924">
        <ele>227</ele>
        <time>2020-11-03T16:13:21Z</time>
      </trkpt>
      <trkpt lat="47.638" lon="6.17931">
        <ele>227</ele>
        <time>2020-11-03T16:13:24Z</time>
      </trkpt>
      <trkpt lat="47.63804" lon="6.17938">
        <ele>227</ele>
        <time>2020-11-03T16:13:27Z</time>
      </trkpt>
      <trkpt lat="47.63809" lon="6.17945">
        <ele>227</ele>
        <time>2020-11-03T16:13:30Z</time>
      </trkpt>
      <trkpt lat="47.63812" lon="6.17951">
        <ele>227</ele>
        <time>2020-11-03T16:13:32Z</time>
      </trkpt>
      <trkpt lat="47.63815" lon="6.17958">
        <ele>227</ele>
        <time>2020-11-03T16:13:35Z</time>
      </trkpt>
      <trkpt lat="47.63819" lon="6.17964">
        <ele>227</ele>
        <time>2020-11-03T16:13:37Z</time>
      </trkpt>
      <trkpt lat="47.63829" lon="6.1798">
        <ele>227</ele>
        <time>2020-11-03T16:13:40Z</time>
      </trkpt>
      <trkpt lat="47.63832" lon="6.17985">
        <ele>227</ele>
        <time>2020-11-03T16:13:41Z</time>
      </trkpt>
      <trkpt lat="47.63835" lon="6.1799">
        <ele>224</ele>
        <time>2020-11-03T16:13:42Z</time>
      </trkpt>
      <trkpt lat="47.63839" lon="6.17996">
        <ele>225</ele>
        <time>2020-11-03T16:13:44Z</time>
      </trkpt>
      <trkpt lat="47.63842" lon="6.18001">
        <ele>225</ele>
        <time>2020-11-03T16:13:45Z</time>
      </trkpt>
      <trkpt lat="47.63846" lon="6.18006">
        <ele>225</ele>
        <time>2020-11-03T16:13:46Z</time>
      </trkpt>
      <trkpt lat="47.63849" lon="6.18012">
        <ele>225</ele>
        <time>2020-11-03T16:13:47Z</time>
      </trkpt>
      <trkpt lat="47.63854" lon="6.18019">
        <ele>225</ele>
        <time>2020-11-03T16:13:48Z</time>
      </trkpt>
      <trkpt lat="47.63859" lon="6.18027">
        <ele>225</ele>
        <time>2020-11-03T16:13:50Z</time>
      </trkpt>
      <trkpt lat="47.63866" lon="6.18037">
        <ele>225</ele>
        <time>2020-11-03T16:13:52Z</time>
      </trkpt>
      <trkpt lat="47.63873" lon="6.18048">
        <ele>224</ele>
        <time>2020-11-03T16:13:54Z</time>
      </trkpt>
      <trkpt lat="47.63878" lon="6.18056">
        <ele>224</ele>
        <time>2020-11-03T16:13:55Z</time>
      </trkpt>
      <trkpt lat="47.63882" lon="6.18062">
        <ele>224</ele>
        <time>2020-11-03T16:13:57Z</time>
      </trkpt>
      <trkpt lat="47.63888" lon="6.18069">
        <ele>224</ele>
        <time>2020-11-03T16:13:58Z</time>
      </trkpt>
      <trkpt lat="47.63891" lon="6.18074">
        <ele>224</ele>
        <time>2020-11-03T16:13:59Z</time>
      </trkpt>
      <trkpt lat="47.63903" lon="6.1809">
        <ele>226</ele>
        <time>2020-11-03T16:14:03Z</time>
      </trkpt>
      <trkpt lat="47.63906" lon="6.18095">
        <ele>226</ele>
        <time>2020-11-03T16:14:04Z</time>
      </trkpt>
      <trkpt lat="47.6391" lon="6.18101">
        <ele>226</ele>
        <time>2020-11-03T16:14:05Z</time>
      </trkpt>
      <trkpt lat="47.63914" lon="6.18107">
        <ele>227</ele>
        <time>2020-11-03T16:14:06Z</time>
      </trkpt>
      <trkpt lat="47.63924" lon="6.18118">
        <ele>223</ele>
        <time>2020-11-03T16:14:09Z</time>
      </trkpt>
      <trkpt lat="47.63928" lon="6.18124">
        <ele>223</ele>
        <time>2020-11-03T16:14:10Z</time>
      </trkpt>
      <trkpt lat="47.63931" lon="6.1813">
        <ele>224</ele>
        <time>2020-11-03T16:14:12Z</time>
      </trkpt>
      <trkpt lat="47.63935" lon="6.18136">
        <ele>224</ele>
        <time>2020-11-03T16:14:13Z</time>
      </trkpt>
      <trkpt lat="47.63939" lon="6.18141">
        <ele>224</ele>
        <time>2020-11-03T16:14:15Z</time>
      </trkpt>
      <trkpt lat="47.63944" lon="6.1815">
        <ele>224</ele>
        <time>2020-11-03T16:14:18Z</time>
      </trkpt>
      <trkpt lat="47.63948" lon="6.18157">
        <ele>224</ele>
        <time>2020-11-03T16:14:20Z</time>
      </trkpt>
      <trkpt lat="47.63951" lon="6.18162">
        <ele>224</ele>
        <time>2020-11-03T16:14:22Z</time>
      </trkpt>
      <trkpt lat="47.63955" lon="6.18168">
        <ele>227</ele>
        <time>2020-11-03T16:14:24Z</time>
      </trkpt>
      <trkpt lat="47.6396" lon="6.18173">
        <ele>227</ele>
        <time>2020-11-03T16:14:25Z</time>
      </trkpt>
      <trkpt lat="47.63965" lon="6.18176">
        <ele>227</ele>
        <time>2020-11-03T16:14:27Z</time>
      </trkpt>
      <trkpt lat="47.63969" lon="6.1818">
        <ele>226</ele>
        <time>2020-11-03T16:14:29Z</time>
      </trkpt>
      <trkpt lat="47.63976" lon="6.18184">
        <ele>226</ele>
        <time>2020-11-03T16:14:32Z</time>
      </trkpt>
      <trkpt lat="47.63981" lon="6.18187">
        <ele>226</ele>
        <time>2020-11-03T16:14:34Z</time>
      </trkpt>
      <trkpt lat="47.63987" lon="6.1819">
        <ele>226</ele>
        <time>2020-11-03T16:14:35Z</time>
      </trkpt>
      <trkpt lat="47.63995" lon="6.18194">
        <ele>226</ele>
        <time>2020-11-03T16:14:38Z</time>
      </trkpt>
      <trkpt lat="47.64" lon="6.18197">
        <ele>223</ele>
        <time>2020-11-03T16:14:39Z</time>
      </trkpt>
      <trkpt lat="47.64005" lon="6.182">
        <ele>223</ele>
        <time>2020-11-03T16:14:40Z</time>
      </trkpt>
      <trkpt lat="47.64012" lon="6.18205">
        <ele>223</ele>
        <time>2020-11-03T16:14:42Z</time>
      </trkpt>
      <trkpt lat="47.64017" lon="6.18208">
        <ele>223</ele>
        <time>2020-11-03T16:14:43Z</time>
      </trkpt>
      <trkpt lat="47.64023" lon="6.18211">
        <ele>223</ele>
        <time>2020-11-03T16:14:45Z</time>
      </trkpt>
      <trkpt lat="47.64027" lon="6.18213">
        <ele>223</ele>
        <time>2020-11-03T16:14:46Z</time>
      </trkpt>
      <trkpt lat="47.64034" lon="6.18217">
        <ele>223</ele>
        <time>2020-11-03T16:14:48Z</time>
      </trkpt>
      <trkpt lat="47.6404" lon="6.18222">
        <ele>223</ele>
        <time>2020-11-03T16:14:50Z</time>
      </trkpt>
      <trkpt lat="47.64047" lon="6.18225">
        <ele>223</ele>
        <time>2020-11-03T16:14:52Z</time>
      </trkpt>
      <trkpt lat="47.64053" lon="6.18226">
        <ele>223</ele>
        <time>2020-11-03T16:14:53Z</time>
      </trkpt>
      <trkpt lat="47.64063" lon="6.18218">
        <ele>223</ele>
        <time>2020-11-03T16:14:57Z</time>
      </trkpt>
      <trkpt lat="47.64067" lon="6.18207">
        <ele>223</ele>
        <time>2020-11-03T16:14:59Z</time>
      </trkpt>
      <trkpt lat="47.64072" lon="6.18193">
        <ele>222</ele>
        <time>2020-11-03T16:15:01Z</time>
      </trkpt>
      <trkpt lat="47.64077" lon="6.18188">
        <ele>222</ele>
        <time>2020-11-03T16:15:03Z</time>
      </trkpt>
      <trkpt lat="47.64084" lon="6.18187">
        <ele>221</ele>
        <time>2020-11-03T16:15:04Z</time>
      </trkpt>
      <trkpt lat="47.64093" lon="6.18196">
        <ele>222</ele>
        <time>2020-11-03T16:15:07Z</time>
      </trkpt>
      <trkpt lat="47.64098" lon="6.18202">
        <ele>222</ele>
        <time>2020-11-03T16:15:09Z</time>
      </trkpt>
      <trkpt lat="47.64108" lon="6.18213">
        <ele>222</ele>
        <time>2020-11-03T16:15:13Z</time>
      </trkpt>
      <trkpt lat="47.64114" lon="6.18217">
        <ele>222</ele>
        <time>2020-11-03T16:15:15Z</time>
      </trkpt>
      <trkpt lat="47.64119" lon="6.18222">
        <ele>222</ele>
        <time>2020-11-03T16:15:18Z</time>
      </trkpt>
      <trkpt lat="47.64123" lon="6.18225">
        <ele>222</ele>
        <time>2020-11-03T16:15:19Z</time>
      </trkpt>
      <trkpt lat="47.64129" lon="6.18231">
        <ele>222</ele>
        <time>2020-11-03T16:15:22Z</time>
      </trkpt>
      <trkpt lat="47.64134" lon="6.18235">
        <ele>222</ele>
        <time>2020-11-03T16:15:24Z</time>
      </trkpt>
      <trkpt lat="47.64141" lon="6.18239">
        <ele>222</ele>
        <time>2020-11-03T16:15:26Z</time>
      </trkpt>
      <trkpt lat="47.64146" lon="6.18243">
        <ele>222</ele>
        <time>2020-11-03T16:15:29Z</time>
      </trkpt>
      <trkpt lat="47.6415" lon="6.18246">
        <ele>222</ele>
        <time>2020-11-03T16:15:31Z</time>
      </trkpt>
      <trkpt lat="47.64161" lon="6.18251">
        <ele>224</ele>
        <time>2020-11-03T16:15:36Z</time>
      </trkpt>
      <trkpt lat="47.64166" lon="6.18252">
        <ele>223</ele>
        <time>2020-11-03T16:15:38Z</time>
      </trkpt>
      <trkpt lat="47.64172" lon="6.18254">
        <ele>223</ele>
        <time>2020-11-03T16:15:41Z</time>
      </trkpt>
      <trkpt lat="47.64177" lon="6.18255">
        <ele>224</ele>
        <time>2020-11-03T16:15:43Z</time>
      </trkpt>
      <trkpt lat="47.64188" lon="6.18258">
        <ele>224</ele>
        <time>2020-11-03T16:15:43Z</time>
      </trkpt>
      <trkpt lat="47.64194" lon="6.18257">
        <ele>224</ele>
        <time>2020-11-03T16:15:51Z</time>
      </trkpt>
      <trkpt lat="47.64199" lon="6.18256">
        <ele>224</ele>
        <time>2020-11-03T16:15:53Z</time>
      </trkpt>
      <trkpt lat="47.64204" lon="6.18257">
        <ele>224</ele>
        <time>2020-11-03T16:15:57Z</time>
      </trkpt>
      <trkpt lat="47.64215" lon="6.18256">
        <ele>224</ele>
        <time>2020-11-03T16:16:05Z</time>
      </trkpt>
      <trkpt lat="47.64226" lon="6.18249">
        <ele>222</ele>
        <time>2020-11-03T16:16:07Z</time>
      </trkpt>
      <trkpt lat="47.64231" lon="6.18245">
        <ele>222</ele>
        <time>2020-11-03T16:16:13Z</time>
      </trkpt>
      <trkpt lat="47.64241" lon="6.18235">
        <ele>222</ele>
        <time>2020-11-03T16:16:16Z</time>
      </trkpt>
      <trkpt lat="47.64245" lon="6.1823">
        <ele>222</ele>
        <time>2020-11-03T16:16:18Z</time>
      </trkpt>
      <trkpt lat="47.64256" lon="6.1822">
        <ele>222</ele>
        <time>2020-11-03T16:16:20Z</time>
      </trkpt>
      <trkpt lat="47.64267" lon="6.1821">
        <ele>222</ele>
        <time>2020-11-03T16:16:23Z</time>
      </trkpt>
      <trkpt lat="47.64274" lon="6.18206">
        <ele>222</ele>
        <time>2020-11-03T16:16:24Z</time>
      </trkpt>
      <trkpt lat="47.64314" lon="6.18187">
        <ele>222</ele>
        <time>2020-11-03T16:16:25Z</time>
      </trkpt>
      <trkpt lat="47.64322" lon="6.18185">
        <ele>222</ele>
        <time>2020-11-03T16:16:26Z</time>
      </trkpt>
      <trkpt lat="47.64329" lon="6.18185">
        <ele>222</ele>
        <time>2020-11-03T16:16:27Z</time>
      </trkpt>
      <trkpt lat="47.64335" lon="6.18187">
        <ele>223</ele>
        <time>2020-11-03T16:16:28Z</time>
      </trkpt>
      <trkpt lat="47.6434" lon="6.1819">
        <ele>222</ele>
        <time>2020-11-03T16:16:29Z</time>
      </trkpt>
      <trkpt lat="47.64345" lon="6.18194">
        <ele>222</ele>
        <time>2020-11-03T16:16:30Z</time>
      </trkpt>
      <trkpt lat="47.64349" lon="6.18198">
        <ele>222</ele>
        <time>2020-11-03T16:16:31Z</time>
      </trkpt>
      <trkpt lat="47.64353" lon="6.18201">
        <ele>222</ele>
        <time>2020-11-03T16:16:32Z</time>
      </trkpt>
      <trkpt lat="47.64356" lon="6.18208">
        <ele>222</ele>
        <time>2020-11-03T16:16:38Z</time>
      </trkpt>
      <trkpt lat="47.64377" lon="6.18232">
        <ele>222</ele>
        <time>2020-11-03T16:16:39Z</time>
      </trkpt>
      <trkpt lat="47.64382" lon="6.18238">
        <ele>222</ele>
        <time>2020-11-03T16:16:40Z</time>
      </trkpt>
      <trkpt lat="47.64387" lon="6.18244">
        <ele>222</ele>
        <time>2020-11-03T16:16:41Z</time>
      </trkpt>
      <trkpt lat="47.64392" lon="6.18249">
        <ele>222</ele>
        <time>2020-11-03T16:16:42Z</time>
      </trkpt>
      <trkpt lat="47.64396" lon="6.18254">
        <ele>223</ele>
        <time>2020-11-03T16:16:43Z</time>
      </trkpt>
      <trkpt lat="47.644" lon="6.18259">
        <ele>223</ele>
        <time>2020-11-03T16:16:44Z</time>
      </trkpt>
      <trkpt lat="47.64404" lon="6.18263">
        <ele>223</ele>
        <time>2020-11-03T16:16:45Z</time>
      </trkpt>
      <trkpt lat="47.64408" lon="6.18268">
        <ele>223</ele>
        <time>2020-11-03T16:16:46Z</time>
      </trkpt>
      <trkpt lat="47.64411" lon="6.18272">
        <ele>223</ele>
        <time>2020-11-03T16:16:47Z</time>
      </trkpt>
      <trkpt lat="47.64418" lon="6.18279">
        <ele>228</ele>
        <time>2020-11-03T16:16:49Z</time>
      </trkpt>
      <trkpt lat="47.64423" lon="6.18285">
        <ele>229</ele>
        <time>2020-11-03T16:16:51Z</time>
      </trkpt>
      <trkpt lat="47.64429" lon="6.18293">
        <ele>229</ele>
        <time>2020-11-03T16:16:53Z</time>
      </trkpt>
      <trkpt lat="47.64433" lon="6.18298">
        <ele>230</ele>
        <time>2020-11-03T16:16:55Z</time>
      </trkpt>
      <trkpt lat="47.64438" lon="6.18303">
        <ele>230</ele>
        <time>2020-11-03T16:16:58Z</time>
      </trkpt>
      <trkpt lat="47.64442" lon="6.18301">
        <ele>231</ele>
        <time>2020-11-03T16:17:03Z</time>
      </trkpt>
      <trkpt lat="47.64453" lon="6.18289">
        <ele>231</ele>
        <time>2020-11-03T16:17:04Z</time>
      </trkpt>
      <trkpt lat="47.64458" lon="6.18283">
        <ele>231</ele>
        <time>2020-11-03T16:17:06Z</time>
      </trkpt>
      <trkpt lat="47.64463" lon="6.18277">
        <ele>231</ele>
        <time>2020-11-03T16:17:08Z</time>
      </trkpt>
      <trkpt lat="47.64467" lon="6.18271">
        <ele>231</ele>
        <time>2020-11-03T16:17:10Z</time>
      </trkpt>
      <trkpt lat="47.6447" lon="6.18266">
        <ele>231</ele>
        <time>2020-11-03T16:17:15Z</time>
      </trkpt>
      <trkpt lat="47.64479" lon="6.18252">
        <ele>231</ele>
        <time>2020-11-03T16:17:19Z</time>
      </trkpt>
      <trkpt lat="47.64488" lon="6.18236">
        <ele>228</ele>
        <time>2020-11-03T16:17:21Z</time>
      </trkpt>
      <trkpt lat="47.64498" lon="6.18211">
        <ele>226</ele>
        <time>2020-11-03T16:17:22Z</time>
      </trkpt>
      <trkpt lat="47.645" lon="6.18202">
        <ele>226</ele>
        <time>2020-11-03T16:17:27Z</time>
      </trkpt>
      <trkpt lat="47.64501" lon="6.18195">
        <ele>232</ele>
        <time>2020-11-03T16:17:29Z</time>
      </trkpt>
      <trkpt lat="47.64497" lon="6.18152">
        <ele>224</ele>
        <time>2020-11-03T16:17:30Z</time>
      </trkpt>
      <trkpt lat="47.64496" lon="6.18145">
        <ele>224</ele>
        <time>2020-11-03T16:17:31Z</time>
      </trkpt>
      <trkpt lat="47.64497" lon="6.18132">
        <ele>224</ele>
        <time>2020-11-03T16:17:33Z</time>
      </trkpt>
      <trkpt lat="47.64499" lon="6.18123">
        <ele>224</ele>
        <time>2020-11-03T16:17:35Z</time>
      </trkpt>
      <trkpt lat="47.645" lon="6.18115">
        <ele>229</ele>
        <time>2020-11-03T16:17:40Z</time>
      </trkpt>
      <trkpt lat="47.64502" lon="6.18106">
        <ele>228</ele>
        <time>2020-11-03T16:17:41Z</time>
      </trkpt>
      <trkpt lat="47.64506" lon="6.18091">
        <ele>226</ele>
        <time>2020-11-03T16:17:44Z</time>
      </trkpt>
      <trkpt lat="47.64507" lon="6.1808">
        <ele>225</ele>
        <time>2020-11-03T16:17:46Z</time>
      </trkpt>
      <trkpt lat="47.64512" lon="6.18048">
        <ele>228</ele>
        <time>2020-11-03T16:17:49Z</time>
      </trkpt>
      <trkpt lat="47.64507" lon="6.18042">
        <ele>227</ele>
        <time>2020-11-03T16:17:55Z</time>
      </trkpt>
      <trkpt lat="47.645" lon="6.18039">
        <ele>227</ele>
        <time>2020-11-03T16:17:57Z</time>
      </trkpt>
      <trkpt lat="47.64493" lon="6.18037">
        <ele>223</ele>
        <time>2020-11-03T16:17:58Z</time>
      </trkpt>
      <trkpt lat="47.64488" lon="6.18034">
        <ele>223</ele>
        <time>2020-11-03T16:18:00Z</time>
      </trkpt>
      <trkpt lat="47.64482" lon="6.1803">
        <ele>223</ele>
        <time>2020-11-03T16:18:01Z</time>
      </trkpt>
      <trkpt lat="47.6447" lon="6.18019">
        <ele>223</ele>
        <time>2020-11-03T16:18:04Z</time>
      </trkpt>
      <trkpt lat="47.64465" lon="6.18014">
        <ele>223</ele>
        <time>2020-11-03T16:18:05Z</time>
      </trkpt>
      <trkpt lat="47.64461" lon="6.18007">
        <ele>223</ele>
        <time>2020-11-03T16:18:07Z</time>
      </trkpt>
      <trkpt lat="47.64445" lon="6.17984">
        <ele>222</ele>
        <time>2020-11-03T16:18:11Z</time>
      </trkpt>
      <trkpt lat="47.6443" lon="6.17959">
        <ele>222</ele>
        <time>2020-11-03T16:18:17Z</time>
      </trkpt>
      <trkpt lat="47.64421" lon="6.17945">
        <ele>222</ele>
        <time>2020-11-03T16:18:20Z</time>
      </trkpt>
      <trkpt lat="47.64418" lon="6.17939">
        <ele>222</ele>
        <time>2020-11-03T16:18:21Z</time>
      </trkpt>
      <trkpt lat="47.64413" lon="6.17928">
        <ele>221</ele>
        <time>2020-11-03T16:18:23Z</time>
      </trkpt>
      <trkpt lat="47.64403" lon="6.17907">
        <ele>221</ele>
        <time>2020-11-03T16:18:24Z</time>
      </trkpt>
      <trkpt lat="47.644" lon="6.179">
        <ele>221</ele>
        <time>2020-11-03T16:18:29Z</time>
      </trkpt>
      <trkpt lat="47.64392" lon="6.17887">
        <ele>220</ele>
        <time>2020-11-03T16:18:32Z</time>
      </trkpt>
      <trkpt lat="47.64377" lon="6.17862">
        <ele>220</ele>
        <time>2020-11-03T16:18:34Z</time>
      </trkpt>
      <trkpt lat="47.64373" lon="6.17855">
        <ele>220</ele>
        <time>2020-11-03T16:18:39Z</time>
      </trkpt>
      <trkpt lat="47.64369" lon="6.17849">
        <ele>220</ele>
        <time>2020-11-03T16:18:41Z</time>
      </trkpt>
      <trkpt lat="47.64359" lon="6.17837">
        <ele>220</ele>
        <time>2020-11-03T16:18:44Z</time>
      </trkpt>
      <trkpt lat="47.64349" lon="6.17826">
        <ele>220</ele>
        <time>2020-11-03T16:18:47Z</time>
      </trkpt>
      <trkpt lat="47.64341" lon="6.17812">
        <ele>220</ele>
        <time>2020-11-03T16:18:50Z</time>
      </trkpt>
      <trkpt lat="47.64335" lon="6.17798">
        <ele>220</ele>
        <time>2020-11-03T16:18:53Z</time>
      </trkpt>
      <trkpt lat="47.64324" lon="6.17792">
        <ele>219</ele>
        <time>2020-11-03T16:18:55Z</time>
      </trkpt>
      <trkpt lat="47.64319" lon="6.17789">
        <ele>219</ele>
        <time>2020-11-03T16:18:57Z</time>
      </trkpt>
      <trkpt lat="47.64294" lon="6.17776">
        <ele>219</ele>
        <time>2020-11-03T16:18:59Z</time>
      </trkpt>
      <trkpt lat="47.6429" lon="6.17774">
        <ele>219</ele>
        <time>2020-11-03T16:19:00Z</time>
      </trkpt>
      <trkpt lat="47.64282" lon="6.1777">
        <ele>219</ele>
        <time>2020-11-03T16:19:02Z</time>
      </trkpt>
      <trkpt lat="47.64276" lon="6.17767">
        <ele>218</ele>
        <time>2020-11-03T16:19:07Z</time>
      </trkpt>
      <trkpt lat="47.64271" lon="6.17765">
        <ele>218</ele>
        <time>2020-11-03T16:19:09Z</time>
      </trkpt>
      <trkpt lat="47.6425" lon="6.17753">
        <ele>217</ele>
        <time>2020-11-03T16:19:10Z</time>
      </trkpt>
      <trkpt lat="47.64242" lon="6.17747">
        <ele>217</ele>
        <time>2020-11-03T16:19:12Z</time>
      </trkpt>
      <trkpt lat="47.64235" lon="6.1774">
        <ele>217</ele>
        <time>2020-11-03T16:19:14Z</time>
      </trkpt>
      <trkpt lat="47.64228" lon="6.17734">
        <ele>217</ele>
        <time>2020-11-03T16:19:16Z</time>
      </trkpt>
      <trkpt lat="47.64221" lon="6.17726">
        <ele>217</ele>
        <time>2020-11-03T16:19:18Z</time>
      </trkpt>
      <trkpt lat="47.64214" lon="6.17718">
        <ele>217</ele>
        <time>2020-11-03T16:19:20Z</time>
      </trkpt>
      <trkpt lat="47.64207" lon="6.1771">
        <ele>217</ele>
        <time>2020-11-03T16:19:22Z</time>
      </trkpt>
      <trkpt lat="47.64201" lon="6.17702">
        <ele>218</ele>
        <time>2020-11-03T16:19:24Z</time>
      </trkpt>
      <trkpt lat="47.64195" lon="6.17693">
        <ele>218</ele>
        <time>2020-11-03T16:19:26Z</time>
      </trkpt>
      <trkpt lat="47.64189" lon="6.17685">
        <ele>218</ele>
        <time>2020-11-03T16:19:28Z</time>
      </trkpt>
      <trkpt lat="47.64182" lon="6.17677">
        <ele>218</ele>
        <time>2020-11-03T16:19:30Z</time>
      </trkpt>
      <trkpt lat="47.64176" lon="6.17668">
        <ele>218</ele>
        <time>2020-11-03T16:19:32Z</time>
      </trkpt>
      <trkpt lat="47.6417" lon="6.1766">
        <ele>219</ele>
        <time>2020-11-03T16:19:34Z</time>
      </trkpt>
      <trkpt lat="47.64164" lon="6.17651">
        <ele>218</ele>
        <time>2020-11-03T16:19:36Z</time>
      </trkpt>
      <trkpt lat="47.64161" lon="6.17646">
        <ele>218</ele>
        <time>2020-11-03T16:19:37Z</time>
      </trkpt>
      <trkpt lat="47.64155" lon="6.17638">
        <ele>218</ele>
        <time>2020-11-03T16:19:39Z</time>
      </trkpt>
      <trkpt lat="47.64149" lon="6.1763">
        <ele>218</ele>
        <time>2020-11-03T16:19:41Z</time>
      </trkpt>
      <trkpt lat="47.64143" lon="6.17622">
        <ele>218</ele>
        <time>2020-11-03T16:19:43Z</time>
      </trkpt>
      <trkpt lat="47.64138" lon="6.17616">
        <ele>217</ele>
        <time>2020-11-03T16:19:48Z</time>
      </trkpt>
      <trkpt lat="47.64128" lon="6.17603">
        <ele>217</ele>
        <time>2020-11-03T16:19:51Z</time>
      </trkpt>
      <trkpt lat="47.64125" lon="6.17598">
        <ele>217</ele>
        <time>2020-11-03T16:19:52Z</time>
      </trkpt>
      <trkpt lat="47.64121" lon="6.17593">
        <ele>217</ele>
        <time>2020-11-03T16:19:54Z</time>
      </trkpt>
      <trkpt lat="47.64116" lon="6.17586">
        <ele>217</ele>
        <time>2020-11-03T16:19:55Z</time>
      </trkpt>
      <trkpt lat="47.64112" lon="6.17581">
        <ele>217</ele>
        <time>2020-11-03T16:19:57Z</time>
      </trkpt>
      <trkpt lat="47.64096" lon="6.17556">
        <ele>217</ele>
        <time>2020-11-03T16:20:02Z</time>
      </trkpt>
      <trkpt lat="47.64081" lon="6.17534">
        <ele>217</ele>
        <time>2020-11-03T16:20:04Z</time>
      </trkpt>
      <trkpt lat="47.64075" lon="6.17527">
        <ele>217</ele>
        <time>2020-11-03T16:20:06Z</time>
      </trkpt>
      <trkpt lat="47.6407" lon="6.1752">
        <ele>217</ele>
        <time>2020-11-03T16:20:08Z</time>
      </trkpt>
      <trkpt lat="47.64065" lon="6.17513">
        <ele>217</ele>
        <time>2020-11-03T16:20:10Z</time>
      </trkpt>
      <trkpt lat="47.64061" lon="6.17507">
        <ele>217</ele>
        <time>2020-11-03T16:20:12Z</time>
      </trkpt>
      <trkpt lat="47.64057" lon="6.17499">
        <ele>218</ele>
        <time>2020-11-03T16:20:14Z</time>
      </trkpt>
      <trkpt lat="47.64057" lon="6.17507">
        <ele>217</ele>
        <time>2020-11-03T16:20:17Z</time>
      </trkpt>
      <trkpt lat="47.64062" lon="6.17515">
        <ele>217</ele>
        <time>2020-11-03T16:20:20Z</time>
      </trkpt>
      <trkpt lat="47.64068" lon="6.17518">
        <ele>217</ele>
        <time>2020-11-03T16:20:24Z</time>
      </trkpt>
      <trkpt lat="47.64071" lon="6.17524">
        <ele>217</ele>
        <time>2020-11-03T16:20:27Z</time>
      </trkpt>
      <trkpt lat="47.64075" lon="6.1753">
        <ele>217</ele>
        <time>2020-11-03T16:20:29Z</time>
      </trkpt>
      <trkpt lat="47.64079" lon="6.17536">
        <ele>217</ele>
        <time>2020-11-03T16:20:31Z</time>
      </trkpt>
      <trkpt lat="47.64084" lon="6.17543">
        <ele>217</ele>
        <time>2020-11-03T16:20:33Z</time>
      </trkpt>
      <trkpt lat="47.64089" lon="6.1755">
        <ele>217</ele>
        <time>2020-11-03T16:20:35Z</time>
      </trkpt>
      <trkpt lat="47.64094" lon="6.17557">
        <ele>217</ele>
        <time>2020-11-03T16:20:37Z</time>
      </trkpt>
      <trkpt lat="47.641" lon="6.17564">
        <ele>217</ele>
        <time>2020-11-03T16:20:39Z</time>
      </trkpt>
      <trkpt lat="47.64106" lon="6.17573">
        <ele>217</ele>
        <time>2020-11-03T16:20:41Z</time>
      </trkpt>
      <trkpt lat="47.64111" lon="6.17581">
        <ele>217</ele>
        <time>2020-11-03T16:20:43Z</time>
      </trkpt>
      <trkpt lat="47.64117" lon="6.17589">
        <ele>217</ele>
        <time>2020-11-03T16:20:45Z</time>
      </trkpt>
      <trkpt lat="47.64122" lon="6.17596">
        <ele>217</ele>
        <time>2020-11-03T16:20:47Z</time>
      </trkpt>
      <trkpt lat="47.64127" lon="6.17603">
        <ele>217</ele>
        <time>2020-11-03T16:20:49Z</time>
      </trkpt>
      <trkpt lat="47.64132" lon="6.1761">
        <ele>217</ele>
        <time>2020-11-03T16:20:51Z</time>
      </trkpt>
      <trkpt lat="47.64137" lon="6.17617">
        <ele>217</ele>
        <time>2020-11-03T16:20:56Z</time>
      </trkpt>
      <trkpt lat="47.64144" lon="6.17626">
        <ele>218</ele>
        <time>2020-11-03T16:20:59Z</time>
      </trkpt>
      <trkpt lat="47.64147" lon="6.17631">
        <ele>218</ele>
        <time>2020-11-03T16:21:00Z</time>
      </trkpt>
      <trkpt lat="47.64166" lon="6.17658">
        <ele>218</ele>
        <time>2020-11-03T16:21:02Z</time>
      </trkpt>
      <trkpt lat="47.64171" lon="6.17666">
        <ele>218</ele>
        <time>2020-11-03T16:21:07Z</time>
      </trkpt>
      <trkpt lat="47.64175" lon="6.17672">
        <ele>218</ele>
        <time>2020-11-03T16:21:09Z</time>
      </trkpt>
      <trkpt lat="47.64196" lon="6.17702">
        <ele>217</ele>
        <time>2020-11-03T16:21:10Z</time>
      </trkpt>
      <trkpt lat="47.642" lon="6.17707">
        <ele>217</ele>
        <time>2020-11-03T16:21:11Z</time>
      </trkpt>
      <trkpt lat="47.64203" lon="6.17712">
        <ele>217</ele>
        <time>2020-11-03T16:21:12Z</time>
      </trkpt>
      <trkpt lat="47.64207" lon="6.17717">
        <ele>217</ele>
        <time>2020-11-03T16:21:13Z</time>
      </trkpt>
      <trkpt lat="47.6421" lon="6.17722">
        <ele>217</ele>
        <time>2020-11-03T16:21:14Z</time>
      </trkpt>
      <trkpt lat="47.64214" lon="6.17727">
        <ele>217</ele>
        <time>2020-11-03T16:21:15Z</time>
      </trkpt>
      <trkpt lat="47.64218" lon="6.17731">
        <ele>217</ele>
        <time>2020-11-03T16:21:16Z</time>
      </trkpt>
      <trkpt lat="47.64221" lon="6.17735">
        <ele>217</ele>
        <time>2020-11-03T16:21:17Z</time>
      </trkpt>
      <trkpt lat="47.64229" lon="6.17743">
        <ele>217</ele>
        <time>2020-11-03T16:21:19Z</time>
      </trkpt>
      <trkpt lat="47.64232" lon="6.17747">
        <ele>217</ele>
        <time>2020-11-03T16:21:20Z</time>
      </trkpt>
      <trkpt lat="47.64236" lon="6.17751">
        <ele>217</ele>
        <time>2020-11-03T16:21:21Z</time>
      </trkpt>
      <trkpt lat="47.64244" lon="6.17757">
        <ele>217</ele>
        <time>2020-11-03T16:21:23Z</time>
      </trkpt>
      <trkpt lat="47.64252" lon="6.17762">
        <ele>218</ele>
        <time>2020-11-03T16:21:25Z</time>
      </trkpt>
      <trkpt lat="47.6426" lon="6.17766">
        <ele>218</ele>
        <time>2020-11-03T16:21:27Z</time>
      </trkpt>
      <trkpt lat="47.64268" lon="6.17771">
        <ele>218</ele>
        <time>2020-11-03T16:21:29Z</time>
      </trkpt>
      <trkpt lat="47.64276" lon="6.17775">
        <ele>218</ele>
        <time>2020-11-03T16:21:31Z</time>
      </trkpt>
      <trkpt lat="47.64284" lon="6.1778">
        <ele>219</ele>
        <time>2020-11-03T16:21:33Z</time>
      </trkpt>
      <trkpt lat="47.64288" lon="6.17782">
        <ele>219</ele>
        <time>2020-11-03T16:21:34Z</time>
      </trkpt>
      <trkpt lat="47.64297" lon="6.17787">
        <ele>219</ele>
        <time>2020-11-03T16:21:36Z</time>
      </trkpt>
      <trkpt lat="47.64301" lon="6.17789">
        <ele>219</ele>
        <time>2020-11-03T16:21:37Z</time>
      </trkpt>
      <trkpt lat="47.6431" lon="6.17794">
        <ele>219</ele>
        <time>2020-11-03T16:21:39Z</time>
      </trkpt>
      <trkpt lat="47.64318" lon="6.17798">
        <ele>219</ele>
        <time>2020-11-03T16:21:41Z</time>
      </trkpt>
      <trkpt lat="47.64322" lon="6.17801">
        <ele>219</ele>
        <time>2020-11-03T16:21:42Z</time>
      </trkpt>
      <trkpt lat="47.64331" lon="6.17805">
        <ele>219</ele>
        <time>2020-11-03T16:21:44Z</time>
      </trkpt>
      <trkpt lat="47.64337" lon="6.17808">
        <ele>220</ele>
        <time>2020-11-03T16:21:46Z</time>
      </trkpt>
      <trkpt lat="47.64344" lon="6.17814">
        <ele>220</ele>
        <time>2020-11-03T16:21:48Z</time>
      </trkpt>
      <trkpt lat="47.64347" lon="6.17823">
        <ele>220</ele>
        <time>2020-11-03T16:21:50Z</time>
      </trkpt>
      <trkpt lat="47.64349" lon="6.17839">
        <ele>220</ele>
        <time>2020-11-03T16:21:52Z</time>
      </trkpt>
      <trkpt lat="47.64344" lon="6.17845">
        <ele>220</ele>
        <time>2020-11-03T16:21:58Z</time>
      </trkpt>
      <trkpt lat="47.64358" lon="6.17867">
        <ele>220</ele>
        <time>2020-11-03T16:21:59Z</time>
      </trkpt>
      <trkpt lat="47.64365" lon="6.17874">
        <ele>220</ele>
        <time>2020-11-03T16:22:01Z</time>
      </trkpt>
      <trkpt lat="47.64371" lon="6.1788">
        <ele>220</ele>
        <time>2020-11-03T16:22:03Z</time>
      </trkpt>
      <trkpt lat="47.64375" lon="6.17886">
        <ele>220</ele>
        <time>2020-11-03T16:22:08Z</time>
      </trkpt>
      <trkpt lat="47.64378" lon="6.17891">
        <ele>220</ele>
        <time>2020-11-03T16:22:09Z</time>
      </trkpt>
      <trkpt lat="47.6439" lon="6.17913">
        <ele>221</ele>
        <time>2020-11-03T16:22:11Z</time>
      </trkpt>
      <trkpt lat="47.64395" lon="6.1792">
        <ele>221</ele>
        <time>2020-11-03T16:22:13Z</time>
      </trkpt>
      <trkpt lat="47.64401" lon="6.17923">
        <ele>221</ele>
        <time>2020-11-03T16:22:19Z</time>
      </trkpt>
      <trkpt lat="47.64406" lon="6.1793">
        <ele>221</ele>
        <time>2020-11-03T16:22:20Z</time>
      </trkpt>
      <trkpt lat="47.64417" lon="6.1795">
        <ele>222</ele>
        <time>2020-11-03T16:22:21Z</time>
      </trkpt>
      <trkpt lat="47.64421" lon="6.17958">
        <ele>222</ele>
        <time>2020-11-03T16:22:23Z</time>
      </trkpt>
      <trkpt lat="47.64426" lon="6.17967">
        <ele>222</ele>
        <time>2020-11-03T16:22:25Z</time>
      </trkpt>
      <trkpt lat="47.64431" lon="6.17975">
        <ele>222</ele>
        <time>2020-11-03T16:22:31Z</time>
      </trkpt>
      <trkpt lat="47.64434" lon="6.17984">
        <ele>222</ele>
        <time>2020-11-03T16:22:32Z</time>
      </trkpt>
      <trkpt lat="47.64437" lon="6.1799">
        <ele>222</ele>
        <time>2020-11-03T16:22:33Z</time>
      </trkpt>
      <trkpt lat="47.64452" lon="6.18013">
        <ele>223</ele>
        <time>2020-11-03T16:22:38Z</time>
      </trkpt>
      <trkpt lat="47.64459" lon="6.18023">
        <ele>223</ele>
        <time>2020-11-03T16:22:40Z</time>
      </trkpt>
      <trkpt lat="47.64467" lon="6.18031">
        <ele>223</ele>
        <time>2020-11-03T16:22:41Z</time>
      </trkpt>
      <trkpt lat="47.64479" lon="6.18038">
        <ele>223</ele>
        <time>2020-11-03T16:22:44Z</time>
      </trkpt>
      <trkpt lat="47.64498" lon="6.18049">
        <ele>223</ele>
        <time>2020-11-03T16:22:46Z</time>
      </trkpt>
      <trkpt lat="47.64504" lon="6.1805">
        <ele>227</ele>
        <time>2020-11-03T16:22:48Z</time>
      </trkpt>
      <trkpt lat="47.64507" lon="6.18058">
        <ele>227</ele>
        <time>2020-11-03T16:22:50Z</time>
      </trkpt>
      <trkpt lat="47.64506" lon="6.18067">
        <ele>226</ele>
        <time>2020-11-03T16:22:52Z</time>
      </trkpt>
      <trkpt lat="47.64503" lon="6.18074">
        <ele>225</ele>
        <time>2020-11-03T16:22:54Z</time>
      </trkpt>
      <trkpt lat="47.645" lon="6.18082">
        <ele>223</ele>
        <time>2020-11-03T16:23:00Z</time>
      </trkpt>
      <trkpt lat="47.64498" lon="6.18092">
        <ele>223</ele>
        <time>2020-11-03T16:23:01Z</time>
      </trkpt>
      <trkpt lat="47.64497" lon="6.18099">
        <ele>223</ele>
        <time>2020-11-03T16:23:03Z</time>
      </trkpt>
      <trkpt lat="47.64495" lon="6.18106">
        <ele>223</ele>
        <time>2020-11-03T16:23:04Z</time>
      </trkpt>
      <trkpt lat="47.64494" lon="6.18114">
        <ele>224</ele>
        <time>2020-11-03T16:23:05Z</time>
      </trkpt>
      <trkpt lat="47.64492" lon="6.18128">
        <ele>224</ele>
        <time>2020-11-03T16:23:07Z</time>
      </trkpt>
      <trkpt lat="47.64491" lon="6.18135">
        <ele>224</ele>
        <time>2020-11-03T16:23:08Z</time>
      </trkpt>
      <trkpt lat="47.64492" lon="6.1815">
        <ele>224</ele>
        <time>2020-11-03T16:23:10Z</time>
      </trkpt>
      <trkpt lat="47.64493" lon="6.18157">
        <ele>224</ele>
        <time>2020-11-03T16:23:11Z</time>
      </trkpt>
      <trkpt lat="47.64497" lon="6.18174">
        <ele>225</ele>
        <time>2020-11-03T16:23:13Z</time>
      </trkpt>
      <trkpt lat="47.64496" lon="6.18185">
        <ele>225</ele>
        <time>2020-11-03T16:23:15Z</time>
      </trkpt>
      <trkpt lat="47.64489" lon="6.18211">
        <ele>226</ele>
        <time>2020-11-03T16:23:16Z</time>
      </trkpt>
      <trkpt lat="47.64487" lon="6.1822">
        <ele>227</ele>
        <time>2020-11-03T16:23:18Z</time>
      </trkpt>
      <trkpt lat="47.64485" lon="6.18228">
        <ele>227</ele>
        <time>2020-11-03T16:23:25Z</time>
      </trkpt>
      <trkpt lat="47.64481" lon="6.18235">
        <ele>227</ele>
        <time>2020-11-03T16:23:27Z</time>
      </trkpt>
      <trkpt lat="47.64478" lon="6.18241">
        <ele>227</ele>
        <time>2020-11-03T16:23:28Z</time>
      </trkpt>
      <trkpt lat="47.64475" lon="6.18247">
        <ele>227</ele>
        <time>2020-11-03T16:23:30Z</time>
      </trkpt>
      <trkpt lat="47.64465" lon="6.18261">
        <ele>230</ele>
        <time>2020-11-03T16:23:33Z</time>
      </trkpt>
      <trkpt lat="47.6446" lon="6.18267">
        <ele>230</ele>
        <time>2020-11-03T16:23:35Z</time>
      </trkpt>
      <trkpt lat="47.64452" lon="6.1828">
        <ele>230</ele>
        <time>2020-11-03T16:23:40Z</time>
      </trkpt>
      <trkpt lat="47.64447" lon="6.18286">
        <ele>230</ele>
        <time>2020-11-03T16:23:42Z</time>
      </trkpt>
      <trkpt lat="47.64442" lon="6.1829">
        <ele>230</ele>
        <time>2020-11-03T16:23:45Z</time>
      </trkpt>
      <trkpt lat="47.64438" lon="6.18294">
        <ele>230</ele>
        <time>2020-11-03T16:23:46Z</time>
      </trkpt>
      <trkpt lat="47.64429" lon="6.18305">
        <ele>230</ele>
        <time>2020-11-03T16:23:50Z</time>
      </trkpt>
      <trkpt lat="47.64423" lon="6.18311">
        <ele>230</ele>
        <time>2020-11-03T16:23:51Z</time>
      </trkpt>
      <trkpt lat="47.64419" lon="6.18314">
        <ele>229</ele>
        <time>2020-11-03T16:23:53Z</time>
      </trkpt>
      <trkpt lat="47.64414" lon="6.1832">
        <ele>226</ele>
        <time>2020-11-03T16:23:54Z</time>
      </trkpt>
      <trkpt lat="47.64409" lon="6.18326">
        <ele>226</ele>
        <time>2020-11-03T16:23:56Z</time>
      </trkpt>
      <trkpt lat="47.64404" lon="6.18332">
        <ele>226</ele>
        <time>2020-11-03T16:23:57Z</time>
      </trkpt>
      <trkpt lat="47.64401" lon="6.18337">
        <ele>228</ele>
        <time>2020-11-03T16:23:59Z</time>
      </trkpt>
      <trkpt lat="47.64397" lon="6.18341">
        <ele>228</ele>
        <time>2020-11-03T16:24:00Z</time>
      </trkpt>
      <trkpt lat="47.64387" lon="6.18354">
        <ele>227</ele>
        <time>2020-11-03T16:24:03Z</time>
      </trkpt>
      <trkpt lat="47.64378" lon="6.18362">
        <ele>227</ele>
        <time>2020-11-03T16:24:06Z</time>
      </trkpt>
      <trkpt lat="47.64367" lon="6.18369">
        <ele>227</ele>
        <time>2020-11-03T16:24:10Z</time>
      </trkpt>
      <trkpt lat="47.64354" lon="6.18383">
        <ele>226</ele>
        <time>2020-11-03T16:24:14Z</time>
      </trkpt>
      <trkpt lat="47.64351" lon="6.1839">
        <ele>226</ele>
        <time>2020-11-03T16:24:16Z</time>
      </trkpt>
      <trkpt lat="47.64348" lon="6.18398">
        <ele>225</ele>
        <time>2020-11-03T16:24:18Z</time>
      </trkpt>
      <trkpt lat="47.64344" lon="6.18405">
        <ele>225</ele>
        <time>2020-11-03T16:24:21Z</time>
      </trkpt>
      <trkpt lat="47.6434" lon="6.18414">
        <ele>223</ele>
        <time>2020-11-03T16:24:23Z</time>
      </trkpt>
      <trkpt lat="47.64336" lon="6.18421">
        <ele>224</ele>
        <time>2020-11-03T16:24:25Z</time>
      </trkpt>
      <trkpt lat="47.64332" lon="6.18429">
        <ele>222</ele>
        <time>2020-11-03T16:24:27Z</time>
      </trkpt>
      <trkpt lat="47.64329" lon="6.18435">
        <ele>222</ele>
        <time>2020-11-03T16:24:29Z</time>
      </trkpt>
      <trkpt lat="47.64326" lon="6.18442">
        <ele>222</ele>
        <time>2020-11-03T16:24:30Z</time>
      </trkpt>
      <trkpt lat="47.64318" lon="6.18461">
        <ele>223</ele>
        <time>2020-11-03T16:24:34Z</time>
      </trkpt>
      <trkpt lat="47.64315" lon="6.18467">
        <ele>223</ele>
        <time>2020-11-03T16:24:36Z</time>
      </trkpt>
      <trkpt lat="47.64313" lon="6.18477">
        <ele>223</ele>
        <time>2020-11-03T16:24:39Z</time>
      </trkpt>
      <trkpt lat="47.64315" lon="6.18496">
        <ele>223</ele>
        <time>2020-11-03T16:24:41Z</time>
      </trkpt>
      <trkpt lat="47.6432" lon="6.18513">
        <ele>224</ele>
        <time>2020-11-03T16:24:44Z</time>
      </trkpt>
      <trkpt lat="47.64323" lon="6.18522">
        <ele>224</ele>
        <time>2020-11-03T16:24:46Z</time>
      </trkpt>
      <trkpt lat="47.64326" lon="6.18536">
        <ele>224</ele>
        <time>2020-11-03T16:24:48Z</time>
      </trkpt>
      <trkpt lat="47.64325" lon="6.18529">
        <ele>224</ele>
        <time>2020-11-03T16:24:52Z</time>
      </trkpt>
      <trkpt lat="47.64321" lon="6.18521">
        <ele>224</ele>
        <time>2020-11-03T16:24:58Z</time>
      </trkpt>
      <trkpt lat="47.64318" lon="6.18514">
        <ele>224</ele>
        <time>2020-11-03T16:25:00Z</time>
      </trkpt>
      <trkpt lat="47.64314" lon="6.18491">
        <ele>223</ele>
        <time>2020-11-03T16:25:04Z</time>
      </trkpt>
      <trkpt lat="47.64315" lon="6.18484">
        <ele>223</ele>
        <time>2020-11-03T16:25:06Z</time>
      </trkpt>
      <trkpt lat="47.64318" lon="6.18472">
        <ele>223</ele>
        <time>2020-11-03T16:25:07Z</time>
      </trkpt>
      <trkpt lat="47.64321" lon="6.1846">
        <ele>223</ele>
        <time>2020-11-03T16:25:09Z</time>
      </trkpt>
      <trkpt lat="47.64323" lon="6.18453">
        <ele>223</ele>
        <time>2020-11-03T16:25:10Z</time>
      </trkpt>
      <trkpt lat="47.64326" lon="6.18446">
        <ele>223</ele>
        <time>2020-11-03T16:25:12Z</time>
      </trkpt>
      <trkpt lat="47.64328" lon="6.18439">
        <ele>222</ele>
        <time>2020-11-03T16:25:13Z</time>
      </trkpt>
      <trkpt lat="47.64335" lon="6.18422">
        <ele>224</ele>
        <time>2020-11-03T16:25:16Z</time>
      </trkpt>
      <trkpt lat="47.64338" lon="6.18417">
        <ele>223</ele>
        <time>2020-11-03T16:25:17Z</time>
      </trkpt>
      <trkpt lat="47.64347" lon="6.184">
        <ele>225</ele>
        <time>2020-11-03T16:25:21Z</time>
      </trkpt>
      <trkpt lat="47.64357" lon="6.18383">
        <ele>226</ele>
        <time>2020-11-03T16:25:24Z</time>
      </trkpt>
      <trkpt lat="47.64362" lon="6.18378">
        <ele>226</ele>
        <time>2020-11-03T16:25:26Z</time>
      </trkpt>
      <trkpt lat="47.64369" lon="6.18371">
        <ele>227</ele>
        <time>2020-11-03T16:25:28Z</time>
      </trkpt>
      <trkpt lat="47.64388" lon="6.18353">
        <ele>227</ele>
        <time>2020-11-03T16:25:32Z</time>
      </trkpt>
      <trkpt lat="47.644" lon="6.18342">
        <ele>228</ele>
        <time>2020-11-03T16:25:36Z</time>
      </trkpt>
      <trkpt lat="47.64407" lon="6.18335">
        <ele>228</ele>
        <time>2020-11-03T16:25:38Z</time>
      </trkpt>
      <trkpt lat="47.64412" lon="6.18328">
        <ele>227</ele>
        <time>2020-11-03T16:25:39Z</time>
      </trkpt>
      <trkpt lat="47.64416" lon="6.18324">
        <ele>226</ele>
        <time>2020-11-03T16:25:41Z</time>
      </trkpt>
      <trkpt lat="47.64419" lon="6.18319">
        <ele>229</ele>
        <time>2020-11-03T16:25:42Z</time>
      </trkpt>
      <trkpt lat="47.64435" lon="6.18313">
        <ele>230</ele>
        <time>2020-11-03T16:25:48Z</time>
      </trkpt>
      <trkpt lat="47.6444" lon="6.18314">
        <ele>231</ele>
        <time>2020-11-03T16:25:50Z</time>
      </trkpt>
      <trkpt lat="47.64431" lon="6.18294">
        <ele>230</ele>
        <time>2020-11-03T16:25:54Z</time>
      </trkpt>
      <trkpt lat="47.64424" lon="6.18279">
        <ele>228</ele>
        <time>2020-11-03T16:25:59Z</time>
      </trkpt>
      <trkpt lat="47.6443" lon="6.18291">
        <ele>229</ele>
        <time>2020-11-03T16:26:04Z</time>
      </trkpt>
      <trkpt lat="47.64441" lon="6.18302">
        <ele>230</ele>
        <time>2020-11-03T16:26:06Z</time>
      </trkpt>
      <trkpt lat="47.64442" lon="6.1831">
        <ele>231</ele>
        <time>2020-11-03T16:26:08Z</time>
      </trkpt>
      <trkpt lat="47.64442" lon="6.18317">
        <ele>231</ele>
        <time>2020-11-03T16:26:14Z</time>
      </trkpt>
      <trkpt lat="47.64438" lon="6.18319">
        <ele>230</ele>
        <time>2020-11-03T16:26:26Z</time>
      </trkpt>
    </trkseg>
  </trk>
</gpx>